<?xml version="1.0" encoding="UTF-8" standalone="no" ?>
<gpx xmlns="http://www.topografix.com/GPX/1/1" xmlns:xsi="http://www.w3.org/2001/XMLSchema-instance" xsi:schemaLocation="http://www.topografix.com/GPX/1/1 http://www.topografix.com/GPX/1/1/gpx.xsd" version="1.1" creator="VisuGPX - https://www.visugpx.com">
  <metadata>
    <name>Vallée du SIRBAL - Cabane de BALLEDREYT vers étang LARNOUM</name>
    <desc><![CDATA[Avec nuit à la cabane de BALLEDREYT]]></desc>
  </metadata>
  <trk>
    <name><![CDATA[Vallée Sirbal étang Larnoum par Cabane BALLEDREYT]]></name>
    <trkseg>
      <trkpt lat="42.74044" lon="1.65844">
        <ele>782.65</ele>
        <time>2015-11-07T07:51:30Z</time>
      </trkpt>
      <trkpt lat="42.74045" lon="1.65844">
        <ele>779.77</ele>
        <time>2015-11-07T07:51:51Z</time>
      </trkpt>
      <trkpt lat="42.74046" lon="1.65848">
        <ele>781.21</ele>
        <time>2015-11-07T07:52:15Z</time>
      </trkpt>
      <trkpt lat="42.74046" lon="1.6585">
        <ele>780.73</ele>
        <time>2015-11-07T07:52:36Z</time>
      </trkpt>
      <trkpt lat="42.74045" lon="1.65847">
        <ele>783.61</ele>
        <time>2015-11-07T07:52:43Z</time>
      </trkpt>
      <trkpt lat="42.74045" lon="1.65846">
        <ele>779.77</ele>
        <time>2015-11-07T07:52:44Z</time>
      </trkpt>
      <trkpt lat="42.74044" lon="1.65847">
        <ele>780.25</ele>
        <time>2015-11-07T07:53:05Z</time>
      </trkpt>
      <trkpt lat="42.74043" lon="1.65849">
        <ele>779.77</ele>
        <time>2015-11-07T07:53:23Z</time>
      </trkpt>
      <trkpt lat="42.74044" lon="1.65855">
        <ele>780.73</ele>
        <time>2015-11-07T07:53:52Z</time>
      </trkpt>
      <trkpt lat="42.74041" lon="1.65853">
        <ele>780.73</ele>
        <time>2015-11-07T07:54:24Z</time>
      </trkpt>
      <trkpt lat="42.74043" lon="1.65854">
        <ele>780.73</ele>
        <time>2015-11-07T07:54:53Z</time>
      </trkpt>
      <trkpt lat="42.74044" lon="1.65848">
        <ele>780.73</ele>
        <time>2015-11-07T07:55:16Z</time>
      </trkpt>
      <trkpt lat="42.74044" lon="1.65846">
        <ele>780.73</ele>
        <time>2015-11-07T07:55:45Z</time>
      </trkpt>
      <trkpt lat="42.74045" lon="1.65845">
        <ele>786.02</ele>
        <time>2015-11-07T07:55:47Z</time>
      </trkpt>
      <trkpt lat="42.74045" lon="1.65845">
        <ele>782.17</ele>
        <time>2015-11-07T07:55:48Z</time>
      </trkpt>
      <trkpt lat="42.74046" lon="1.6584">
        <ele>782.17</ele>
        <time>2015-11-07T07:56:10Z</time>
      </trkpt>
      <trkpt lat="42.74048" lon="1.65844">
        <ele>782.17</ele>
        <time>2015-11-07T07:56:32Z</time>
      </trkpt>
      <trkpt lat="42.74047" lon="1.65843">
        <ele>782.65</ele>
        <time>2015-11-07T07:56:51Z</time>
      </trkpt>
      <trkpt lat="42.74048" lon="1.65846">
        <ele>780.73</ele>
        <time>2015-11-07T07:56:57Z</time>
      </trkpt>
      <trkpt lat="42.74047" lon="1.65847">
        <ele>786.98</ele>
        <time>2015-11-07T07:56:58Z</time>
      </trkpt>
      <trkpt lat="42.74047" lon="1.65847">
        <ele>780.73</ele>
        <time>2015-11-07T07:56:59Z</time>
      </trkpt>
      <trkpt lat="42.74046" lon="1.65848">
        <ele>785.05</ele>
        <time>2015-11-07T07:57:00Z</time>
      </trkpt>
      <trkpt lat="42.74046" lon="1.65846">
        <ele>779.77</ele>
        <time>2015-11-07T07:57:08Z</time>
      </trkpt>
      <trkpt lat="42.74047" lon="1.65847">
        <ele>784.09</ele>
        <time>2015-11-07T07:57:09Z</time>
      </trkpt>
      <trkpt lat="42.74047" lon="1.65847">
        <ele>776.4</ele>
        <time>2015-11-07T07:57:10Z</time>
      </trkpt>
      <trkpt lat="42.74047" lon="1.65848">
        <ele>790.34</ele>
        <time>2015-11-07T07:57:11Z</time>
      </trkpt>
      <trkpt lat="42.74047" lon="1.65849">
        <ele>779.77</ele>
        <time>2015-11-07T07:57:12Z</time>
      </trkpt>
      <trkpt lat="42.74048" lon="1.6585">
        <ele>785.53</ele>
        <time>2015-11-07T07:57:14Z</time>
      </trkpt>
      <trkpt lat="42.74047" lon="1.6585">
        <ele>785.05</ele>
        <time>2015-11-07T07:57:15Z</time>
      </trkpt>
      <trkpt lat="42.74046" lon="1.65844">
        <ele>783.61</ele>
        <time>2015-11-07T07:57:31Z</time>
      </trkpt>
      <trkpt lat="42.74045" lon="1.65845">
        <ele>784.57</ele>
        <time>2015-11-07T07:57:42Z</time>
      </trkpt>
      <trkpt lat="42.74047" lon="1.65844">
        <ele>785.05</ele>
        <time>2015-11-07T07:57:50Z</time>
      </trkpt>
      <trkpt lat="42.74048" lon="1.65827">
        <ele>787.46</ele>
        <time>2015-11-07T07:58:09Z</time>
      </trkpt>
      <trkpt lat="42.7405" lon="1.65816">
        <ele>790.82</ele>
        <time>2015-11-07T07:58:25Z</time>
      </trkpt>
      <trkpt lat="42.74052" lon="1.6581">
        <ele>793.71</ele>
        <time>2015-11-07T07:58:46Z</time>
      </trkpt>
      <trkpt lat="42.74051" lon="1.65799">
        <ele>795.15</ele>
        <time>2015-11-07T07:59:03Z</time>
      </trkpt>
      <trkpt lat="42.74055" lon="1.65793">
        <ele>800.44</ele>
        <time>2015-11-07T07:59:13Z</time>
      </trkpt>
      <trkpt lat="42.74055" lon="1.65793">
        <ele>797.07</ele>
        <time>2015-11-07T07:59:14Z</time>
      </trkpt>
      <trkpt lat="42.74057" lon="1.65785">
        <ele>799.95</ele>
        <time>2015-11-07T07:59:29Z</time>
      </trkpt>
      <trkpt lat="42.74052" lon="1.65787">
        <ele>802.84</ele>
        <time>2015-11-07T07:59:47Z</time>
      </trkpt>
      <trkpt lat="42.74054" lon="1.65779">
        <ele>802.36</ele>
        <time>2015-11-07T08:00:06Z</time>
      </trkpt>
      <trkpt lat="42.74059" lon="1.65772">
        <ele>805.72</ele>
        <time>2015-11-07T08:00:21Z</time>
      </trkpt>
      <trkpt lat="42.74066" lon="1.65763">
        <ele>807.64</ele>
        <time>2015-11-07T08:00:38Z</time>
      </trkpt>
      <trkpt lat="42.74066" lon="1.65746">
        <ele>810.53</ele>
        <time>2015-11-07T08:00:58Z</time>
      </trkpt>
      <trkpt lat="42.74062" lon="1.65745">
        <ele>811.49</ele>
        <time>2015-11-07T08:01:19Z</time>
      </trkpt>
      <trkpt lat="42.74067" lon="1.65733">
        <ele>814.37</ele>
        <time>2015-11-07T08:01:37Z</time>
      </trkpt>
      <trkpt lat="42.74071" lon="1.65724">
        <ele>817.26</ele>
        <time>2015-11-07T08:01:54Z</time>
      </trkpt>
      <trkpt lat="42.74071" lon="1.65718">
        <ele>819.18</ele>
        <time>2015-11-07T08:02:10Z</time>
      </trkpt>
      <trkpt lat="42.74077" lon="1.65712">
        <ele>822.06</ele>
        <time>2015-11-07T08:02:25Z</time>
      </trkpt>
      <trkpt lat="42.74079" lon="1.65703">
        <ele>824.95</ele>
        <time>2015-11-07T08:02:45Z</time>
      </trkpt>
      <trkpt lat="42.74081" lon="1.65702">
        <ele>826.39</ele>
        <time>2015-11-07T08:03:04Z</time>
      </trkpt>
      <trkpt lat="42.7408" lon="1.65696">
        <ele>828.31</ele>
        <time>2015-11-07T08:03:21Z</time>
      </trkpt>
      <trkpt lat="42.74071" lon="1.65683">
        <ele>830.24</ele>
        <time>2015-11-07T08:03:40Z</time>
      </trkpt>
      <trkpt lat="42.74056" lon="1.65682">
        <ele>832.64</ele>
        <time>2015-11-07T08:04:00Z</time>
      </trkpt>
      <trkpt lat="42.74052" lon="1.65684">
        <ele>834.56</ele>
        <time>2015-11-07T08:04:18Z</time>
      </trkpt>
      <trkpt lat="42.74048" lon="1.65682">
        <ele>836.96</ele>
        <time>2015-11-07T08:04:39Z</time>
      </trkpt>
      <trkpt lat="42.74051" lon="1.65686">
        <ele>839.37</ele>
        <time>2015-11-07T08:04:56Z</time>
      </trkpt>
      <trkpt lat="42.74058" lon="1.65683">
        <ele>841.29</ele>
        <time>2015-11-07T08:05:14Z</time>
      </trkpt>
      <trkpt lat="42.74065" lon="1.65662">
        <ele>844.18</ele>
        <time>2015-11-07T08:05:36Z</time>
      </trkpt>
      <trkpt lat="42.74067" lon="1.65655">
        <ele>846.1</ele>
        <time>2015-11-07T08:05:53Z</time>
      </trkpt>
      <trkpt lat="42.74051" lon="1.65648">
        <ele>848.02</ele>
        <time>2015-11-07T08:06:11Z</time>
      </trkpt>
      <trkpt lat="42.74051" lon="1.65645">
        <ele>849.94</ele>
        <time>2015-11-07T08:06:29Z</time>
      </trkpt>
      <trkpt lat="42.74056" lon="1.65639">
        <ele>852.35</ele>
        <time>2015-11-07T08:06:43Z</time>
      </trkpt>
      <trkpt lat="42.74048" lon="1.65629">
        <ele>853.79</ele>
        <time>2015-11-07T08:07:00Z</time>
      </trkpt>
      <trkpt lat="42.74039" lon="1.65626">
        <ele>857.15</ele>
        <time>2015-11-07T08:07:19Z</time>
      </trkpt>
      <trkpt lat="42.74036" lon="1.65628">
        <ele>858.59</ele>
        <time>2015-11-07T08:07:34Z</time>
      </trkpt>
      <trkpt lat="42.74031" lon="1.65629">
        <ele>859.08</ele>
        <time>2015-11-07T08:07:55Z</time>
      </trkpt>
      <trkpt lat="42.74024" lon="1.65628">
        <ele>862.44</ele>
        <time>2015-11-07T08:08:16Z</time>
      </trkpt>
      <trkpt lat="42.74018" lon="1.65625">
        <ele>864.84</ele>
        <time>2015-11-07T08:08:33Z</time>
      </trkpt>
      <trkpt lat="42.74012" lon="1.65629">
        <ele>866.77</ele>
        <time>2015-11-07T08:08:50Z</time>
      </trkpt>
      <trkpt lat="42.74012" lon="1.65628">
        <ele>868.69</ele>
        <time>2015-11-07T08:09:10Z</time>
      </trkpt>
      <trkpt lat="42.7402" lon="1.65632">
        <ele>870.13</ele>
        <time>2015-11-07T08:09:22Z</time>
      </trkpt>
      <trkpt lat="42.7402" lon="1.65627">
        <ele>871.57</ele>
        <time>2015-11-07T08:09:38Z</time>
      </trkpt>
      <trkpt lat="42.74029" lon="1.65617">
        <ele>873.98</ele>
        <time>2015-11-07T08:09:57Z</time>
      </trkpt>
      <trkpt lat="42.74022" lon="1.65607">
        <ele>876.86</ele>
        <time>2015-11-07T08:10:17Z</time>
      </trkpt>
      <trkpt lat="42.74006" lon="1.65598">
        <ele>878.3</ele>
        <time>2015-11-07T08:10:37Z</time>
      </trkpt>
      <trkpt lat="42.73997" lon="1.65591">
        <ele>880.71</ele>
        <time>2015-11-07T08:10:56Z</time>
      </trkpt>
      <trkpt lat="42.7399" lon="1.65592">
        <ele>883.11</ele>
        <time>2015-11-07T08:11:16Z</time>
      </trkpt>
      <trkpt lat="42.73998" lon="1.65595">
        <ele>885.99</ele>
        <time>2015-11-07T08:11:36Z</time>
      </trkpt>
      <trkpt lat="42.73983" lon="1.65594">
        <ele>887.91</ele>
        <time>2015-11-07T08:11:53Z</time>
      </trkpt>
      <trkpt lat="42.73982" lon="1.65593">
        <ele>890.8</ele>
        <time>2015-11-07T08:12:14Z</time>
      </trkpt>
      <trkpt lat="42.7399" lon="1.65598">
        <ele>893.2</ele>
        <time>2015-11-07T08:12:31Z</time>
      </trkpt>
      <trkpt lat="42.73983" lon="1.65584">
        <ele>895.12</ele>
        <time>2015-11-07T08:12:50Z</time>
      </trkpt>
      <trkpt lat="42.7397" lon="1.65586">
        <ele>897.53</ele>
        <time>2015-11-07T08:13:10Z</time>
      </trkpt>
      <trkpt lat="42.73961" lon="1.65584">
        <ele>900.41</ele>
        <time>2015-11-07T08:13:30Z</time>
      </trkpt>
      <trkpt lat="42.73954" lon="1.65595">
        <ele>901.37</ele>
        <time>2015-11-07T08:13:46Z</time>
      </trkpt>
      <trkpt lat="42.73965" lon="1.65595">
        <ele>904.26</ele>
        <time>2015-11-07T08:14:04Z</time>
      </trkpt>
      <trkpt lat="42.73954" lon="1.65588">
        <ele>906.18</ele>
        <time>2015-11-07T08:14:21Z</time>
      </trkpt>
      <trkpt lat="42.73948" lon="1.65591">
        <ele>907.62</ele>
        <time>2015-11-07T08:14:40Z</time>
      </trkpt>
      <trkpt lat="42.73947" lon="1.65604">
        <ele>906.66</ele>
        <time>2015-11-07T08:14:56Z</time>
      </trkpt>
      <trkpt lat="42.73953" lon="1.65598">
        <ele>907.62</ele>
        <time>2015-11-07T08:15:21Z</time>
      </trkpt>
      <trkpt lat="42.73953" lon="1.65603">
        <ele>907.62</ele>
        <time>2015-11-07T08:15:37Z</time>
      </trkpt>
      <trkpt lat="42.73957" lon="1.65599">
        <ele>908.1</ele>
        <time>2015-11-07T08:16:05Z</time>
      </trkpt>
      <trkpt lat="42.73956" lon="1.656">
        <ele>908.58</ele>
        <time>2015-11-07T08:16:29Z</time>
      </trkpt>
      <trkpt lat="42.73959" lon="1.65604">
        <ele>908.58</ele>
        <time>2015-11-07T08:16:55Z</time>
      </trkpt>
      <trkpt lat="42.73949" lon="1.65592">
        <ele>910.99</ele>
        <time>2015-11-07T08:17:15Z</time>
      </trkpt>
      <trkpt lat="42.7395" lon="1.65589">
        <ele>911.95</ele>
        <time>2015-11-07T08:17:19Z</time>
      </trkpt>
      <trkpt lat="42.73937" lon="1.6559">
        <ele>913.87</ele>
        <time>2015-11-07T08:17:35Z</time>
      </trkpt>
      <trkpt lat="42.73947" lon="1.65589">
        <ele>915.31</ele>
        <time>2015-11-07T08:17:52Z</time>
      </trkpt>
      <trkpt lat="42.73952" lon="1.65579">
        <ele>918.2</ele>
        <time>2015-11-07T08:18:08Z</time>
      </trkpt>
      <trkpt lat="42.73953" lon="1.65566">
        <ele>920.12</ele>
        <time>2015-11-07T08:18:25Z</time>
      </trkpt>
      <trkpt lat="42.73931" lon="1.65569">
        <ele>923</ele>
        <time>2015-11-07T08:18:46Z</time>
      </trkpt>
      <trkpt lat="42.73929" lon="1.65571">
        <ele>925.89</ele>
        <time>2015-11-07T08:19:05Z</time>
      </trkpt>
      <trkpt lat="42.73929" lon="1.65559">
        <ele>928.29</ele>
        <time>2015-11-07T08:19:26Z</time>
      </trkpt>
      <trkpt lat="42.73932" lon="1.6555">
        <ele>931.17</ele>
        <time>2015-11-07T08:19:44Z</time>
      </trkpt>
      <trkpt lat="42.73931" lon="1.65541">
        <ele>933.58</ele>
        <time>2015-11-07T08:20:04Z</time>
      </trkpt>
      <trkpt lat="42.73921" lon="1.65539">
        <ele>935.5</ele>
        <time>2015-11-07T08:20:23Z</time>
      </trkpt>
      <trkpt lat="42.7392" lon="1.65538">
        <ele>938.38</ele>
        <time>2015-11-07T08:20:43Z</time>
      </trkpt>
      <trkpt lat="42.7391" lon="1.65543">
        <ele>940.79</ele>
        <time>2015-11-07T08:21:01Z</time>
      </trkpt>
      <trkpt lat="42.73906" lon="1.65539">
        <ele>943.19</ele>
        <time>2015-11-07T08:21:19Z</time>
      </trkpt>
      <trkpt lat="42.73916" lon="1.65533">
        <ele>945.11</ele>
        <time>2015-11-07T08:21:38Z</time>
      </trkpt>
      <trkpt lat="42.73904" lon="1.65535">
        <ele>947.04</ele>
        <time>2015-11-07T08:21:55Z</time>
      </trkpt>
      <trkpt lat="42.73906" lon="1.65526">
        <ele>950.4</ele>
        <time>2015-11-07T08:22:10Z</time>
      </trkpt>
      <trkpt lat="42.7391" lon="1.65518">
        <ele>951.84</ele>
        <time>2015-11-07T08:22:29Z</time>
      </trkpt>
      <trkpt lat="42.73901" lon="1.65517">
        <ele>953.77</ele>
        <time>2015-11-07T08:22:46Z</time>
      </trkpt>
      <trkpt lat="42.7389" lon="1.65523">
        <ele>956.65</ele>
        <time>2015-11-07T08:23:05Z</time>
      </trkpt>
      <trkpt lat="42.73884" lon="1.65523">
        <ele>958.09</ele>
        <time>2015-11-07T08:23:23Z</time>
      </trkpt>
      <trkpt lat="42.73893" lon="1.65528">
        <ele>958.09</ele>
        <time>2015-11-07T08:23:46Z</time>
      </trkpt>
      <trkpt lat="42.73889" lon="1.65538">
        <ele>959.05</ele>
        <time>2015-11-07T08:24:20Z</time>
      </trkpt>
      <trkpt lat="42.73892" lon="1.65518">
        <ele>960.01</ele>
        <time>2015-11-07T08:24:44Z</time>
      </trkpt>
      <trkpt lat="42.73882" lon="1.65505">
        <ele>963.38</ele>
        <time>2015-11-07T08:25:02Z</time>
      </trkpt>
      <trkpt lat="42.73877" lon="1.65489">
        <ele>964.34</ele>
        <time>2015-11-07T08:25:18Z</time>
      </trkpt>
      <trkpt lat="42.73867" lon="1.65476">
        <ele>967.22</ele>
        <time>2015-11-07T08:25:36Z</time>
      </trkpt>
      <trkpt lat="42.73858" lon="1.65474">
        <ele>969.63</ele>
        <time>2015-11-07T08:25:54Z</time>
      </trkpt>
      <trkpt lat="42.73862" lon="1.65469">
        <ele>972.51</ele>
        <time>2015-11-07T08:26:12Z</time>
      </trkpt>
      <trkpt lat="42.73862" lon="1.65458">
        <ele>974.91</ele>
        <time>2015-11-07T08:26:30Z</time>
      </trkpt>
      <trkpt lat="42.73856" lon="1.65447">
        <ele>977.32</ele>
        <time>2015-11-07T08:26:50Z</time>
      </trkpt>
      <trkpt lat="42.73844" lon="1.65436">
        <ele>980.2</ele>
        <time>2015-11-07T08:27:08Z</time>
      </trkpt>
      <trkpt lat="42.73837" lon="1.65422">
        <ele>982.12</ele>
        <time>2015-11-07T08:27:28Z</time>
      </trkpt>
      <trkpt lat="42.73838" lon="1.65424">
        <ele>985.01</ele>
        <time>2015-11-07T08:27:45Z</time>
      </trkpt>
      <trkpt lat="42.73847" lon="1.65418">
        <ele>986.93</ele>
        <time>2015-11-07T08:28:02Z</time>
      </trkpt>
      <trkpt lat="42.73841" lon="1.65407">
        <ele>989.33</ele>
        <time>2015-11-07T08:28:19Z</time>
      </trkpt>
      <trkpt lat="42.73827" lon="1.65402">
        <ele>992.22</ele>
        <time>2015-11-07T08:28:37Z</time>
      </trkpt>
      <trkpt lat="42.73827" lon="1.65394">
        <ele>994.14</ele>
        <time>2015-11-07T08:28:55Z</time>
      </trkpt>
      <trkpt lat="42.73827" lon="1.65381">
        <ele>995.58</ele>
        <time>2015-11-07T08:29:14Z</time>
      </trkpt>
      <trkpt lat="42.73813" lon="1.65368">
        <ele>997.02</ele>
        <time>2015-11-07T08:29:33Z</time>
      </trkpt>
      <trkpt lat="42.73819" lon="1.6537">
        <ele>999.91</ele>
        <time>2015-11-07T08:29:51Z</time>
      </trkpt>
      <trkpt lat="42.73827" lon="1.65366">
        <ele>1001.83</ele>
        <time>2015-11-07T08:30:09Z</time>
      </trkpt>
      <trkpt lat="42.73832" lon="1.65353">
        <ele>1004.72</ele>
        <time>2015-11-07T08:30:26Z</time>
      </trkpt>
      <trkpt lat="42.73821" lon="1.65344">
        <ele>1005.68</ele>
        <time>2015-11-07T08:30:46Z</time>
      </trkpt>
      <trkpt lat="42.73808" lon="1.65343">
        <ele>1009.04</ele>
        <time>2015-11-07T08:31:04Z</time>
      </trkpt>
      <trkpt lat="42.73807" lon="1.65338">
        <ele>1011.44</ele>
        <time>2015-11-07T08:31:24Z</time>
      </trkpt>
      <trkpt lat="42.7381" lon="1.65327">
        <ele>1012.89</ele>
        <time>2015-11-07T08:31:46Z</time>
      </trkpt>
      <trkpt lat="42.738" lon="1.65311">
        <ele>1014.81</ele>
        <time>2015-11-07T08:32:06Z</time>
      </trkpt>
      <trkpt lat="42.73789" lon="1.65289">
        <ele>1014.33</ele>
        <time>2015-11-07T08:32:24Z</time>
      </trkpt>
      <trkpt lat="42.73785" lon="1.65279">
        <ele>1017.21</ele>
        <time>2015-11-07T08:32:37Z</time>
      </trkpt>
      <trkpt lat="42.73783" lon="1.65273">
        <ele>1018.17</ele>
        <time>2015-11-07T08:32:57Z</time>
      </trkpt>
      <trkpt lat="42.73784" lon="1.65278">
        <ele>1022.02</ele>
        <time>2015-11-07T08:33:04Z</time>
      </trkpt>
      <trkpt lat="42.73787" lon="1.65279">
        <ele>1019.13</ele>
        <time>2015-11-07T08:33:07Z</time>
      </trkpt>
      <trkpt lat="42.73792" lon="1.65284">
        <ele>1019.13</ele>
        <time>2015-11-07T08:33:39Z</time>
      </trkpt>
      <trkpt lat="42.73793" lon="1.65282">
        <ele>1019.13</ele>
        <time>2015-11-07T08:34:04Z</time>
      </trkpt>
      <trkpt lat="42.73774" lon="1.65267">
        <ele>1019.13</ele>
        <time>2015-11-07T08:34:21Z</time>
      </trkpt>
      <trkpt lat="42.73762" lon="1.65255">
        <ele>1022.5</ele>
        <time>2015-11-07T08:34:34Z</time>
      </trkpt>
      <trkpt lat="42.73749" lon="1.65245">
        <ele>1021.06</ele>
        <time>2015-11-07T08:34:47Z</time>
      </trkpt>
      <trkpt lat="42.73745" lon="1.65242">
        <ele>1023.94</ele>
        <time>2015-11-07T08:35:02Z</time>
      </trkpt>
      <trkpt lat="42.73743" lon="1.65231">
        <ele>1026.34</ele>
        <time>2015-11-07T08:35:18Z</time>
      </trkpt>
      <trkpt lat="42.73729" lon="1.65221">
        <ele>1027.79</ele>
        <time>2015-11-07T08:35:31Z</time>
      </trkpt>
      <trkpt lat="42.73718" lon="1.65215">
        <ele>1029.23</ele>
        <time>2015-11-07T08:35:43Z</time>
      </trkpt>
      <trkpt lat="42.7371" lon="1.65209">
        <ele>1032.59</ele>
        <time>2015-11-07T08:36:02Z</time>
      </trkpt>
      <trkpt lat="42.73705" lon="1.65204">
        <ele>1034.04</ele>
        <time>2015-11-07T08:36:09Z</time>
      </trkpt>
      <trkpt lat="42.73699" lon="1.65196">
        <ele>1035.96</ele>
        <time>2015-11-07T08:36:28Z</time>
      </trkpt>
      <trkpt lat="42.737" lon="1.65191">
        <ele>1039.32</ele>
        <time>2015-11-07T08:36:44Z</time>
      </trkpt>
      <trkpt lat="42.737" lon="1.65182">
        <ele>1040.76</ele>
        <time>2015-11-07T08:37:00Z</time>
      </trkpt>
      <trkpt lat="42.73685" lon="1.65164">
        <ele>1041.73</ele>
        <time>2015-11-07T08:37:19Z</time>
      </trkpt>
      <trkpt lat="42.73673" lon="1.65156">
        <ele>1043.17</ele>
        <time>2015-11-07T08:37:33Z</time>
      </trkpt>
      <trkpt lat="42.73666" lon="1.65154">
        <ele>1041.25</ele>
        <time>2015-11-07T08:37:42Z</time>
      </trkpt>
      <trkpt lat="42.73662" lon="1.65142">
        <ele>1042.21</ele>
        <time>2015-11-07T08:37:55Z</time>
      </trkpt>
      <trkpt lat="42.73653" lon="1.65151">
        <ele>1045.57</ele>
        <time>2015-11-07T08:38:12Z</time>
      </trkpt>
      <trkpt lat="42.73647" lon="1.65161">
        <ele>1047.97</ele>
        <time>2015-11-07T08:38:30Z</time>
      </trkpt>
      <trkpt lat="42.73644" lon="1.65155">
        <ele>1051.34</ele>
        <time>2015-11-07T08:38:44Z</time>
      </trkpt>
      <trkpt lat="42.73635" lon="1.65146">
        <ele>1051.82</ele>
        <time>2015-11-07T08:38:58Z</time>
      </trkpt>
      <trkpt lat="42.73632" lon="1.65144">
        <ele>1052.78</ele>
        <time>2015-11-07T08:39:08Z</time>
      </trkpt>
      <trkpt lat="42.73641" lon="1.65142">
        <ele>1055.18</ele>
        <time>2015-11-07T08:39:23Z</time>
      </trkpt>
      <trkpt lat="42.73648" lon="1.65131">
        <ele>1057.11</ele>
        <time>2015-11-07T08:39:39Z</time>
      </trkpt>
      <trkpt lat="42.73631" lon="1.65117">
        <ele>1059.99</ele>
        <time>2015-11-07T08:39:56Z</time>
      </trkpt>
      <trkpt lat="42.7362" lon="1.6511">
        <ele>1061.91</ele>
        <time>2015-11-07T08:40:14Z</time>
      </trkpt>
      <trkpt lat="42.73611" lon="1.65105">
        <ele>1064.32</ele>
        <time>2015-11-07T08:40:29Z</time>
      </trkpt>
      <trkpt lat="42.73615" lon="1.65104">
        <ele>1067.68</ele>
        <time>2015-11-07T08:40:47Z</time>
      </trkpt>
      <trkpt lat="42.73606" lon="1.65095">
        <ele>1070.08</ele>
        <time>2015-11-07T08:41:06Z</time>
      </trkpt>
      <trkpt lat="42.73599" lon="1.65088">
        <ele>1071.53</ele>
        <time>2015-11-07T08:41:14Z</time>
      </trkpt>
      <trkpt lat="42.73594" lon="1.65076">
        <ele>1072.49</ele>
        <time>2015-11-07T08:41:28Z</time>
      </trkpt>
      <trkpt lat="42.73597" lon="1.65071">
        <ele>1072.01</ele>
        <time>2015-11-07T08:41:42Z</time>
      </trkpt>
      <trkpt lat="42.7361" lon="1.65063">
        <ele>1071.05</ele>
        <time>2015-11-07T08:41:56Z</time>
      </trkpt>
      <trkpt lat="42.73599" lon="1.65046">
        <ele>1072.01</ele>
        <time>2015-11-07T08:42:14Z</time>
      </trkpt>
      <trkpt lat="42.73588" lon="1.65031">
        <ele>1074.89</ele>
        <time>2015-11-07T08:42:29Z</time>
      </trkpt>
      <trkpt lat="42.73582" lon="1.65025">
        <ele>1077.29</ele>
        <time>2015-11-07T08:42:47Z</time>
      </trkpt>
      <trkpt lat="42.73573" lon="1.65014">
        <ele>1079.22</ele>
        <time>2015-11-07T08:43:04Z</time>
      </trkpt>
      <trkpt lat="42.73577" lon="1.65007">
        <ele>1081.62</ele>
        <time>2015-11-07T08:43:22Z</time>
      </trkpt>
      <trkpt lat="42.73576" lon="1.65001">
        <ele>1084.5</ele>
        <time>2015-11-07T08:43:39Z</time>
      </trkpt>
      <trkpt lat="42.73571" lon="1.64987">
        <ele>1086.43</ele>
        <time>2015-11-07T08:43:58Z</time>
      </trkpt>
      <trkpt lat="42.73562" lon="1.64977">
        <ele>1087.39</ele>
        <time>2015-11-07T08:44:18Z</time>
      </trkpt>
      <trkpt lat="42.73563" lon="1.64992">
        <ele>1089.31</ele>
        <time>2015-11-07T08:44:37Z</time>
      </trkpt>
      <trkpt lat="42.73557" lon="1.64967">
        <ele>1089.79</ele>
        <time>2015-11-07T08:45:04Z</time>
      </trkpt>
      <trkpt lat="42.73542" lon="1.64941">
        <ele>1091.23</ele>
        <time>2015-11-07T08:45:23Z</time>
      </trkpt>
      <trkpt lat="42.73542" lon="1.64931">
        <ele>1093.64</ele>
        <time>2015-11-07T08:45:39Z</time>
      </trkpt>
      <trkpt lat="42.73532" lon="1.64925">
        <ele>1094.6</ele>
        <time>2015-11-07T08:45:57Z</time>
      </trkpt>
      <trkpt lat="42.73521" lon="1.64917">
        <ele>1096.52</ele>
        <time>2015-11-07T08:46:15Z</time>
      </trkpt>
      <trkpt lat="42.73515" lon="1.64918">
        <ele>1098.44</ele>
        <time>2015-11-07T08:46:29Z</time>
      </trkpt>
      <trkpt lat="42.73512" lon="1.64908">
        <ele>1099.89</ele>
        <time>2015-11-07T08:46:45Z</time>
      </trkpt>
      <trkpt lat="42.73506" lon="1.64907">
        <ele>1101.81</ele>
        <time>2015-11-07T08:47:01Z</time>
      </trkpt>
      <trkpt lat="42.73501" lon="1.64911">
        <ele>1103.73</ele>
        <time>2015-11-07T08:47:17Z</time>
      </trkpt>
      <trkpt lat="42.73502" lon="1.64905">
        <ele>1106.13</ele>
        <time>2015-11-07T08:47:33Z</time>
      </trkpt>
      <trkpt lat="42.73511" lon="1.64903">
        <ele>1106.61</ele>
        <time>2015-11-07T08:47:54Z</time>
      </trkpt>
      <trkpt lat="42.73501" lon="1.649">
        <ele>1109.98</ele>
        <time>2015-11-07T08:48:07Z</time>
      </trkpt>
      <trkpt lat="42.73493" lon="1.64889">
        <ele>1112.38</ele>
        <time>2015-11-07T08:48:24Z</time>
      </trkpt>
      <trkpt lat="42.7349" lon="1.64896">
        <ele>1115.27</ele>
        <time>2015-11-07T08:48:40Z</time>
      </trkpt>
      <trkpt lat="42.73485" lon="1.64886">
        <ele>1114.79</ele>
        <time>2015-11-07T08:48:57Z</time>
      </trkpt>
      <trkpt lat="42.73477" lon="1.64879">
        <ele>1116.71</ele>
        <time>2015-11-07T08:49:14Z</time>
      </trkpt>
      <trkpt lat="42.73479" lon="1.64887">
        <ele>1115.75</ele>
        <time>2015-11-07T08:49:39Z</time>
      </trkpt>
      <trkpt lat="42.73488" lon="1.64905">
        <ele>1115.27</ele>
        <time>2015-11-07T08:49:58Z</time>
      </trkpt>
      <trkpt lat="42.73479" lon="1.64916">
        <ele>1118.15</ele>
        <time>2015-11-07T08:50:16Z</time>
      </trkpt>
      <trkpt lat="42.73472" lon="1.6491">
        <ele>1117.67</ele>
        <time>2015-11-07T08:50:37Z</time>
      </trkpt>
      <trkpt lat="42.73479" lon="1.64894">
        <ele>1118.63</ele>
        <time>2015-11-07T08:50:56Z</time>
      </trkpt>
      <trkpt lat="42.73495" lon="1.64908">
        <ele>1116.71</ele>
        <time>2015-11-07T08:51:16Z</time>
      </trkpt>
      <trkpt lat="42.73489" lon="1.64911">
        <ele>1117.67</ele>
        <time>2015-11-07T08:51:34Z</time>
      </trkpt>
      <trkpt lat="42.73484" lon="1.6492">
        <ele>1116.71</ele>
        <time>2015-11-07T08:51:51Z</time>
      </trkpt>
      <trkpt lat="42.73481" lon="1.64916">
        <ele>1118.63</ele>
        <time>2015-11-07T08:52:09Z</time>
      </trkpt>
      <trkpt lat="42.73491" lon="1.64909">
        <ele>1117.67</ele>
        <time>2015-11-07T08:52:23Z</time>
      </trkpt>
      <trkpt lat="42.73496" lon="1.649">
        <ele>1117.19</ele>
        <time>2015-11-07T08:52:39Z</time>
      </trkpt>
      <trkpt lat="42.73491" lon="1.6489">
        <ele>1115.75</ele>
        <time>2015-11-07T08:52:53Z</time>
      </trkpt>
      <trkpt lat="42.73489" lon="1.6487">
        <ele>1117.19</ele>
        <time>2015-11-07T08:53:08Z</time>
      </trkpt>
      <trkpt lat="42.7348" lon="1.64857">
        <ele>1119.11</ele>
        <time>2015-11-07T08:53:26Z</time>
      </trkpt>
      <trkpt lat="42.73473" lon="1.64843">
        <ele>1120.55</ele>
        <time>2015-11-07T08:53:44Z</time>
      </trkpt>
      <trkpt lat="42.73473" lon="1.64837">
        <ele>1122.96</ele>
        <time>2015-11-07T08:54:01Z</time>
      </trkpt>
      <trkpt lat="42.73459" lon="1.64837">
        <ele>1124.88</ele>
        <time>2015-11-07T08:54:19Z</time>
      </trkpt>
      <trkpt lat="42.73463" lon="1.64832">
        <ele>1126.8</ele>
        <time>2015-11-07T08:54:36Z</time>
      </trkpt>
      <trkpt lat="42.73452" lon="1.6482">
        <ele>1128.24</ele>
        <time>2015-11-07T08:54:51Z</time>
      </trkpt>
      <trkpt lat="42.73446" lon="1.64814">
        <ele>1131.13</ele>
        <time>2015-11-07T08:55:07Z</time>
      </trkpt>
      <trkpt lat="42.73454" lon="1.6482">
        <ele>1133.53</ele>
        <time>2015-11-07T08:55:30Z</time>
      </trkpt>
      <trkpt lat="42.73452" lon="1.64814">
        <ele>1133.53</ele>
        <time>2015-11-07T08:55:56Z</time>
      </trkpt>
      <trkpt lat="42.73437" lon="1.64814">
        <ele>1135.45</ele>
        <time>2015-11-07T08:56:11Z</time>
      </trkpt>
      <trkpt lat="42.7343" lon="1.64807">
        <ele>1138.82</ele>
        <time>2015-11-07T08:56:29Z</time>
      </trkpt>
      <trkpt lat="42.73429" lon="1.64805">
        <ele>1140.74</ele>
        <time>2015-11-07T08:56:49Z</time>
      </trkpt>
      <trkpt lat="42.73427" lon="1.64798">
        <ele>1144.11</ele>
        <time>2015-11-07T08:57:06Z</time>
      </trkpt>
      <trkpt lat="42.73433" lon="1.64795">
        <ele>1145.07</ele>
        <time>2015-11-07T08:57:26Z</time>
      </trkpt>
      <trkpt lat="42.73424" lon="1.64787">
        <ele>1142.18</ele>
        <time>2015-11-07T08:57:42Z</time>
      </trkpt>
      <trkpt lat="42.73424" lon="1.64788">
        <ele>1151.32</ele>
        <time>2015-11-07T08:57:43Z</time>
      </trkpt>
      <trkpt lat="42.73424" lon="1.64788">
        <ele>1146.99</ele>
        <time>2015-11-07T08:57:44Z</time>
      </trkpt>
      <trkpt lat="42.73426" lon="1.64792">
        <ele>1145.55</ele>
        <time>2015-11-07T08:57:48Z</time>
      </trkpt>
      <trkpt lat="42.73426" lon="1.64792">
        <ele>1147.47</ele>
        <time>2015-11-07T08:57:50Z</time>
      </trkpt>
      <trkpt lat="42.7342" lon="1.64794">
        <ele>1147.47</ele>
        <time>2015-11-07T08:58:11Z</time>
      </trkpt>
      <trkpt lat="42.73434" lon="1.6479">
        <ele>1147.95</ele>
        <time>2015-11-07T08:58:34Z</time>
      </trkpt>
      <trkpt lat="42.73426" lon="1.64783">
        <ele>1150.35</ele>
        <time>2015-11-07T08:58:55Z</time>
      </trkpt>
      <trkpt lat="42.73417" lon="1.6478">
        <ele>1152.28</ele>
        <time>2015-11-07T08:59:05Z</time>
      </trkpt>
      <trkpt lat="42.73414" lon="1.64772">
        <ele>1156.12</ele>
        <time>2015-11-07T08:59:26Z</time>
      </trkpt>
      <trkpt lat="42.73411" lon="1.64758">
        <ele>1158.05</ele>
        <time>2015-11-07T08:59:48Z</time>
      </trkpt>
      <trkpt lat="42.73396" lon="1.64757">
        <ele>1160.93</ele>
        <time>2015-11-07T09:00:06Z</time>
      </trkpt>
      <trkpt lat="42.73402" lon="1.64756">
        <ele>1163.33</ele>
        <time>2015-11-07T09:00:28Z</time>
      </trkpt>
      <trkpt lat="42.7341" lon="1.64747">
        <ele>1166.22</ele>
        <time>2015-11-07T09:00:45Z</time>
      </trkpt>
      <trkpt lat="42.7339" lon="1.64749">
        <ele>1168.14</ele>
        <time>2015-11-07T09:01:08Z</time>
      </trkpt>
      <trkpt lat="42.73381" lon="1.64754">
        <ele>1171.98</ele>
        <time>2015-11-07T09:01:22Z</time>
      </trkpt>
      <trkpt lat="42.73378" lon="1.64767">
        <ele>1173.91</ele>
        <time>2015-11-07T09:01:43Z</time>
      </trkpt>
      <trkpt lat="42.73379" lon="1.64763">
        <ele>1174.87</ele>
        <time>2015-11-07T09:01:47Z</time>
      </trkpt>
      <trkpt lat="42.73381" lon="1.64752">
        <ele>1175.35</ele>
        <time>2015-11-07T09:02:07Z</time>
      </trkpt>
      <trkpt lat="42.73384" lon="1.64749">
        <ele>1178.23</ele>
        <time>2015-11-07T09:02:15Z</time>
      </trkpt>
      <trkpt lat="42.73381" lon="1.64742">
        <ele>1181.6</ele>
        <time>2015-11-07T09:02:32Z</time>
      </trkpt>
      <trkpt lat="42.73385" lon="1.64722">
        <ele>1182.56</ele>
        <time>2015-11-07T09:02:53Z</time>
      </trkpt>
      <trkpt lat="42.73393" lon="1.64713">
        <ele>1183.04</ele>
        <time>2015-11-07T09:03:16Z</time>
      </trkpt>
      <trkpt lat="42.73389" lon="1.64722">
        <ele>1183.52</ele>
        <time>2015-11-07T09:03:40Z</time>
      </trkpt>
      <trkpt lat="42.73386" lon="1.64715">
        <ele>1183.52</ele>
        <time>2015-11-07T09:04:17Z</time>
      </trkpt>
      <trkpt lat="42.73385" lon="1.64716">
        <ele>1184.48</ele>
        <time>2015-11-07T09:04:48Z</time>
      </trkpt>
      <trkpt lat="42.73382" lon="1.6471">
        <ele>1185.92</ele>
        <time>2015-11-07T09:04:56Z</time>
      </trkpt>
      <trkpt lat="42.73369" lon="1.64709">
        <ele>1186.4</ele>
        <time>2015-11-07T09:05:12Z</time>
      </trkpt>
      <trkpt lat="42.73364" lon="1.64707">
        <ele>1189.77</ele>
        <time>2015-11-07T09:05:27Z</time>
      </trkpt>
      <trkpt lat="42.73364" lon="1.64695">
        <ele>1191.21</ele>
        <time>2015-11-07T09:05:47Z</time>
      </trkpt>
      <trkpt lat="42.73358" lon="1.64694">
        <ele>1192.65</ele>
        <time>2015-11-07T09:05:58Z</time>
      </trkpt>
      <trkpt lat="42.73351" lon="1.64688">
        <ele>1195.54</ele>
        <time>2015-11-07T09:06:15Z</time>
      </trkpt>
      <trkpt lat="42.73338" lon="1.64673">
        <ele>1197.46</ele>
        <time>2015-11-07T09:06:34Z</time>
      </trkpt>
      <trkpt lat="42.73336" lon="1.64671">
        <ele>1198.42</ele>
        <time>2015-11-07T09:06:47Z</time>
      </trkpt>
      <trkpt lat="42.73337" lon="1.64674">
        <ele>1198.9</ele>
        <time>2015-11-07T09:06:55Z</time>
      </trkpt>
      <trkpt lat="42.73339" lon="1.64675">
        <ele>1199.86</ele>
        <time>2015-11-07T09:06:57Z</time>
      </trkpt>
      <trkpt lat="42.7333" lon="1.64686">
        <ele>1200.34</ele>
        <time>2015-11-07T09:07:18Z</time>
      </trkpt>
      <trkpt lat="42.73326" lon="1.64681">
        <ele>1206.11</ele>
        <time>2015-11-07T09:07:33Z</time>
      </trkpt>
      <trkpt lat="42.73327" lon="1.64681">
        <ele>1202.27</ele>
        <time>2015-11-07T09:07:34Z</time>
      </trkpt>
      <trkpt lat="42.73328" lon="1.64682">
        <ele>1201.3</ele>
        <time>2015-11-07T09:07:36Z</time>
      </trkpt>
      <trkpt lat="42.73328" lon="1.64682">
        <ele>1205.15</ele>
        <time>2015-11-07T09:07:37Z</time>
      </trkpt>
      <trkpt lat="42.73329" lon="1.64683">
        <ele>1202.75</ele>
        <time>2015-11-07T09:07:38Z</time>
      </trkpt>
      <trkpt lat="42.73331" lon="1.64684">
        <ele>1202.27</ele>
        <time>2015-11-07T09:08:05Z</time>
      </trkpt>
      <trkpt lat="42.73325" lon="1.64678">
        <ele>1203.71</ele>
        <time>2015-11-07T09:08:25Z</time>
      </trkpt>
      <trkpt lat="42.73321" lon="1.64666">
        <ele>1205.15</ele>
        <time>2015-11-07T09:08:43Z</time>
      </trkpt>
      <trkpt lat="42.73316" lon="1.64659">
        <ele>1208.51</ele>
        <time>2015-11-07T09:09:03Z</time>
      </trkpt>
      <trkpt lat="42.73306" lon="1.64649">
        <ele>1209.96</ele>
        <time>2015-11-07T09:09:22Z</time>
      </trkpt>
      <trkpt lat="42.733" lon="1.64656">
        <ele>1213.32</ele>
        <time>2015-11-07T09:09:35Z</time>
      </trkpt>
      <trkpt lat="42.73287" lon="1.64648">
        <ele>1215.24</ele>
        <time>2015-11-07T09:09:57Z</time>
      </trkpt>
      <trkpt lat="42.73281" lon="1.64648">
        <ele>1218.13</ele>
        <time>2015-11-07T09:10:14Z</time>
      </trkpt>
      <trkpt lat="42.73281" lon="1.64646">
        <ele>1221.01</ele>
        <time>2015-11-07T09:10:33Z</time>
      </trkpt>
      <trkpt lat="42.73276" lon="1.64642">
        <ele>1222.45</ele>
        <time>2015-11-07T09:10:52Z</time>
      </trkpt>
      <trkpt lat="42.73263" lon="1.64634">
        <ele>1223.42</ele>
        <time>2015-11-07T09:11:12Z</time>
      </trkpt>
      <trkpt lat="42.73263" lon="1.64633">
        <ele>1224.86</ele>
        <time>2015-11-07T09:11:14Z</time>
      </trkpt>
      <trkpt lat="42.73256" lon="1.64629">
        <ele>1227.74</ele>
        <time>2015-11-07T09:11:35Z</time>
      </trkpt>
      <trkpt lat="42.73246" lon="1.64626">
        <ele>1229.18</ele>
        <time>2015-11-07T09:11:58Z</time>
      </trkpt>
      <trkpt lat="42.7324" lon="1.64622">
        <ele>1232.55</ele>
        <time>2015-11-07T09:12:17Z</time>
      </trkpt>
      <trkpt lat="42.73233" lon="1.64615">
        <ele>1234.47</ele>
        <time>2015-11-07T09:12:37Z</time>
      </trkpt>
      <trkpt lat="42.73215" lon="1.64603">
        <ele>1235.43</ele>
        <time>2015-11-07T09:12:59Z</time>
      </trkpt>
      <trkpt lat="42.73212" lon="1.64597">
        <ele>1235.91</ele>
        <time>2015-11-07T09:13:22Z</time>
      </trkpt>
      <trkpt lat="42.73216" lon="1.64591">
        <ele>1232.07</ele>
        <time>2015-11-07T09:13:31Z</time>
      </trkpt>
      <trkpt lat="42.73214" lon="1.64583">
        <ele>1235.43</ele>
        <time>2015-11-07T09:13:38Z</time>
      </trkpt>
      <trkpt lat="42.73211" lon="1.64575">
        <ele>1235.91</ele>
        <time>2015-11-07T09:13:55Z</time>
      </trkpt>
      <trkpt lat="42.73205" lon="1.64558">
        <ele>1236.39</ele>
        <time>2015-11-07T09:14:15Z</time>
      </trkpt>
      <trkpt lat="42.73204" lon="1.64564">
        <ele>1234.95</ele>
        <time>2015-11-07T09:14:21Z</time>
      </trkpt>
      <trkpt lat="42.73206" lon="1.6456">
        <ele>1235.91</ele>
        <time>2015-11-07T09:14:42Z</time>
      </trkpt>
      <trkpt lat="42.73206" lon="1.6457">
        <ele>1236.39</ele>
        <time>2015-11-07T09:15:04Z</time>
      </trkpt>
      <trkpt lat="42.73208" lon="1.64576">
        <ele>1236.39</ele>
        <time>2015-11-07T09:15:29Z</time>
      </trkpt>
      <trkpt lat="42.73207" lon="1.64569">
        <ele>1237.35</ele>
        <time>2015-11-07T09:15:55Z</time>
      </trkpt>
      <trkpt lat="42.73208" lon="1.64561">
        <ele>1234.95</ele>
        <time>2015-11-07T09:16:20Z</time>
      </trkpt>
      <trkpt lat="42.73202" lon="1.64545">
        <ele>1238.32</ele>
        <time>2015-11-07T09:16:38Z</time>
      </trkpt>
      <trkpt lat="42.73194" lon="1.64533">
        <ele>1239.28</ele>
        <time>2015-11-07T09:16:57Z</time>
      </trkpt>
      <trkpt lat="42.7318" lon="1.64528">
        <ele>1241.2</ele>
        <time>2015-11-07T09:17:14Z</time>
      </trkpt>
      <trkpt lat="42.73166" lon="1.64522">
        <ele>1243.6</ele>
        <time>2015-11-07T09:17:34Z</time>
      </trkpt>
      <trkpt lat="42.73157" lon="1.64516">
        <ele>1244.08</ele>
        <time>2015-11-07T09:17:52Z</time>
      </trkpt>
      <trkpt lat="42.73144" lon="1.64513">
        <ele>1246.49</ele>
        <time>2015-11-07T09:18:11Z</time>
      </trkpt>
      <trkpt lat="42.73141" lon="1.64514">
        <ele>1246.49</ele>
        <time>2015-11-07T09:18:15Z</time>
      </trkpt>
      <trkpt lat="42.73131" lon="1.64511">
        <ele>1246.49</ele>
        <time>2015-11-07T09:18:34Z</time>
      </trkpt>
      <trkpt lat="42.73127" lon="1.64511">
        <ele>1244.56</ele>
        <time>2015-11-07T09:18:54Z</time>
      </trkpt>
      <trkpt lat="42.73127" lon="1.64511">
        <ele>1247.93</ele>
        <time>2015-11-07T09:18:55Z</time>
      </trkpt>
      <trkpt lat="42.73117" lon="1.64502">
        <ele>1246.01</ele>
        <time>2015-11-07T09:19:16Z</time>
      </trkpt>
      <trkpt lat="42.73113" lon="1.64495">
        <ele>1247.45</ele>
        <time>2015-11-07T09:19:35Z</time>
      </trkpt>
      <trkpt lat="42.73105" lon="1.64485">
        <ele>1248.41</ele>
        <time>2015-11-07T09:19:53Z</time>
      </trkpt>
      <trkpt lat="42.73099" lon="1.64474">
        <ele>1251.77</ele>
        <time>2015-11-07T09:20:12Z</time>
      </trkpt>
      <trkpt lat="42.73088" lon="1.64465">
        <ele>1253.7</ele>
        <time>2015-11-07T09:20:35Z</time>
      </trkpt>
      <trkpt lat="42.73079" lon="1.64457">
        <ele>1256.1</ele>
        <time>2015-11-07T09:20:51Z</time>
      </trkpt>
      <trkpt lat="42.73074" lon="1.64445">
        <ele>1258.02</ele>
        <time>2015-11-07T09:21:10Z</time>
      </trkpt>
      <trkpt lat="42.73074" lon="1.64434">
        <ele>1260.43</ele>
        <time>2015-11-07T09:21:32Z</time>
      </trkpt>
      <trkpt lat="42.7308" lon="1.64435">
        <ele>1262.35</ele>
        <time>2015-11-07T09:21:50Z</time>
      </trkpt>
      <trkpt lat="42.73072" lon="1.64418">
        <ele>1265.71</ele>
        <time>2015-11-07T09:22:11Z</time>
      </trkpt>
      <trkpt lat="42.73059" lon="1.64411">
        <ele>1266.19</ele>
        <time>2015-11-07T09:22:30Z</time>
      </trkpt>
      <trkpt lat="42.73053" lon="1.64408">
        <ele>1265.71</ele>
        <time>2015-11-07T09:22:50Z</time>
      </trkpt>
      <trkpt lat="42.73042" lon="1.64392">
        <ele>1267.64</ele>
        <time>2015-11-07T09:23:11Z</time>
      </trkpt>
      <trkpt lat="42.73037" lon="1.64384">
        <ele>1270.04</ele>
        <time>2015-11-07T09:23:28Z</time>
      </trkpt>
      <trkpt lat="42.73031" lon="1.64378">
        <ele>1273.4</ele>
        <time>2015-11-07T09:23:48Z</time>
      </trkpt>
      <trkpt lat="42.73019" lon="1.64371">
        <ele>1271.48</ele>
        <time>2015-11-07T09:24:03Z</time>
      </trkpt>
      <trkpt lat="42.73015" lon="1.64368">
        <ele>1273.88</ele>
        <time>2015-11-07T09:24:09Z</time>
      </trkpt>
      <trkpt lat="42.73011" lon="1.64381">
        <ele>1272.44</ele>
        <time>2015-11-07T09:24:33Z</time>
      </trkpt>
      <trkpt lat="42.73008" lon="1.64372">
        <ele>1271.48</ele>
        <time>2015-11-07T09:24:47Z</time>
      </trkpt>
      <trkpt lat="42.73003" lon="1.6436">
        <ele>1272.92</ele>
        <time>2015-11-07T09:25:03Z</time>
      </trkpt>
      <trkpt lat="42.72998" lon="1.64345">
        <ele>1275.33</ele>
        <time>2015-11-07T09:25:21Z</time>
      </trkpt>
      <trkpt lat="42.72987" lon="1.64336">
        <ele>1277.73</ele>
        <time>2015-11-07T09:25:42Z</time>
      </trkpt>
      <trkpt lat="42.72976" lon="1.64326">
        <ele>1279.17</ele>
        <time>2015-11-07T09:26:02Z</time>
      </trkpt>
      <trkpt lat="42.72971" lon="1.6432">
        <ele>1282.54</ele>
        <time>2015-11-07T09:26:21Z</time>
      </trkpt>
      <trkpt lat="42.72964" lon="1.64312">
        <ele>1283.98</ele>
        <time>2015-11-07T09:26:38Z</time>
      </trkpt>
      <trkpt lat="42.72956" lon="1.64307">
        <ele>1285.42</ele>
        <time>2015-11-07T09:26:57Z</time>
      </trkpt>
      <trkpt lat="42.72947" lon="1.643">
        <ele>1288.78</ele>
        <time>2015-11-07T09:27:16Z</time>
      </trkpt>
      <trkpt lat="42.72934" lon="1.64292">
        <ele>1288.78</ele>
        <time>2015-11-07T09:27:36Z</time>
      </trkpt>
      <trkpt lat="42.72922" lon="1.64283">
        <ele>1286.86</ele>
        <time>2015-11-07T09:27:56Z</time>
      </trkpt>
      <trkpt lat="42.72915" lon="1.64273">
        <ele>1287.34</ele>
        <time>2015-11-07T09:28:13Z</time>
      </trkpt>
      <trkpt lat="42.72906" lon="1.6426">
        <ele>1288.3</ele>
        <time>2015-11-07T09:28:31Z</time>
      </trkpt>
      <trkpt lat="42.72893" lon="1.6425">
        <ele>1290.23</ele>
        <time>2015-11-07T09:28:51Z</time>
      </trkpt>
      <trkpt lat="42.72891" lon="1.6425">
        <ele>1288.78</ele>
        <time>2015-11-07T09:28:57Z</time>
      </trkpt>
      <trkpt lat="42.72877" lon="1.64247">
        <ele>1286.38</ele>
        <time>2015-11-07T09:29:17Z</time>
      </trkpt>
      <trkpt lat="42.72866" lon="1.64248">
        <ele>1287.82</ele>
        <time>2015-11-07T09:29:37Z</time>
      </trkpt>
      <trkpt lat="42.72862" lon="1.64256">
        <ele>1287.82</ele>
        <time>2015-11-07T09:30:00Z</time>
      </trkpt>
      <trkpt lat="42.72851" lon="1.64239">
        <ele>1287.82</ele>
        <time>2015-11-07T09:30:22Z</time>
      </trkpt>
      <trkpt lat="42.72843" lon="1.64228">
        <ele>1288.78</ele>
        <time>2015-11-07T09:30:39Z</time>
      </trkpt>
      <trkpt lat="42.72836" lon="1.64216">
        <ele>1288.78</ele>
        <time>2015-11-07T09:30:56Z</time>
      </trkpt>
      <trkpt lat="42.72831" lon="1.64212">
        <ele>1291.19</ele>
        <time>2015-11-07T09:31:13Z</time>
      </trkpt>
      <trkpt lat="42.72823" lon="1.64207">
        <ele>1292.63</ele>
        <time>2015-11-07T09:31:33Z</time>
      </trkpt>
      <trkpt lat="42.72818" lon="1.64198">
        <ele>1295.03</ele>
        <time>2015-11-07T09:31:54Z</time>
      </trkpt>
      <trkpt lat="42.72813" lon="1.64189">
        <ele>1297.92</ele>
        <time>2015-11-07T09:32:18Z</time>
      </trkpt>
      <trkpt lat="42.72808" lon="1.64186">
        <ele>1299.84</ele>
        <time>2015-11-07T09:32:37Z</time>
      </trkpt>
      <trkpt lat="42.72801" lon="1.64187">
        <ele>1300.8</ele>
        <time>2015-11-07T09:32:56Z</time>
      </trkpt>
      <trkpt lat="42.72795" lon="1.64182">
        <ele>1300.8</ele>
        <time>2015-11-07T09:33:18Z</time>
      </trkpt>
      <trkpt lat="42.72792" lon="1.64185">
        <ele>1301.28</ele>
        <time>2015-11-07T09:33:36Z</time>
      </trkpt>
      <trkpt lat="42.72788" lon="1.64189">
        <ele>1300.32</ele>
        <time>2015-11-07T09:33:56Z</time>
      </trkpt>
      <trkpt lat="42.72785" lon="1.64187">
        <ele>1299.84</ele>
        <time>2015-11-07T09:34:21Z</time>
      </trkpt>
      <trkpt lat="42.72772" lon="1.6418">
        <ele>1299.84</ele>
        <time>2015-11-07T09:34:41Z</time>
      </trkpt>
      <trkpt lat="42.72761" lon="1.64171">
        <ele>1301.28</ele>
        <time>2015-11-07T09:35:01Z</time>
      </trkpt>
      <trkpt lat="42.72749" lon="1.64167">
        <ele>1302.24</ele>
        <time>2015-11-07T09:35:20Z</time>
      </trkpt>
      <trkpt lat="42.72739" lon="1.64156">
        <ele>1303.2</ele>
        <time>2015-11-07T09:35:42Z</time>
      </trkpt>
      <trkpt lat="42.72733" lon="1.64152">
        <ele>1306.57</ele>
        <time>2015-11-07T09:35:54Z</time>
      </trkpt>
      <trkpt lat="42.72725" lon="1.64147">
        <ele>1307.05</ele>
        <time>2015-11-07T09:36:13Z</time>
      </trkpt>
      <trkpt lat="42.72719" lon="1.64145">
        <ele>1309.93</ele>
        <time>2015-11-07T09:36:24Z</time>
      </trkpt>
      <trkpt lat="42.72717" lon="1.64147">
        <ele>1308.01</ele>
        <time>2015-11-07T09:36:27Z</time>
      </trkpt>
      <trkpt lat="42.7271" lon="1.64142">
        <ele>1308.97</ele>
        <time>2015-11-07T09:36:46Z</time>
      </trkpt>
      <trkpt lat="42.72702" lon="1.64136">
        <ele>1310.9</ele>
        <time>2015-11-07T09:37:01Z</time>
      </trkpt>
      <trkpt lat="42.72691" lon="1.64136">
        <ele>1309.45</ele>
        <time>2015-11-07T09:37:18Z</time>
      </trkpt>
      <trkpt lat="42.72681" lon="1.64128">
        <ele>1307.53</ele>
        <time>2015-11-07T09:37:37Z</time>
      </trkpt>
      <trkpt lat="42.72672" lon="1.64123">
        <ele>1306.57</ele>
        <time>2015-11-07T09:37:55Z</time>
      </trkpt>
      <trkpt lat="42.72672" lon="1.64122">
        <ele>1309.45</ele>
        <time>2015-11-07T09:37:56Z</time>
      </trkpt>
      <trkpt lat="42.72658" lon="1.64114">
        <ele>1308.49</ele>
        <time>2015-11-07T09:38:17Z</time>
      </trkpt>
      <trkpt lat="42.7265" lon="1.64105">
        <ele>1309.93</ele>
        <time>2015-11-07T09:38:33Z</time>
      </trkpt>
      <trkpt lat="42.72642" lon="1.64095">
        <ele>1310.41</ele>
        <time>2015-11-07T09:38:53Z</time>
      </trkpt>
      <trkpt lat="42.72628" lon="1.64076">
        <ele>1313.3</ele>
        <time>2015-11-07T09:39:16Z</time>
      </trkpt>
      <trkpt lat="42.7262" lon="1.64072">
        <ele>1314.74</ele>
        <time>2015-11-07T09:39:29Z</time>
      </trkpt>
      <trkpt lat="42.72619" lon="1.64073">
        <ele>1313.3</ele>
        <time>2015-11-07T09:39:32Z</time>
      </trkpt>
      <trkpt lat="42.7261" lon="1.64061">
        <ele>1311.38</ele>
        <time>2015-11-07T09:39:49Z</time>
      </trkpt>
      <trkpt lat="42.72603" lon="1.64055">
        <ele>1314.26</ele>
        <time>2015-11-07T09:40:06Z</time>
      </trkpt>
      <trkpt lat="42.72595" lon="1.64042">
        <ele>1317.14</ele>
        <time>2015-11-07T09:40:22Z</time>
      </trkpt>
      <trkpt lat="42.72591" lon="1.6403">
        <ele>1320.03</ele>
        <time>2015-11-07T09:40:40Z</time>
      </trkpt>
      <trkpt lat="42.72578" lon="1.64022">
        <ele>1320.51</ele>
        <time>2015-11-07T09:40:56Z</time>
      </trkpt>
      <trkpt lat="42.72561" lon="1.64015">
        <ele>1320.99</ele>
        <time>2015-11-07T09:41:14Z</time>
      </trkpt>
      <trkpt lat="42.7255" lon="1.64014">
        <ele>1320.03</ele>
        <time>2015-11-07T09:41:28Z</time>
      </trkpt>
      <trkpt lat="42.72543" lon="1.64014">
        <ele>1320.51</ele>
        <time>2015-11-07T09:41:47Z</time>
      </trkpt>
      <trkpt lat="42.72538" lon="1.64">
        <ele>1322.43</ele>
        <time>2015-11-07T09:42:05Z</time>
      </trkpt>
      <trkpt lat="42.72524" lon="1.6399">
        <ele>1323.87</ele>
        <time>2015-11-07T09:42:26Z</time>
      </trkpt>
      <trkpt lat="42.72513" lon="1.63985">
        <ele>1322.91</ele>
        <time>2015-11-07T09:42:43Z</time>
      </trkpt>
      <trkpt lat="42.72509" lon="1.63984">
        <ele>1323.39</ele>
        <time>2015-11-07T09:42:56Z</time>
      </trkpt>
      <trkpt lat="42.725" lon="1.63976">
        <ele>1325.8</ele>
        <time>2015-11-07T09:43:09Z</time>
      </trkpt>
      <trkpt lat="42.72495" lon="1.63971">
        <ele>1326.28</ele>
        <time>2015-11-07T09:43:28Z</time>
      </trkpt>
      <trkpt lat="42.72487" lon="1.63957">
        <ele>1328.68</ele>
        <time>2015-11-07T09:43:45Z</time>
      </trkpt>
      <trkpt lat="42.7248" lon="1.63947">
        <ele>1330.6</ele>
        <time>2015-11-07T09:44:03Z</time>
      </trkpt>
      <trkpt lat="42.72475" lon="1.63927">
        <ele>1333.97</ele>
        <time>2015-11-07T09:44:20Z</time>
      </trkpt>
      <trkpt lat="42.72469" lon="1.63912">
        <ele>1335.89</ele>
        <time>2015-11-07T09:44:36Z</time>
      </trkpt>
      <trkpt lat="42.72463" lon="1.639">
        <ele>1336.37</ele>
        <time>2015-11-07T09:44:52Z</time>
      </trkpt>
      <trkpt lat="42.72454" lon="1.63884">
        <ele>1337.33</ele>
        <time>2015-11-07T09:45:05Z</time>
      </trkpt>
      <trkpt lat="42.72438" lon="1.63879">
        <ele>1334.93</ele>
        <time>2015-11-07T09:45:20Z</time>
      </trkpt>
      <trkpt lat="42.72438" lon="1.63879">
        <ele>1338.77</ele>
        <time>2015-11-07T09:45:21Z</time>
      </trkpt>
      <trkpt lat="42.72437" lon="1.63868">
        <ele>1336.85</ele>
        <time>2015-11-07T09:45:37Z</time>
      </trkpt>
      <trkpt lat="42.72434" lon="1.63849">
        <ele>1337.33</ele>
        <time>2015-11-07T09:45:51Z</time>
      </trkpt>
      <trkpt lat="42.72437" lon="1.63838">
        <ele>1337.33</ele>
        <time>2015-11-07T09:46:04Z</time>
      </trkpt>
      <trkpt lat="42.72435" lon="1.6383">
        <ele>1337.81</ele>
        <time>2015-11-07T09:46:15Z</time>
      </trkpt>
      <trkpt lat="42.72429" lon="1.63812">
        <ele>1338.29</ele>
        <time>2015-11-07T09:46:30Z</time>
      </trkpt>
      <trkpt lat="42.72428" lon="1.63811">
        <ele>1338.29</ele>
        <time>2015-11-07T09:46:31Z</time>
      </trkpt>
      <trkpt lat="42.72428" lon="1.63802">
        <ele>1338.77</ele>
        <time>2015-11-07T09:46:48Z</time>
      </trkpt>
      <trkpt lat="42.72429" lon="1.63788">
        <ele>1339.25</ele>
        <time>2015-11-07T09:47:10Z</time>
      </trkpt>
      <trkpt lat="42.72425" lon="1.63784">
        <ele>1339.73</ele>
        <time>2015-11-07T09:47:15Z</time>
      </trkpt>
      <trkpt lat="42.72427" lon="1.63769">
        <ele>1341.66</ele>
        <time>2015-11-07T09:47:32Z</time>
      </trkpt>
      <trkpt lat="42.72429" lon="1.63751">
        <ele>1343.1</ele>
        <time>2015-11-07T09:47:47Z</time>
      </trkpt>
      <trkpt lat="42.72438" lon="1.63738">
        <ele>1344.06</ele>
        <time>2015-11-07T09:48:02Z</time>
      </trkpt>
      <trkpt lat="42.72439" lon="1.63737">
        <ele>1343.58</ele>
        <time>2015-11-07T09:48:04Z</time>
      </trkpt>
      <trkpt lat="42.72436" lon="1.6373">
        <ele>1344.06</ele>
        <time>2015-11-07T09:48:11Z</time>
      </trkpt>
      <trkpt lat="42.72432" lon="1.63727">
        <ele>1343.58</ele>
        <time>2015-11-07T09:48:15Z</time>
      </trkpt>
      <trkpt lat="42.72431" lon="1.63721">
        <ele>1343.58</ele>
        <time>2015-11-07T09:48:19Z</time>
      </trkpt>
      <trkpt lat="42.7242" lon="1.63711">
        <ele>1343.58</ele>
        <time>2015-11-07T09:48:32Z</time>
      </trkpt>
      <trkpt lat="42.72414" lon="1.637">
        <ele>1344.54</ele>
        <time>2015-11-07T09:48:46Z</time>
      </trkpt>
      <trkpt lat="42.7241" lon="1.63697">
        <ele>1342.62</ele>
        <time>2015-11-07T09:49:00Z</time>
      </trkpt>
      <trkpt lat="42.72407" lon="1.63694">
        <ele>1343.58</ele>
        <time>2015-11-07T09:49:04Z</time>
      </trkpt>
      <trkpt lat="42.72406" lon="1.63692">
        <ele>1343.58</ele>
        <time>2015-11-07T09:49:05Z</time>
      </trkpt>
      <trkpt lat="42.72395" lon="1.63685">
        <ele>1343.1</ele>
        <time>2015-11-07T09:49:16Z</time>
      </trkpt>
      <trkpt lat="42.72395" lon="1.6368">
        <ele>1343.58</ele>
        <time>2015-11-07T09:49:19Z</time>
      </trkpt>
      <trkpt lat="42.72393" lon="1.63663">
        <ele>1344.54</ele>
        <time>2015-11-07T09:49:33Z</time>
      </trkpt>
      <trkpt lat="42.72386" lon="1.63653">
        <ele>1344.54</ele>
        <time>2015-11-07T09:49:46Z</time>
      </trkpt>
      <trkpt lat="42.72384" lon="1.63651">
        <ele>1343.58</ele>
        <time>2015-11-07T09:49:54Z</time>
      </trkpt>
      <trkpt lat="42.72376" lon="1.63641">
        <ele>1345.02</ele>
        <time>2015-11-07T09:50:10Z</time>
      </trkpt>
      <trkpt lat="42.72374" lon="1.63639">
        <ele>1344.06</ele>
        <time>2015-11-07T09:50:16Z</time>
      </trkpt>
      <trkpt lat="42.72377" lon="1.63626">
        <ele>1345.02</ele>
        <time>2015-11-07T09:50:25Z</time>
      </trkpt>
      <trkpt lat="42.72385" lon="1.63614">
        <ele>1346.46</ele>
        <time>2015-11-07T09:50:39Z</time>
      </trkpt>
      <trkpt lat="42.72391" lon="1.63604">
        <ele>1347.91</ele>
        <time>2015-11-07T09:50:51Z</time>
      </trkpt>
      <trkpt lat="42.72394" lon="1.63594">
        <ele>1350.79</ele>
        <time>2015-11-07T09:51:05Z</time>
      </trkpt>
      <trkpt lat="42.72398" lon="1.63585">
        <ele>1352.71</ele>
        <time>2015-11-07T09:51:16Z</time>
      </trkpt>
      <trkpt lat="42.7239" lon="1.63574">
        <ele>1353.19</ele>
        <time>2015-11-07T09:51:38Z</time>
      </trkpt>
      <trkpt lat="42.72387" lon="1.63575">
        <ele>1353.19</ele>
        <time>2015-11-07T09:52:06Z</time>
      </trkpt>
      <trkpt lat="42.72387" lon="1.63572">
        <ele>1353.67</ele>
        <time>2015-11-07T09:52:23Z</time>
      </trkpt>
      <trkpt lat="42.72387" lon="1.63563">
        <ele>1357.04</ele>
        <time>2015-11-07T09:52:38Z</time>
      </trkpt>
      <trkpt lat="42.72383" lon="1.63555">
        <ele>1358.48</ele>
        <time>2015-11-07T09:52:51Z</time>
      </trkpt>
      <trkpt lat="42.72382" lon="1.63549">
        <ele>1358.96</ele>
        <time>2015-11-07T09:52:58Z</time>
      </trkpt>
      <trkpt lat="42.72379" lon="1.63534">
        <ele>1360.4</ele>
        <time>2015-11-07T09:53:12Z</time>
      </trkpt>
      <trkpt lat="42.72375" lon="1.63521">
        <ele>1362.33</ele>
        <time>2015-11-07T09:53:26Z</time>
      </trkpt>
      <trkpt lat="42.72374" lon="1.6351">
        <ele>1362.33</ele>
        <time>2015-11-07T09:53:39Z</time>
      </trkpt>
      <trkpt lat="42.7237" lon="1.63498">
        <ele>1364.25</ele>
        <time>2015-11-07T09:53:52Z</time>
      </trkpt>
      <trkpt lat="42.72371" lon="1.635">
        <ele>1363.29</ele>
        <time>2015-11-07T09:53:58Z</time>
      </trkpt>
      <trkpt lat="42.72374" lon="1.63497">
        <ele>1364.25</ele>
        <time>2015-11-07T09:54:23Z</time>
      </trkpt>
      <trkpt lat="42.72369" lon="1.63491">
        <ele>1368.09</ele>
        <time>2015-11-07T09:54:44Z</time>
      </trkpt>
      <trkpt lat="42.72356" lon="1.6348">
        <ele>1368.09</ele>
        <time>2015-11-07T09:54:58Z</time>
      </trkpt>
      <trkpt lat="42.72354" lon="1.63475">
        <ele>1369.05</ele>
        <time>2015-11-07T09:55:15Z</time>
      </trkpt>
      <trkpt lat="42.72353" lon="1.63458">
        <ele>1370.5</ele>
        <time>2015-11-07T09:55:29Z</time>
      </trkpt>
      <trkpt lat="42.72348" lon="1.63445">
        <ele>1371.94</ele>
        <time>2015-11-07T09:55:44Z</time>
      </trkpt>
      <trkpt lat="42.72351" lon="1.63434">
        <ele>1372.42</ele>
        <time>2015-11-07T09:55:58Z</time>
      </trkpt>
      <trkpt lat="42.72354" lon="1.63421">
        <ele>1373.86</ele>
        <time>2015-11-07T09:56:13Z</time>
      </trkpt>
      <trkpt lat="42.72356" lon="1.63408">
        <ele>1375.78</ele>
        <time>2015-11-07T09:56:31Z</time>
      </trkpt>
      <trkpt lat="42.72361" lon="1.63396">
        <ele>1378.67</ele>
        <time>2015-11-07T09:56:47Z</time>
      </trkpt>
      <trkpt lat="42.72352" lon="1.63381">
        <ele>1381.55</ele>
        <time>2015-11-07T09:57:06Z</time>
      </trkpt>
      <trkpt lat="42.72354" lon="1.63378">
        <ele>1382.99</ele>
        <time>2015-11-07T09:57:22Z</time>
      </trkpt>
      <trkpt lat="42.72349" lon="1.63379">
        <ele>1382.99</ele>
        <time>2015-11-07T09:57:43Z</time>
      </trkpt>
      <trkpt lat="42.72361" lon="1.63363">
        <ele>1384.92</ele>
        <time>2015-11-07T09:58:05Z</time>
      </trkpt>
      <trkpt lat="42.72352" lon="1.63372">
        <ele>1385.4</ele>
        <time>2015-11-07T09:58:26Z</time>
      </trkpt>
      <trkpt lat="42.72357" lon="1.6337">
        <ele>1382.99</ele>
        <time>2015-11-07T09:58:41Z</time>
      </trkpt>
      <trkpt lat="42.72359" lon="1.63376">
        <ele>1382.03</ele>
        <time>2015-11-07T09:58:55Z</time>
      </trkpt>
      <trkpt lat="42.72364" lon="1.63375">
        <ele>1381.07</ele>
        <time>2015-11-07T09:59:12Z</time>
      </trkpt>
      <trkpt lat="42.72361" lon="1.63378">
        <ele>1380.11</ele>
        <time>2015-11-07T09:59:30Z</time>
      </trkpt>
      <trkpt lat="42.72356" lon="1.63383">
        <ele>1380.59</ele>
        <time>2015-11-07T10:00:13Z</time>
      </trkpt>
      <trkpt lat="42.72358" lon="1.63393">
        <ele>1380.11</ele>
        <time>2015-11-07T10:00:50Z</time>
      </trkpt>
      <trkpt lat="42.72363" lon="1.63381">
        <ele>1380.11</ele>
        <time>2015-11-07T10:01:22Z</time>
      </trkpt>
      <trkpt lat="42.72374" lon="1.63377">
        <ele>1381.55</ele>
        <time>2015-11-07T10:02:02Z</time>
      </trkpt>
      <trkpt lat="42.7237" lon="1.63378">
        <ele>1381.55</ele>
        <time>2015-11-07T10:02:37Z</time>
      </trkpt>
      <trkpt lat="42.72363" lon="1.63382">
        <ele>1381.55</ele>
        <time>2015-11-07T10:03:06Z</time>
      </trkpt>
      <trkpt lat="42.7236" lon="1.63387">
        <ele>1382.51</ele>
        <time>2015-11-07T10:03:48Z</time>
      </trkpt>
      <trkpt lat="42.72364" lon="1.63385">
        <ele>1382.51</ele>
        <time>2015-11-07T10:04:24Z</time>
      </trkpt>
      <trkpt lat="42.7236" lon="1.6338">
        <ele>1382.99</ele>
        <time>2015-11-07T10:04:52Z</time>
      </trkpt>
      <trkpt lat="42.72362" lon="1.63381">
        <ele>1382.99</ele>
        <time>2015-11-07T10:05:20Z</time>
      </trkpt>
      <trkpt lat="42.72361" lon="1.63381">
        <ele>1383.47</ele>
        <time>2015-11-07T10:05:54Z</time>
      </trkpt>
      <trkpt lat="42.72364" lon="1.63385">
        <ele>1384.44</ele>
        <time>2015-11-07T10:06:25Z</time>
      </trkpt>
      <trkpt lat="42.72364" lon="1.63381">
        <ele>1383.96</ele>
        <time>2015-11-07T10:06:50Z</time>
      </trkpt>
      <trkpt lat="42.72365" lon="1.63376">
        <ele>1384.44</ele>
        <time>2015-11-07T10:07:21Z</time>
      </trkpt>
      <trkpt lat="42.72368" lon="1.63375">
        <ele>1384.92</ele>
        <time>2015-11-07T10:08:00Z</time>
      </trkpt>
      <trkpt lat="42.72364" lon="1.63375">
        <ele>1385.4</ele>
        <time>2015-11-07T10:08:37Z</time>
      </trkpt>
      <trkpt lat="42.72366" lon="1.63373">
        <ele>1385.4</ele>
        <time>2015-11-07T10:09:11Z</time>
      </trkpt>
      <trkpt lat="42.72372" lon="1.63379">
        <ele>1385.88</ele>
        <time>2015-11-07T10:09:40Z</time>
      </trkpt>
      <trkpt lat="42.7237" lon="1.63377">
        <ele>1386.36</ele>
        <time>2015-11-07T10:10:09Z</time>
      </trkpt>
      <trkpt lat="42.72356" lon="1.63376">
        <ele>1386.84</ele>
        <time>2015-11-07T10:10:43Z</time>
      </trkpt>
      <trkpt lat="42.7236" lon="1.63379">
        <ele>1387.32</ele>
        <time>2015-11-07T10:11:17Z</time>
      </trkpt>
      <trkpt lat="42.72366" lon="1.63372">
        <ele>1387.8</ele>
        <time>2015-11-07T10:11:35Z</time>
      </trkpt>
      <trkpt lat="42.72371" lon="1.63366">
        <ele>1388.76</ele>
        <time>2015-11-07T10:12:06Z</time>
      </trkpt>
      <trkpt lat="42.72366" lon="1.63368">
        <ele>1389.24</ele>
        <time>2015-11-07T10:12:34Z</time>
      </trkpt>
      <trkpt lat="42.72368" lon="1.6337">
        <ele>1389.72</ele>
        <time>2015-11-07T10:12:58Z</time>
      </trkpt>
      <trkpt lat="42.72368" lon="1.63373">
        <ele>1389.72</ele>
        <time>2015-11-07T10:13:23Z</time>
      </trkpt>
      <trkpt lat="42.72361" lon="1.63371">
        <ele>1389.72</ele>
        <time>2015-11-07T10:13:49Z</time>
      </trkpt>
      <trkpt lat="42.72358" lon="1.63361">
        <ele>1392.13</ele>
        <time>2015-11-07T10:14:05Z</time>
      </trkpt>
      <trkpt lat="42.72362" lon="1.63362">
        <ele>1393.57</ele>
        <time>2015-11-07T10:14:20Z</time>
      </trkpt>
      <trkpt lat="42.72364" lon="1.63348">
        <ele>1395.01</ele>
        <time>2015-11-07T10:14:37Z</time>
      </trkpt>
      <trkpt lat="42.72364" lon="1.63341">
        <ele>1397.41</ele>
        <time>2015-11-07T10:14:54Z</time>
      </trkpt>
      <trkpt lat="42.72363" lon="1.63329">
        <ele>1398.86</ele>
        <time>2015-11-07T10:15:10Z</time>
      </trkpt>
      <trkpt lat="42.72363" lon="1.63324">
        <ele>1401.26</ele>
        <time>2015-11-07T10:15:24Z</time>
      </trkpt>
      <trkpt lat="42.72357" lon="1.63315">
        <ele>1403.66</ele>
        <time>2015-11-07T10:15:41Z</time>
      </trkpt>
      <trkpt lat="42.7236" lon="1.63305">
        <ele>1405.58</ele>
        <time>2015-11-07T10:15:56Z</time>
      </trkpt>
      <trkpt lat="42.72358" lon="1.63293">
        <ele>1407.99</ele>
        <time>2015-11-07T10:16:11Z</time>
      </trkpt>
      <trkpt lat="42.72353" lon="1.63286">
        <ele>1409.43</ele>
        <time>2015-11-07T10:16:27Z</time>
      </trkpt>
      <trkpt lat="42.72349" lon="1.63282">
        <ele>1412.31</ele>
        <time>2015-11-07T10:16:42Z</time>
      </trkpt>
      <trkpt lat="42.72343" lon="1.63278">
        <ele>1413.76</ele>
        <time>2015-11-07T10:17:00Z</time>
      </trkpt>
      <trkpt lat="42.72337" lon="1.63272">
        <ele>1415.68</ele>
        <time>2015-11-07T10:17:19Z</time>
      </trkpt>
      <trkpt lat="42.72325" lon="1.63266">
        <ele>1419.04</ele>
        <time>2015-11-07T10:17:38Z</time>
      </trkpt>
      <trkpt lat="42.72315" lon="1.63266">
        <ele>1420.97</ele>
        <time>2015-11-07T10:17:55Z</time>
      </trkpt>
      <trkpt lat="42.72309" lon="1.63263">
        <ele>1421.93</ele>
        <time>2015-11-07T10:18:12Z</time>
      </trkpt>
      <trkpt lat="42.72304" lon="1.63261">
        <ele>1423.85</ele>
        <time>2015-11-07T10:18:25Z</time>
      </trkpt>
      <trkpt lat="42.72293" lon="1.63258">
        <ele>1423.37</ele>
        <time>2015-11-07T10:18:42Z</time>
      </trkpt>
      <trkpt lat="42.72287" lon="1.63261">
        <ele>1423.37</ele>
        <time>2015-11-07T10:19:03Z</time>
      </trkpt>
      <trkpt lat="42.7228" lon="1.6326">
        <ele>1422.89</ele>
        <time>2015-11-07T10:19:08Z</time>
      </trkpt>
      <trkpt lat="42.72276" lon="1.63256">
        <ele>1423.37</ele>
        <time>2015-11-07T10:19:14Z</time>
      </trkpt>
      <trkpt lat="42.72267" lon="1.63248">
        <ele>1425.29</ele>
        <time>2015-11-07T10:19:28Z</time>
      </trkpt>
      <trkpt lat="42.72259" lon="1.63242">
        <ele>1427.21</ele>
        <time>2015-11-07T10:19:49Z</time>
      </trkpt>
      <trkpt lat="42.7225" lon="1.63237">
        <ele>1429.14</ele>
        <time>2015-11-07T10:20:05Z</time>
      </trkpt>
      <trkpt lat="42.72244" lon="1.6323">
        <ele>1432.02</ele>
        <time>2015-11-07T10:20:18Z</time>
      </trkpt>
      <trkpt lat="42.72244" lon="1.63225">
        <ele>1433.94</ele>
        <time>2015-11-07T10:20:35Z</time>
      </trkpt>
      <trkpt lat="42.7224" lon="1.63214">
        <ele>1436.35</ele>
        <time>2015-11-07T10:20:50Z</time>
      </trkpt>
      <trkpt lat="42.72237" lon="1.6321">
        <ele>1437.79</ele>
        <time>2015-11-07T10:21:06Z</time>
      </trkpt>
      <trkpt lat="42.72234" lon="1.63203">
        <ele>1437.31</ele>
        <time>2015-11-07T10:21:25Z</time>
      </trkpt>
      <trkpt lat="42.72223" lon="1.63195">
        <ele>1439.71</ele>
        <time>2015-11-07T10:21:41Z</time>
      </trkpt>
      <trkpt lat="42.72216" lon="1.6318">
        <ele>1439.71</ele>
        <time>2015-11-07T10:21:58Z</time>
      </trkpt>
      <trkpt lat="42.72206" lon="1.63169">
        <ele>1440.19</ele>
        <time>2015-11-07T10:22:15Z</time>
      </trkpt>
      <trkpt lat="42.72198" lon="1.63163">
        <ele>1441.15</ele>
        <time>2015-11-07T10:22:30Z</time>
      </trkpt>
      <trkpt lat="42.72198" lon="1.63152">
        <ele>1443.08</ele>
        <time>2015-11-07T10:22:46Z</time>
      </trkpt>
      <trkpt lat="42.72194" lon="1.63146">
        <ele>1445</ele>
        <time>2015-11-07T10:23:02Z</time>
      </trkpt>
      <trkpt lat="42.72187" lon="1.63139">
        <ele>1447.4</ele>
        <time>2015-11-07T10:23:20Z</time>
      </trkpt>
      <trkpt lat="42.72188" lon="1.63124">
        <ele>1448.84</ele>
        <time>2015-11-07T10:23:37Z</time>
      </trkpt>
      <trkpt lat="42.7218" lon="1.63111">
        <ele>1450.77</ele>
        <time>2015-11-07T10:23:52Z</time>
      </trkpt>
      <trkpt lat="42.72174" lon="1.63107">
        <ele>1452.69</ele>
        <time>2015-11-07T10:24:06Z</time>
      </trkpt>
      <trkpt lat="42.72167" lon="1.631">
        <ele>1453.65</ele>
        <time>2015-11-07T10:24:22Z</time>
      </trkpt>
      <trkpt lat="42.7217" lon="1.63106">
        <ele>1455.09</ele>
        <time>2015-11-07T10:24:32Z</time>
      </trkpt>
      <trkpt lat="42.72169" lon="1.63105">
        <ele>1453.17</ele>
        <time>2015-11-07T10:24:34Z</time>
      </trkpt>
      <trkpt lat="42.72165" lon="1.63093">
        <ele>1453.65</ele>
        <time>2015-11-07T10:24:49Z</time>
      </trkpt>
      <trkpt lat="42.7216" lon="1.63079">
        <ele>1453.65</ele>
        <time>2015-11-07T10:25:02Z</time>
      </trkpt>
      <trkpt lat="42.72152" lon="1.63065">
        <ele>1455.09</ele>
        <time>2015-11-07T10:25:18Z</time>
      </trkpt>
      <trkpt lat="42.72139" lon="1.63054">
        <ele>1457.5</ele>
        <time>2015-11-07T10:25:33Z</time>
      </trkpt>
      <trkpt lat="42.72133" lon="1.6305">
        <ele>1459.42</ele>
        <time>2015-11-07T10:25:48Z</time>
      </trkpt>
      <trkpt lat="42.72129" lon="1.63042">
        <ele>1461.82</ele>
        <time>2015-11-07T10:26:05Z</time>
      </trkpt>
      <trkpt lat="42.72131" lon="1.63032">
        <ele>1464.23</ele>
        <time>2015-11-07T10:26:20Z</time>
      </trkpt>
      <trkpt lat="42.72129" lon="1.63028">
        <ele>1465.67</ele>
        <time>2015-11-07T10:26:40Z</time>
      </trkpt>
      <trkpt lat="42.72132" lon="1.63017">
        <ele>1467.59</ele>
        <time>2015-11-07T10:27:02Z</time>
      </trkpt>
      <trkpt lat="42.72127" lon="1.63016">
        <ele>1467.59</ele>
        <time>2015-11-07T10:27:23Z</time>
      </trkpt>
      <trkpt lat="42.72133" lon="1.63011">
        <ele>1468.55</ele>
        <time>2015-11-07T10:27:41Z</time>
      </trkpt>
      <trkpt lat="42.72139" lon="1.63005">
        <ele>1470.95</ele>
        <time>2015-11-07T10:27:57Z</time>
      </trkpt>
      <trkpt lat="42.72144" lon="1.63">
        <ele>1472.88</ele>
        <time>2015-11-07T10:28:15Z</time>
      </trkpt>
      <trkpt lat="42.72151" lon="1.6299">
        <ele>1475.28</ele>
        <time>2015-11-07T10:28:38Z</time>
      </trkpt>
      <trkpt lat="42.72151" lon="1.62985">
        <ele>1477.2</ele>
        <time>2015-11-07T10:28:54Z</time>
      </trkpt>
      <trkpt lat="42.72163" lon="1.62978">
        <ele>1477.68</ele>
        <time>2015-11-07T10:29:10Z</time>
      </trkpt>
      <trkpt lat="42.72164" lon="1.62964">
        <ele>1480.57</ele>
        <time>2015-11-07T10:29:28Z</time>
      </trkpt>
      <trkpt lat="42.7217" lon="1.62954">
        <ele>1481.05</ele>
        <time>2015-11-07T10:29:43Z</time>
      </trkpt>
      <trkpt lat="42.72172" lon="1.62939">
        <ele>1483.93</ele>
        <time>2015-11-07T10:30:02Z</time>
      </trkpt>
      <trkpt lat="42.72182" lon="1.62934">
        <ele>1485.85</ele>
        <time>2015-11-07T10:30:18Z</time>
      </trkpt>
      <trkpt lat="42.72185" lon="1.62929">
        <ele>1485.85</ele>
        <time>2015-11-07T10:30:32Z</time>
      </trkpt>
      <trkpt lat="42.7219" lon="1.62924">
        <ele>1486.82</ele>
        <time>2015-11-07T10:30:46Z</time>
      </trkpt>
      <trkpt lat="42.72195" lon="1.62923">
        <ele>1487.78</ele>
        <time>2015-11-07T10:31:00Z</time>
      </trkpt>
      <trkpt lat="42.72206" lon="1.62917">
        <ele>1489.22</ele>
        <time>2015-11-07T10:31:17Z</time>
      </trkpt>
      <trkpt lat="42.72212" lon="1.62907">
        <ele>1490.66</ele>
        <time>2015-11-07T10:31:34Z</time>
      </trkpt>
      <trkpt lat="42.72224" lon="1.62903">
        <ele>1491.62</ele>
        <time>2015-11-07T10:31:51Z</time>
      </trkpt>
      <trkpt lat="42.7223" lon="1.62905">
        <ele>1494.51</ele>
        <time>2015-11-07T10:32:10Z</time>
      </trkpt>
      <trkpt lat="42.72239" lon="1.62902">
        <ele>1495.47</ele>
        <time>2015-11-07T10:32:23Z</time>
      </trkpt>
      <trkpt lat="42.72243" lon="1.629">
        <ele>1493.55</ele>
        <time>2015-11-07T10:32:26Z</time>
      </trkpt>
      <trkpt lat="42.72244" lon="1.62899">
        <ele>1494.99</ele>
        <time>2015-11-07T10:32:28Z</time>
      </trkpt>
      <trkpt lat="42.72253" lon="1.62897">
        <ele>1498.35</ele>
        <time>2015-11-07T10:32:44Z</time>
      </trkpt>
      <trkpt lat="42.72262" lon="1.62893">
        <ele>1500.27</ele>
        <time>2015-11-07T10:33:01Z</time>
      </trkpt>
      <trkpt lat="42.72268" lon="1.62881">
        <ele>1502.68</ele>
        <time>2015-11-07T10:33:19Z</time>
      </trkpt>
      <trkpt lat="42.72276" lon="1.62876">
        <ele>1504.6</ele>
        <time>2015-11-07T10:33:37Z</time>
      </trkpt>
      <trkpt lat="42.72284" lon="1.62864">
        <ele>1505.56</ele>
        <time>2015-11-07T10:33:54Z</time>
      </trkpt>
      <trkpt lat="42.72288" lon="1.62853">
        <ele>1506.52</ele>
        <time>2015-11-07T10:34:10Z</time>
      </trkpt>
      <trkpt lat="42.72293" lon="1.62849">
        <ele>1508.45</ele>
        <time>2015-11-07T10:34:24Z</time>
      </trkpt>
      <trkpt lat="42.72298" lon="1.62841">
        <ele>1510.37</ele>
        <time>2015-11-07T10:34:39Z</time>
      </trkpt>
      <trkpt lat="42.72301" lon="1.62827">
        <ele>1512.29</ele>
        <time>2015-11-07T10:34:55Z</time>
      </trkpt>
      <trkpt lat="42.72306" lon="1.62814">
        <ele>1514.21</ele>
        <time>2015-11-07T10:35:12Z</time>
      </trkpt>
      <trkpt lat="42.72311" lon="1.62805">
        <ele>1515.66</ele>
        <time>2015-11-07T10:35:28Z</time>
      </trkpt>
      <trkpt lat="42.72311" lon="1.62804">
        <ele>1515.66</ele>
        <time>2015-11-07T10:35:52Z</time>
      </trkpt>
      <trkpt lat="42.72315" lon="1.62804">
        <ele>1516.62</ele>
        <time>2015-11-07T10:36:17Z</time>
      </trkpt>
      <trkpt lat="42.72317" lon="1.62788">
        <ele>1517.58</ele>
        <time>2015-11-07T10:36:32Z</time>
      </trkpt>
      <trkpt lat="42.72317" lon="1.6278">
        <ele>1519.5</ele>
        <time>2015-11-07T10:36:41Z</time>
      </trkpt>
      <trkpt lat="42.72321" lon="1.62768">
        <ele>1521.42</ele>
        <time>2015-11-07T10:36:58Z</time>
      </trkpt>
      <trkpt lat="42.72326" lon="1.6276">
        <ele>1523.35</ele>
        <time>2015-11-07T10:37:14Z</time>
      </trkpt>
      <trkpt lat="42.72325" lon="1.62748">
        <ele>1523.35</ele>
        <time>2015-11-07T10:37:28Z</time>
      </trkpt>
      <trkpt lat="42.72332" lon="1.62732">
        <ele>1526.71</ele>
        <time>2015-11-07T10:37:45Z</time>
      </trkpt>
      <trkpt lat="42.72337" lon="1.62724">
        <ele>1528.15</ele>
        <time>2015-11-07T10:38:03Z</time>
      </trkpt>
      <trkpt lat="42.72343" lon="1.62719">
        <ele>1530.56</ele>
        <time>2015-11-07T10:38:21Z</time>
      </trkpt>
      <trkpt lat="42.72351" lon="1.62713">
        <ele>1532</ele>
        <time>2015-11-07T10:38:37Z</time>
      </trkpt>
      <trkpt lat="42.72358" lon="1.62712">
        <ele>1535.36</ele>
        <time>2015-11-07T10:38:54Z</time>
      </trkpt>
      <trkpt lat="42.72363" lon="1.62701">
        <ele>1536.32</ele>
        <time>2015-11-07T10:39:12Z</time>
      </trkpt>
      <trkpt lat="42.72368" lon="1.62693">
        <ele>1538.25</ele>
        <time>2015-11-07T10:39:28Z</time>
      </trkpt>
      <trkpt lat="42.72373" lon="1.62681">
        <ele>1539.21</ele>
        <time>2015-11-07T10:39:42Z</time>
      </trkpt>
      <trkpt lat="42.72381" lon="1.62668">
        <ele>1540.65</ele>
        <time>2015-11-07T10:39:59Z</time>
      </trkpt>
      <trkpt lat="42.72387" lon="1.62654">
        <ele>1541.61</ele>
        <time>2015-11-07T10:40:15Z</time>
      </trkpt>
      <trkpt lat="42.72392" lon="1.62643">
        <ele>1542.57</ele>
        <time>2015-11-07T10:40:30Z</time>
      </trkpt>
      <trkpt lat="42.72396" lon="1.62635">
        <ele>1543.05</ele>
        <time>2015-11-07T10:40:45Z</time>
      </trkpt>
      <trkpt lat="42.724" lon="1.62631">
        <ele>1545.94</ele>
        <time>2015-11-07T10:41:01Z</time>
      </trkpt>
      <trkpt lat="42.72401" lon="1.6263">
        <ele>1543.05</ele>
        <time>2015-11-07T10:41:02Z</time>
      </trkpt>
      <trkpt lat="42.72408" lon="1.62621">
        <ele>1544.01</ele>
        <time>2015-11-07T10:41:17Z</time>
      </trkpt>
      <trkpt lat="42.72412" lon="1.62613">
        <ele>1544.01</ele>
        <time>2015-11-07T10:41:24Z</time>
      </trkpt>
      <trkpt lat="42.7242" lon="1.62605">
        <ele>1545.46</ele>
        <time>2015-11-07T10:41:40Z</time>
      </trkpt>
      <trkpt lat="42.72422" lon="1.62603">
        <ele>1548.82</ele>
        <time>2015-11-07T10:41:44Z</time>
      </trkpt>
      <trkpt lat="42.72424" lon="1.62601">
        <ele>1546.9</ele>
        <time>2015-11-07T10:41:47Z</time>
      </trkpt>
      <trkpt lat="42.72434" lon="1.62589">
        <ele>1548.34</ele>
        <time>2015-11-07T10:42:04Z</time>
      </trkpt>
      <trkpt lat="42.72443" lon="1.62582">
        <ele>1551.22</ele>
        <time>2015-11-07T10:42:21Z</time>
      </trkpt>
      <trkpt lat="42.72448" lon="1.62581">
        <ele>1552.19</ele>
        <time>2015-11-07T10:42:38Z</time>
      </trkpt>
      <trkpt lat="42.72452" lon="1.62592">
        <ele>1552.19</ele>
        <time>2015-11-07T10:42:53Z</time>
      </trkpt>
      <trkpt lat="42.72457" lon="1.62602">
        <ele>1555.55</ele>
        <time>2015-11-07T10:43:06Z</time>
      </trkpt>
      <trkpt lat="42.7246" lon="1.62613">
        <ele>1556.51</ele>
        <time>2015-11-07T10:43:18Z</time>
      </trkpt>
      <trkpt lat="42.72467" lon="1.62621">
        <ele>1558.92</ele>
        <time>2015-11-07T10:43:32Z</time>
      </trkpt>
      <trkpt lat="42.72466" lon="1.62633">
        <ele>1559.88</ele>
        <time>2015-11-07T10:43:46Z</time>
      </trkpt>
      <trkpt lat="42.72475" lon="1.6264">
        <ele>1561.8</ele>
        <time>2015-11-07T10:44:00Z</time>
      </trkpt>
      <trkpt lat="42.72486" lon="1.62639">
        <ele>1564.68</ele>
        <time>2015-11-07T10:44:17Z</time>
      </trkpt>
      <trkpt lat="42.72495" lon="1.62646">
        <ele>1567.09</ele>
        <time>2015-11-07T10:44:34Z</time>
      </trkpt>
      <trkpt lat="42.725" lon="1.62645">
        <ele>1567.57</ele>
        <time>2015-11-07T10:44:46Z</time>
      </trkpt>
      <trkpt lat="42.72504" lon="1.62644">
        <ele>1569.01</ele>
        <time>2015-11-07T10:44:51Z</time>
      </trkpt>
      <trkpt lat="42.72515" lon="1.62642">
        <ele>1569.97</ele>
        <time>2015-11-07T10:45:05Z</time>
      </trkpt>
      <trkpt lat="42.72515" lon="1.62645">
        <ele>1571.41</ele>
        <time>2015-11-07T10:45:19Z</time>
      </trkpt>
      <trkpt lat="42.72519" lon="1.62643">
        <ele>1570.93</ele>
        <time>2015-11-07T10:45:35Z</time>
      </trkpt>
      <trkpt lat="42.72527" lon="1.62643">
        <ele>1571.89</ele>
        <time>2015-11-07T10:45:49Z</time>
      </trkpt>
      <trkpt lat="42.72537" lon="1.62646">
        <ele>1572.85</ele>
        <time>2015-11-07T10:46:04Z</time>
      </trkpt>
      <trkpt lat="42.72548" lon="1.62645">
        <ele>1574.3</ele>
        <time>2015-11-07T10:46:18Z</time>
      </trkpt>
      <trkpt lat="42.72555" lon="1.62644">
        <ele>1575.26</ele>
        <time>2015-11-07T10:46:32Z</time>
      </trkpt>
      <trkpt lat="42.72566" lon="1.62647">
        <ele>1577.18</ele>
        <time>2015-11-07T10:46:48Z</time>
      </trkpt>
      <trkpt lat="42.72576" lon="1.62646">
        <ele>1579.58</ele>
        <time>2015-11-07T10:47:04Z</time>
      </trkpt>
      <trkpt lat="42.72585" lon="1.6265">
        <ele>1580.54</ele>
        <time>2015-11-07T10:47:21Z</time>
      </trkpt>
      <trkpt lat="42.726" lon="1.62647">
        <ele>1581.99</ele>
        <time>2015-11-07T10:47:39Z</time>
      </trkpt>
      <trkpt lat="42.72602" lon="1.62646">
        <ele>1581.99</ele>
        <time>2015-11-07T10:47:41Z</time>
      </trkpt>
      <trkpt lat="42.72612" lon="1.62648">
        <ele>1582.95</ele>
        <time>2015-11-07T10:47:56Z</time>
      </trkpt>
      <trkpt lat="42.72621" lon="1.62644">
        <ele>1583.91</ele>
        <time>2015-11-07T10:48:10Z</time>
      </trkpt>
      <trkpt lat="42.72625" lon="1.62647">
        <ele>1583.91</ele>
        <time>2015-11-07T10:48:29Z</time>
      </trkpt>
      <trkpt lat="42.72636" lon="1.62639">
        <ele>1585.83</ele>
        <time>2015-11-07T10:48:47Z</time>
      </trkpt>
      <trkpt lat="42.72641" lon="1.62638">
        <ele>1587.27</ele>
        <time>2015-11-07T10:49:03Z</time>
      </trkpt>
      <trkpt lat="42.72647" lon="1.62639">
        <ele>1588.24</ele>
        <time>2015-11-07T10:49:16Z</time>
      </trkpt>
      <trkpt lat="42.72655" lon="1.62645">
        <ele>1590.16</ele>
        <time>2015-11-07T10:49:32Z</time>
      </trkpt>
      <trkpt lat="42.72659" lon="1.62646">
        <ele>1591.6</ele>
        <time>2015-11-07T10:49:45Z</time>
      </trkpt>
      <trkpt lat="42.72661" lon="1.6264">
        <ele>1592.08</ele>
        <time>2015-11-07T10:50:08Z</time>
      </trkpt>
      <trkpt lat="42.72661" lon="1.62637">
        <ele>1592.08</ele>
        <time>2015-11-07T10:50:45Z</time>
      </trkpt>
      <trkpt lat="42.7266" lon="1.62638">
        <ele>1591.6</ele>
        <time>2015-11-07T10:51:32Z</time>
      </trkpt>
      <trkpt lat="42.72661" lon="1.62637">
        <ele>1564.68</ele>
        <time>2015-11-07T10:58:05Z</time>
      </trkpt>
      <trkpt lat="42.72661" lon="1.6264">
        <ele>1565.16</ele>
        <time>2015-11-07T10:58:29Z</time>
      </trkpt>
      <trkpt lat="42.72663" lon="1.62641">
        <ele>1569.01</ele>
        <time>2015-11-07T10:58:47Z</time>
      </trkpt>
      <trkpt lat="42.72663" lon="1.62641">
        <ele>1569.49</ele>
        <time>2015-11-07T10:58:48Z</time>
      </trkpt>
      <trkpt lat="42.72662" lon="1.62641">
        <ele>1570.93</ele>
        <time>2015-11-07T10:58:51Z</time>
      </trkpt>
      <trkpt lat="42.72662" lon="1.62641">
        <ele>1573.82</ele>
        <time>2015-11-07T10:58:53Z</time>
      </trkpt>
      <trkpt lat="42.72662" lon="1.62641">
        <ele>1575.26</ele>
        <time>2015-11-07T10:58:57Z</time>
      </trkpt>
      <trkpt lat="42.72661" lon="1.62641">
        <ele>1581.03</ele>
        <time>2015-11-07T10:59:05Z</time>
      </trkpt>
      <trkpt lat="42.72661" lon="1.62641">
        <ele>1580.06</ele>
        <time>2015-11-07T10:59:06Z</time>
      </trkpt>
      <trkpt lat="42.72661" lon="1.6264">
        <ele>1581.99</ele>
        <time>2015-11-07T10:59:10Z</time>
      </trkpt>
      <trkpt lat="42.72661" lon="1.6264">
        <ele>1585.83</ele>
        <time>2015-11-07T10:59:17Z</time>
      </trkpt>
      <trkpt lat="42.7266" lon="1.6264">
        <ele>1585.83</ele>
        <time>2015-11-07T10:59:18Z</time>
      </trkpt>
      <trkpt lat="42.7266" lon="1.6264">
        <ele>1587.27</ele>
        <time>2015-11-07T10:59:25Z</time>
      </trkpt>
      <trkpt lat="42.72663" lon="1.6264">
        <ele>1590.64</ele>
        <time>2015-11-07T10:59:33Z</time>
      </trkpt>
      <trkpt lat="42.72662" lon="1.62641">
        <ele>1594</ele>
        <time>2015-11-07T10:59:46Z</time>
      </trkpt>
      <trkpt lat="42.72661" lon="1.6264">
        <ele>1596.89</ele>
        <time>2015-11-07T11:00:07Z</time>
      </trkpt>
      <trkpt lat="42.7266" lon="1.62644">
        <ele>1597.85</ele>
        <time>2015-11-07T11:00:25Z</time>
      </trkpt>
      <trkpt lat="42.72659" lon="1.62645">
        <ele>1597.37</ele>
        <time>2015-11-07T11:00:50Z</time>
      </trkpt>
      <trkpt lat="42.72657" lon="1.62646">
        <ele>1597.85</ele>
        <time>2015-11-07T11:01:14Z</time>
      </trkpt>
      <trkpt lat="42.7266" lon="1.62643">
        <ele>1596.89</ele>
        <time>2015-11-07T11:01:34Z</time>
      </trkpt>
      <trkpt lat="42.72662" lon="1.6264">
        <ele>1597.37</ele>
        <time>2015-11-07T11:02:12Z</time>
      </trkpt>
      <trkpt lat="42.72662" lon="1.62639">
        <ele>1597.85</ele>
        <time>2015-11-07T11:02:37Z</time>
      </trkpt>
      <trkpt lat="42.72659" lon="1.62638">
        <ele>1597.85</ele>
        <time>2015-11-07T11:03:08Z</time>
      </trkpt>
      <trkpt lat="42.72661" lon="1.62641">
        <ele>1597.85</ele>
        <time>2015-11-07T11:03:38Z</time>
      </trkpt>
      <trkpt lat="42.72661" lon="1.62637">
        <ele>1597.85</ele>
        <time>2015-11-07T11:04:09Z</time>
      </trkpt>
      <trkpt lat="42.72659" lon="1.6264">
        <ele>1597.85</ele>
        <time>2015-11-07T11:04:45Z</time>
      </trkpt>
      <trkpt lat="42.72661" lon="1.6264">
        <ele>1597.37</ele>
        <time>2015-11-07T11:05:19Z</time>
      </trkpt>
      <trkpt lat="42.72659" lon="1.62643">
        <ele>1597.37</ele>
        <time>2015-11-07T11:05:44Z</time>
      </trkpt>
      <trkpt lat="42.72661" lon="1.62641">
        <ele>1596.89</ele>
        <time>2015-11-07T11:06:14Z</time>
      </trkpt>
      <trkpt lat="42.72663" lon="1.62641">
        <ele>1597.37</ele>
        <time>2015-11-07T11:06:39Z</time>
      </trkpt>
      <trkpt lat="42.72663" lon="1.62641">
        <ele>1598.33</ele>
        <time>2015-11-07T11:07:02Z</time>
      </trkpt>
      <trkpt lat="42.7266" lon="1.62648">
        <ele>1597.85</ele>
        <time>2015-11-07T11:07:21Z</time>
      </trkpt>
      <trkpt lat="42.72658" lon="1.62645">
        <ele>1597.37</ele>
        <time>2015-11-07T11:07:40Z</time>
      </trkpt>
      <trkpt lat="42.72659" lon="1.62645">
        <ele>1597.37</ele>
        <time>2015-11-07T11:07:57Z</time>
      </trkpt>
      <trkpt lat="42.72661" lon="1.62645">
        <ele>1597.85</ele>
        <time>2015-11-07T11:08:11Z</time>
      </trkpt>
      <trkpt lat="42.72661" lon="1.62636">
        <ele>1596.89</ele>
        <time>2015-11-07T11:08:28Z</time>
      </trkpt>
      <trkpt lat="42.72663" lon="1.62627">
        <ele>1590.64</ele>
        <time>2015-11-07T11:08:50Z</time>
      </trkpt>
      <trkpt lat="42.72663" lon="1.62626">
        <ele>1590.64</ele>
        <time>2015-11-07T11:08:51Z</time>
      </trkpt>
      <trkpt lat="42.72663" lon="1.62626">
        <ele>1605.54</ele>
        <time>2015-11-07T11:08:52Z</time>
      </trkpt>
      <trkpt lat="42.72663" lon="1.62626">
        <ele>1598.33</ele>
        <time>2015-11-07T11:08:53Z</time>
      </trkpt>
      <trkpt lat="42.72663" lon="1.62626">
        <ele>1591.6</ele>
        <time>2015-11-07T11:08:55Z</time>
      </trkpt>
      <trkpt lat="42.72663" lon="1.62627">
        <ele>1602.66</ele>
        <time>2015-11-07T11:08:56Z</time>
      </trkpt>
      <trkpt lat="42.72663" lon="1.62627">
        <ele>1599.29</ele>
        <time>2015-11-07T11:08:57Z</time>
      </trkpt>
      <trkpt lat="42.72662" lon="1.62627">
        <ele>1594</ele>
        <time>2015-11-07T11:08:59Z</time>
      </trkpt>
      <trkpt lat="42.72662" lon="1.62627">
        <ele>1600.25</ele>
        <time>2015-11-07T11:09:00Z</time>
      </trkpt>
      <trkpt lat="42.72661" lon="1.62628">
        <ele>1597.37</ele>
        <time>2015-11-07T11:09:01Z</time>
      </trkpt>
      <trkpt lat="42.72658" lon="1.62639">
        <ele>1596.89</ele>
        <time>2015-11-07T11:09:20Z</time>
      </trkpt>
      <trkpt lat="42.72656" lon="1.62648">
        <ele>1596.89</ele>
        <time>2015-11-07T11:09:34Z</time>
      </trkpt>
      <trkpt lat="42.72656" lon="1.62648">
        <ele>1596.89</ele>
        <time>2015-11-07T11:10:02Z</time>
      </trkpt>
      <trkpt lat="42.72657" lon="1.6265">
        <ele>1596.89</ele>
        <time>2015-11-07T11:10:37Z</time>
      </trkpt>
      <trkpt lat="42.72659" lon="1.62648">
        <ele>1596.89</ele>
        <time>2015-11-07T11:11:11Z</time>
      </trkpt>
      <trkpt lat="42.72658" lon="1.62647">
        <ele>1597.85</ele>
        <time>2015-11-07T11:11:45Z</time>
      </trkpt>
      <trkpt lat="42.72656" lon="1.6265">
        <ele>1597.85</ele>
        <time>2015-11-07T11:12:26Z</time>
      </trkpt>
      <trkpt lat="42.72656" lon="1.62645">
        <ele>1597.85</ele>
        <time>2015-11-07T11:13:02Z</time>
      </trkpt>
      <trkpt lat="42.72657" lon="1.62643">
        <ele>1596.89</ele>
        <time>2015-11-07T11:13:27Z</time>
      </trkpt>
      <trkpt lat="42.72661" lon="1.62633">
        <ele>1597.37</ele>
        <time>2015-11-07T11:13:35Z</time>
      </trkpt>
      <trkpt lat="42.72663" lon="1.62626">
        <ele>1597.85</ele>
        <time>2015-11-07T11:13:49Z</time>
      </trkpt>
      <trkpt lat="42.72668" lon="1.62609">
        <ele>1598.33</ele>
        <time>2015-11-07T11:14:04Z</time>
      </trkpt>
      <trkpt lat="42.72669" lon="1.62608">
        <ele>1598.33</ele>
        <time>2015-11-07T11:14:05Z</time>
      </trkpt>
      <trkpt lat="42.72673" lon="1.62598">
        <ele>1597.85</ele>
        <time>2015-11-07T11:14:14Z</time>
      </trkpt>
      <trkpt lat="42.72685" lon="1.6258">
        <ele>1598.33</ele>
        <time>2015-11-07T11:14:33Z</time>
      </trkpt>
      <trkpt lat="42.72692" lon="1.62573">
        <ele>1599.29</ele>
        <time>2015-11-07T11:14:47Z</time>
      </trkpt>
      <trkpt lat="42.72696" lon="1.62563">
        <ele>1599.77</ele>
        <time>2015-11-07T11:14:57Z</time>
      </trkpt>
      <trkpt lat="42.72698" lon="1.62545">
        <ele>1599.77</ele>
        <time>2015-11-07T11:15:12Z</time>
      </trkpt>
      <trkpt lat="42.72701" lon="1.62534">
        <ele>1601.69</ele>
        <time>2015-11-07T11:15:24Z</time>
      </trkpt>
      <trkpt lat="42.72706" lon="1.62533">
        <ele>1603.14</ele>
        <time>2015-11-07T11:15:40Z</time>
      </trkpt>
      <trkpt lat="42.72714" lon="1.62532">
        <ele>1605.06</ele>
        <time>2015-11-07T11:15:57Z</time>
      </trkpt>
      <trkpt lat="42.72721" lon="1.62529">
        <ele>1606.5</ele>
        <time>2015-11-07T11:16:14Z</time>
      </trkpt>
      <trkpt lat="42.72727" lon="1.62529">
        <ele>1609.86</ele>
        <time>2015-11-07T11:16:30Z</time>
      </trkpt>
      <trkpt lat="42.72732" lon="1.62533">
        <ele>1611.79</ele>
        <time>2015-11-07T11:16:47Z</time>
      </trkpt>
      <trkpt lat="42.72734" lon="1.62542">
        <ele>1614.19</ele>
        <time>2015-11-07T11:17:03Z</time>
      </trkpt>
      <trkpt lat="42.72742" lon="1.62539">
        <ele>1616.11</ele>
        <time>2015-11-07T11:17:17Z</time>
      </trkpt>
      <trkpt lat="42.72749" lon="1.62538">
        <ele>1619</ele>
        <time>2015-11-07T11:17:34Z</time>
      </trkpt>
      <trkpt lat="42.7275" lon="1.62537">
        <ele>1620.92</ele>
        <time>2015-11-07T11:17:36Z</time>
      </trkpt>
      <trkpt lat="42.72748" lon="1.62535">
        <ele>1617.56</ele>
        <time>2015-11-07T11:17:53Z</time>
      </trkpt>
      <trkpt lat="42.72748" lon="1.62535">
        <ele>1620.92</ele>
        <time>2015-11-07T11:17:54Z</time>
      </trkpt>
      <trkpt lat="42.72748" lon="1.62526">
        <ele>1619</ele>
        <time>2015-11-07T11:18:18Z</time>
      </trkpt>
      <trkpt lat="42.72746" lon="1.62523">
        <ele>1617.56</ele>
        <time>2015-11-07T11:18:21Z</time>
      </trkpt>
      <trkpt lat="42.72748" lon="1.62516">
        <ele>1617.56</ele>
        <time>2015-11-07T11:18:34Z</time>
      </trkpt>
      <trkpt lat="42.72747" lon="1.62511">
        <ele>1618.04</ele>
        <time>2015-11-07T11:18:50Z</time>
      </trkpt>
      <trkpt lat="42.72743" lon="1.6251">
        <ele>1616.11</ele>
        <time>2015-11-07T11:19:08Z</time>
      </trkpt>
      <trkpt lat="42.72736" lon="1.62508">
        <ele>1614.19</ele>
        <time>2015-11-07T11:19:21Z</time>
      </trkpt>
      <trkpt lat="42.72734" lon="1.62511">
        <ele>1612.27</ele>
        <time>2015-11-07T11:19:34Z</time>
      </trkpt>
      <trkpt lat="42.7273" lon="1.62517">
        <ele>1611.31</ele>
        <time>2015-11-07T11:19:59Z</time>
      </trkpt>
      <trkpt lat="42.72729" lon="1.62518">
        <ele>1611.79</ele>
        <time>2015-11-07T11:20:01Z</time>
      </trkpt>
      <trkpt lat="42.72726" lon="1.62521">
        <ele>1610.83</ele>
        <time>2015-11-07T11:20:07Z</time>
      </trkpt>
      <trkpt lat="42.72717" lon="1.62528">
        <ele>1608.42</ele>
        <time>2015-11-07T11:20:21Z</time>
      </trkpt>
      <trkpt lat="42.72707" lon="1.62525">
        <ele>1605.06</ele>
        <time>2015-11-07T11:20:33Z</time>
      </trkpt>
      <trkpt lat="42.72702" lon="1.62519">
        <ele>1603.14</ele>
        <time>2015-11-07T11:20:41Z</time>
      </trkpt>
      <trkpt lat="42.72693" lon="1.62511">
        <ele>1600.25</ele>
        <time>2015-11-07T11:20:54Z</time>
      </trkpt>
      <trkpt lat="42.72688" lon="1.625">
        <ele>1598.81</ele>
        <time>2015-11-07T11:21:06Z</time>
      </trkpt>
      <trkpt lat="42.72685" lon="1.62498">
        <ele>1598.33</ele>
        <time>2015-11-07T11:21:10Z</time>
      </trkpt>
      <trkpt lat="42.72681" lon="1.62496">
        <ele>1597.85</ele>
        <time>2015-11-07T11:21:14Z</time>
      </trkpt>
      <trkpt lat="42.72672" lon="1.62488">
        <ele>1594.96</ele>
        <time>2015-11-07T11:21:30Z</time>
      </trkpt>
      <trkpt lat="42.72666" lon="1.62478">
        <ele>1592.08</ele>
        <time>2015-11-07T11:21:43Z</time>
      </trkpt>
      <trkpt lat="42.72667" lon="1.62476">
        <ele>1592.56</ele>
        <time>2015-11-07T11:21:50Z</time>
      </trkpt>
      <trkpt lat="42.72667" lon="1.62462">
        <ele>1592.56</ele>
        <time>2015-11-07T11:22:04Z</time>
      </trkpt>
      <trkpt lat="42.72665" lon="1.62447">
        <ele>1593.04</ele>
        <time>2015-11-07T11:22:17Z</time>
      </trkpt>
      <trkpt lat="42.72661" lon="1.62434">
        <ele>1589.68</ele>
        <time>2015-11-07T11:22:28Z</time>
      </trkpt>
      <trkpt lat="42.7266" lon="1.62411">
        <ele>1591.6</ele>
        <time>2015-11-07T11:22:44Z</time>
      </trkpt>
      <trkpt lat="42.72663" lon="1.62393">
        <ele>1593.52</ele>
        <time>2015-11-07T11:22:59Z</time>
      </trkpt>
      <trkpt lat="42.72665" lon="1.62374">
        <ele>1595.93</ele>
        <time>2015-11-07T11:23:15Z</time>
      </trkpt>
      <trkpt lat="42.72667" lon="1.62366">
        <ele>1596.89</ele>
        <time>2015-11-07T11:23:29Z</time>
      </trkpt>
      <trkpt lat="42.72674" lon="1.62352">
        <ele>1599.29</ele>
        <time>2015-11-07T11:23:45Z</time>
      </trkpt>
      <trkpt lat="42.72671" lon="1.62338">
        <ele>1599.29</ele>
        <time>2015-11-07T11:24:00Z</time>
      </trkpt>
      <trkpt lat="42.72671" lon="1.62326">
        <ele>1599.29</ele>
        <time>2015-11-07T11:24:10Z</time>
      </trkpt>
      <trkpt lat="42.72667" lon="1.62309">
        <ele>1599.77</ele>
        <time>2015-11-07T11:24:24Z</time>
      </trkpt>
      <trkpt lat="42.72661" lon="1.6229">
        <ele>1601.69</ele>
        <time>2015-11-07T11:24:41Z</time>
      </trkpt>
      <trkpt lat="42.72665" lon="1.62277">
        <ele>1603.14</ele>
        <time>2015-11-07T11:24:56Z</time>
      </trkpt>
      <trkpt lat="42.72662" lon="1.62269">
        <ele>1604.1</ele>
        <time>2015-11-07T11:25:09Z</time>
      </trkpt>
      <trkpt lat="42.7266" lon="1.62259">
        <ele>1605.06</ele>
        <time>2015-11-07T11:25:24Z</time>
      </trkpt>
      <trkpt lat="42.72667" lon="1.62254">
        <ele>1606.98</ele>
        <time>2015-11-07T11:25:37Z</time>
      </trkpt>
      <trkpt lat="42.72666" lon="1.62239">
        <ele>1607.94</ele>
        <time>2015-11-07T11:25:50Z</time>
      </trkpt>
      <trkpt lat="42.72666" lon="1.62225">
        <ele>1606.5</ele>
        <time>2015-11-07T11:26:04Z</time>
      </trkpt>
      <trkpt lat="42.72665" lon="1.62221">
        <ele>1606.98</ele>
        <time>2015-11-07T11:26:21Z</time>
      </trkpt>
      <trkpt lat="42.72666" lon="1.62219">
        <ele>1606.98</ele>
        <time>2015-11-07T11:26:24Z</time>
      </trkpt>
      <trkpt lat="42.72663" lon="1.62211">
        <ele>1606.5</ele>
        <time>2015-11-07T11:26:34Z</time>
      </trkpt>
      <trkpt lat="42.72662" lon="1.62191">
        <ele>1605.54</ele>
        <time>2015-11-07T11:26:49Z</time>
      </trkpt>
      <trkpt lat="42.72664" lon="1.62183">
        <ele>1605.54</ele>
        <time>2015-11-07T11:27:02Z</time>
      </trkpt>
      <trkpt lat="42.72663" lon="1.62178">
        <ele>1606.02</ele>
        <time>2015-11-07T11:27:07Z</time>
      </trkpt>
      <trkpt lat="42.72663" lon="1.62175">
        <ele>1605.54</ele>
        <time>2015-11-07T11:27:09Z</time>
      </trkpt>
      <trkpt lat="42.72664" lon="1.62154">
        <ele>1604.1</ele>
        <time>2015-11-07T11:27:25Z</time>
      </trkpt>
      <trkpt lat="42.72665" lon="1.62142">
        <ele>1604.58</ele>
        <time>2015-11-07T11:27:38Z</time>
      </trkpt>
      <trkpt lat="42.72664" lon="1.62138">
        <ele>1605.54</ele>
        <time>2015-11-07T11:27:51Z</time>
      </trkpt>
      <trkpt lat="42.7266" lon="1.62129">
        <ele>1606.02</ele>
        <time>2015-11-07T11:28:05Z</time>
      </trkpt>
      <trkpt lat="42.7265" lon="1.62129">
        <ele>1606.5</ele>
        <time>2015-11-07T11:28:18Z</time>
      </trkpt>
      <trkpt lat="42.72647" lon="1.62125">
        <ele>1606.98</ele>
        <time>2015-11-07T11:28:24Z</time>
      </trkpt>
      <trkpt lat="42.7264" lon="1.62122">
        <ele>1608.42</ele>
        <time>2015-11-07T11:28:39Z</time>
      </trkpt>
      <trkpt lat="42.7264" lon="1.62122">
        <ele>1608.42</ele>
        <time>2015-11-07T11:28:40Z</time>
      </trkpt>
      <trkpt lat="42.72647" lon="1.62123">
        <ele>1607.46</ele>
        <time>2015-11-07T11:29:01Z</time>
      </trkpt>
      <trkpt lat="42.7266" lon="1.62117">
        <ele>1609.38</ele>
        <time>2015-11-07T11:29:18Z</time>
      </trkpt>
      <trkpt lat="42.72667" lon="1.62116">
        <ele>1609.38</ele>
        <time>2015-11-07T11:29:36Z</time>
      </trkpt>
      <trkpt lat="42.72673" lon="1.62113">
        <ele>1612.75</ele>
        <time>2015-11-07T11:29:48Z</time>
      </trkpt>
      <trkpt lat="42.72674" lon="1.62114">
        <ele>1611.31</ele>
        <time>2015-11-07T11:30:22Z</time>
      </trkpt>
      <trkpt lat="42.72675" lon="1.62108">
        <ele>1614.19</ele>
        <time>2015-11-07T11:30:36Z</time>
      </trkpt>
      <trkpt lat="42.72678" lon="1.62101">
        <ele>1617.56</ele>
        <time>2015-11-07T11:30:49Z</time>
      </trkpt>
      <trkpt lat="42.72682" lon="1.62101">
        <ele>1619.96</ele>
        <time>2015-11-07T11:31:04Z</time>
      </trkpt>
      <trkpt lat="42.72688" lon="1.62095">
        <ele>1622.84</ele>
        <time>2015-11-07T11:31:20Z</time>
      </trkpt>
      <trkpt lat="42.72692" lon="1.62087">
        <ele>1625.25</ele>
        <time>2015-11-07T11:31:38Z</time>
      </trkpt>
      <trkpt lat="42.72696" lon="1.62078">
        <ele>1627.65</ele>
        <time>2015-11-07T11:31:53Z</time>
      </trkpt>
      <trkpt lat="42.72699" lon="1.62067">
        <ele>1629.09</ele>
        <time>2015-11-07T11:32:12Z</time>
      </trkpt>
      <trkpt lat="42.727" lon="1.62062">
        <ele>1630.53</ele>
        <time>2015-11-07T11:32:28Z</time>
      </trkpt>
      <trkpt lat="42.72693" lon="1.62059">
        <ele>1632.46</ele>
        <time>2015-11-07T11:32:42Z</time>
      </trkpt>
      <trkpt lat="42.72698" lon="1.62054">
        <ele>1634.38</ele>
        <time>2015-11-07T11:32:57Z</time>
      </trkpt>
      <trkpt lat="42.7269" lon="1.62047">
        <ele>1636.78</ele>
        <time>2015-11-07T11:33:13Z</time>
      </trkpt>
      <trkpt lat="42.72694" lon="1.62039">
        <ele>1637.74</ele>
        <time>2015-11-07T11:33:27Z</time>
      </trkpt>
      <trkpt lat="42.72694" lon="1.62027">
        <ele>1639.67</ele>
        <time>2015-11-07T11:33:43Z</time>
      </trkpt>
      <trkpt lat="42.72697" lon="1.62018">
        <ele>1640.15</ele>
        <time>2015-11-07T11:33:57Z</time>
      </trkpt>
      <trkpt lat="42.72701" lon="1.6201">
        <ele>1642.07</ele>
        <time>2015-11-07T11:34:10Z</time>
      </trkpt>
      <trkpt lat="42.72703" lon="1.62002">
        <ele>1643.51</ele>
        <time>2015-11-07T11:34:26Z</time>
      </trkpt>
      <trkpt lat="42.7271" lon="1.61995">
        <ele>1645.43</ele>
        <time>2015-11-07T11:34:43Z</time>
      </trkpt>
      <trkpt lat="42.7271" lon="1.61992">
        <ele>1640.63</ele>
        <time>2015-11-07T11:34:47Z</time>
      </trkpt>
      <trkpt lat="42.7271" lon="1.61991">
        <ele>1651.68</ele>
        <time>2015-11-07T11:34:48Z</time>
      </trkpt>
      <trkpt lat="42.72711" lon="1.61991">
        <ele>1646.88</ele>
        <time>2015-11-07T11:34:49Z</time>
      </trkpt>
      <trkpt lat="42.72714" lon="1.6198">
        <ele>1648.8</ele>
        <time>2015-11-07T11:35:06Z</time>
      </trkpt>
      <trkpt lat="42.72715" lon="1.61974">
        <ele>1649.28</ele>
        <time>2015-11-07T11:35:18Z</time>
      </trkpt>
      <trkpt lat="42.7272" lon="1.61962">
        <ele>1649.76</ele>
        <time>2015-11-07T11:35:33Z</time>
      </trkpt>
      <trkpt lat="42.72719" lon="1.61952">
        <ele>1650.72</ele>
        <time>2015-11-07T11:35:47Z</time>
      </trkpt>
      <trkpt lat="42.72719" lon="1.6194">
        <ele>1652.64</ele>
        <time>2015-11-07T11:36:03Z</time>
      </trkpt>
      <trkpt lat="42.72719" lon="1.61938">
        <ele>1651.68</ele>
        <time>2015-11-07T11:36:18Z</time>
      </trkpt>
      <trkpt lat="42.72726" lon="1.61933">
        <ele>1652.16</ele>
        <time>2015-11-07T11:36:31Z</time>
      </trkpt>
      <trkpt lat="42.72734" lon="1.6193">
        <ele>1652.64</ele>
        <time>2015-11-07T11:36:44Z</time>
      </trkpt>
      <trkpt lat="42.72735" lon="1.61931">
        <ele>1653.12</ele>
        <time>2015-11-07T11:36:55Z</time>
      </trkpt>
      <trkpt lat="42.72734" lon="1.61931">
        <ele>1649.76</ele>
        <time>2015-11-07T11:37:21Z</time>
      </trkpt>
      <trkpt lat="42.72733" lon="1.61931">
        <ele>1656.49</ele>
        <time>2015-11-07T11:37:23Z</time>
      </trkpt>
      <trkpt lat="42.72734" lon="1.61931">
        <ele>1653.12</ele>
        <time>2015-11-07T11:37:24Z</time>
      </trkpt>
      <trkpt lat="42.72734" lon="1.61931">
        <ele>1652.64</ele>
        <time>2015-11-07T11:37:26Z</time>
      </trkpt>
      <trkpt lat="42.72736" lon="1.61931">
        <ele>1651.2</ele>
        <time>2015-11-07T11:37:34Z</time>
      </trkpt>
      <trkpt lat="42.72736" lon="1.61931">
        <ele>1652.64</ele>
        <time>2015-11-07T11:37:36Z</time>
      </trkpt>
      <trkpt lat="42.72738" lon="1.61923">
        <ele>1654.57</ele>
        <time>2015-11-07T11:37:48Z</time>
      </trkpt>
      <trkpt lat="42.72744" lon="1.61913">
        <ele>1656.01</ele>
        <time>2015-11-07T11:38:05Z</time>
      </trkpt>
      <trkpt lat="42.72751" lon="1.61907">
        <ele>1656.97</ele>
        <time>2015-11-07T11:38:20Z</time>
      </trkpt>
      <trkpt lat="42.72756" lon="1.61902">
        <ele>1658.89</ele>
        <time>2015-11-07T11:38:36Z</time>
      </trkpt>
      <trkpt lat="42.72763" lon="1.61905">
        <ele>1659.37</ele>
        <time>2015-11-07T11:38:57Z</time>
      </trkpt>
      <trkpt lat="42.72773" lon="1.619">
        <ele>1661.3</ele>
        <time>2015-11-07T11:39:12Z</time>
      </trkpt>
      <trkpt lat="42.7278" lon="1.61895">
        <ele>1663.7</ele>
        <time>2015-11-07T11:39:26Z</time>
      </trkpt>
      <trkpt lat="42.72786" lon="1.61891">
        <ele>1666.1</ele>
        <time>2015-11-07T11:39:41Z</time>
      </trkpt>
      <trkpt lat="42.72794" lon="1.61885">
        <ele>1668.51</ele>
        <time>2015-11-07T11:39:57Z</time>
      </trkpt>
      <trkpt lat="42.72795" lon="1.61884">
        <ele>1668.51</ele>
        <time>2015-11-07T11:40:03Z</time>
      </trkpt>
      <trkpt lat="42.72801" lon="1.61881">
        <ele>1669.95</ele>
        <time>2015-11-07T11:40:18Z</time>
      </trkpt>
      <trkpt lat="42.72806" lon="1.61882">
        <ele>1669.95</ele>
        <time>2015-11-07T11:40:25Z</time>
      </trkpt>
      <trkpt lat="42.72809" lon="1.61883">
        <ele>1669.95</ele>
        <time>2015-11-07T11:40:28Z</time>
      </trkpt>
      <trkpt lat="42.72818" lon="1.61871">
        <ele>1670.91</ele>
        <time>2015-11-07T11:40:45Z</time>
      </trkpt>
      <trkpt lat="42.72832" lon="1.61865">
        <ele>1672.35</ele>
        <time>2015-11-07T11:41:02Z</time>
      </trkpt>
      <trkpt lat="42.72841" lon="1.61855">
        <ele>1674.27</ele>
        <time>2015-11-07T11:41:20Z</time>
      </trkpt>
      <trkpt lat="42.7285" lon="1.61849">
        <ele>1675.72</ele>
        <time>2015-11-07T11:41:38Z</time>
      </trkpt>
      <trkpt lat="42.72858" lon="1.61835">
        <ele>1678.6</ele>
        <time>2015-11-07T11:41:58Z</time>
      </trkpt>
      <trkpt lat="42.72866" lon="1.61822">
        <ele>1681</ele>
        <time>2015-11-07T11:42:18Z</time>
      </trkpt>
      <trkpt lat="42.72868" lon="1.61817">
        <ele>1681.48</ele>
        <time>2015-11-07T11:42:35Z</time>
      </trkpt>
      <trkpt lat="42.72874" lon="1.61806">
        <ele>1682.93</ele>
        <time>2015-11-07T11:42:52Z</time>
      </trkpt>
      <trkpt lat="42.72879" lon="1.61797">
        <ele>1684.37</ele>
        <time>2015-11-07T11:43:07Z</time>
      </trkpt>
      <trkpt lat="42.72887" lon="1.61789">
        <ele>1686.77</ele>
        <time>2015-11-07T11:43:26Z</time>
      </trkpt>
      <trkpt lat="42.72895" lon="1.61777">
        <ele>1686.77</ele>
        <time>2015-11-07T11:43:43Z</time>
      </trkpt>
      <trkpt lat="42.72892" lon="1.61777">
        <ele>1686.77</ele>
        <time>2015-11-07T11:44:02Z</time>
      </trkpt>
      <trkpt lat="42.7289" lon="1.61779">
        <ele>1687.25</ele>
        <time>2015-11-07T11:44:30Z</time>
      </trkpt>
      <trkpt lat="42.72892" lon="1.61775">
        <ele>1686.77</ele>
        <time>2015-11-07T11:44:46Z</time>
      </trkpt>
      <trkpt lat="42.72892" lon="1.61774">
        <ele>1687.25</ele>
        <time>2015-11-07T11:45:08Z</time>
      </trkpt>
      <trkpt lat="42.72899" lon="1.61771">
        <ele>1688.69</ele>
        <time>2015-11-07T11:45:23Z</time>
      </trkpt>
      <trkpt lat="42.72899" lon="1.61772">
        <ele>1690.62</ele>
        <time>2015-11-07T11:45:40Z</time>
      </trkpt>
      <trkpt lat="42.72906" lon="1.61769">
        <ele>1692.06</ele>
        <time>2015-11-07T11:46:05Z</time>
      </trkpt>
      <trkpt lat="42.72911" lon="1.61754">
        <ele>1694.46</ele>
        <time>2015-11-07T11:46:23Z</time>
      </trkpt>
      <trkpt lat="42.72917" lon="1.61751">
        <ele>1696.38</ele>
        <time>2015-11-07T11:46:38Z</time>
      </trkpt>
      <trkpt lat="42.72917" lon="1.6174">
        <ele>1698.79</ele>
        <time>2015-11-07T11:46:54Z</time>
      </trkpt>
      <trkpt lat="42.72924" lon="1.61737">
        <ele>1700.23</ele>
        <time>2015-11-07T11:47:07Z</time>
      </trkpt>
      <trkpt lat="42.72924" lon="1.6173">
        <ele>1701.67</ele>
        <time>2015-11-07T11:47:26Z</time>
      </trkpt>
      <trkpt lat="42.72929" lon="1.61718">
        <ele>1703.59</ele>
        <time>2015-11-07T11:47:42Z</time>
      </trkpt>
      <trkpt lat="42.72928" lon="1.61705">
        <ele>1705.04</ele>
        <time>2015-11-07T11:47:57Z</time>
      </trkpt>
      <trkpt lat="42.72926" lon="1.61694">
        <ele>1704.55</ele>
        <time>2015-11-07T11:48:11Z</time>
      </trkpt>
      <trkpt lat="42.72925" lon="1.61691">
        <ele>1704.55</ele>
        <time>2015-11-07T11:48:13Z</time>
      </trkpt>
      <trkpt lat="42.72919" lon="1.61684">
        <ele>1706</ele>
        <time>2015-11-07T11:48:24Z</time>
      </trkpt>
      <trkpt lat="42.72911" lon="1.61675">
        <ele>1708.4</ele>
        <time>2015-11-07T11:48:40Z</time>
      </trkpt>
      <trkpt lat="42.72911" lon="1.6167">
        <ele>1710.32</ele>
        <time>2015-11-07T11:48:48Z</time>
      </trkpt>
      <trkpt lat="42.72912" lon="1.61664">
        <ele>1712.25</ele>
        <time>2015-11-07T11:49:03Z</time>
      </trkpt>
      <trkpt lat="42.72914" lon="1.61666">
        <ele>1712.73</ele>
        <time>2015-11-07T11:49:24Z</time>
      </trkpt>
      <trkpt lat="42.72911" lon="1.61671">
        <ele>1712.25</ele>
        <time>2015-11-07T11:50:04Z</time>
      </trkpt>
      <trkpt lat="42.72914" lon="1.61671">
        <ele>1712.73</ele>
        <time>2015-11-07T11:50:38Z</time>
      </trkpt>
      <trkpt lat="42.72912" lon="1.61663">
        <ele>1712.73</ele>
        <time>2015-11-07T11:51:02Z</time>
      </trkpt>
      <trkpt lat="42.72912" lon="1.6166">
        <ele>1713.21</ele>
        <time>2015-11-07T11:51:30Z</time>
      </trkpt>
      <trkpt lat="42.72914" lon="1.61659">
        <ele>1713.21</ele>
        <time>2015-11-07T11:52:02Z</time>
      </trkpt>
      <trkpt lat="42.72914" lon="1.61663">
        <ele>1714.65</ele>
        <time>2015-11-07T11:52:30Z</time>
      </trkpt>
      <trkpt lat="42.72921" lon="1.61656">
        <ele>1717.05</ele>
        <time>2015-11-07T11:52:44Z</time>
      </trkpt>
      <trkpt lat="42.72925" lon="1.61649">
        <ele>1719.46</ele>
        <time>2015-11-07T11:52:59Z</time>
      </trkpt>
      <trkpt lat="42.72928" lon="1.61642">
        <ele>1720.9</ele>
        <time>2015-11-07T11:53:15Z</time>
      </trkpt>
      <trkpt lat="42.72928" lon="1.61632">
        <ele>1722.82</ele>
        <time>2015-11-07T11:53:29Z</time>
      </trkpt>
      <trkpt lat="42.72933" lon="1.61627">
        <ele>1724.74</ele>
        <time>2015-11-07T11:53:45Z</time>
      </trkpt>
      <trkpt lat="42.72936" lon="1.61621">
        <ele>1726.67</ele>
        <time>2015-11-07T11:54:02Z</time>
      </trkpt>
      <trkpt lat="42.72937" lon="1.6161">
        <ele>1729.07</ele>
        <time>2015-11-07T11:54:19Z</time>
      </trkpt>
      <trkpt lat="42.72944" lon="1.61604">
        <ele>1730.99</ele>
        <time>2015-11-07T11:54:32Z</time>
      </trkpt>
      <trkpt lat="42.72939" lon="1.61606">
        <ele>1731.95</ele>
        <time>2015-11-07T11:54:48Z</time>
      </trkpt>
      <trkpt lat="42.72939" lon="1.61606">
        <ele>1731.47</ele>
        <time>2015-11-07T11:54:53Z</time>
      </trkpt>
      <trkpt lat="42.72942" lon="1.61595">
        <ele>1732.43</ele>
        <time>2015-11-07T11:55:17Z</time>
      </trkpt>
      <trkpt lat="42.72952" lon="1.6159">
        <ele>1734.84</ele>
        <time>2015-11-07T11:55:33Z</time>
      </trkpt>
      <trkpt lat="42.72947" lon="1.61594">
        <ele>1734.84</ele>
        <time>2015-11-07T11:55:54Z</time>
      </trkpt>
      <trkpt lat="42.72957" lon="1.61583">
        <ele>1737.72</ele>
        <time>2015-11-07T11:56:07Z</time>
      </trkpt>
      <trkpt lat="42.72962" lon="1.61573">
        <ele>1740.12</ele>
        <time>2015-11-07T11:56:23Z</time>
      </trkpt>
      <trkpt lat="42.72966" lon="1.61562">
        <ele>1742.05</ele>
        <time>2015-11-07T11:56:38Z</time>
      </trkpt>
      <trkpt lat="42.72964" lon="1.61556">
        <ele>1744.93</ele>
        <time>2015-11-07T11:56:54Z</time>
      </trkpt>
      <trkpt lat="42.72965" lon="1.61558">
        <ele>1743.97</ele>
        <time>2015-11-07T11:57:06Z</time>
      </trkpt>
      <trkpt lat="42.72962" lon="1.61561">
        <ele>1744.93</ele>
        <time>2015-11-07T11:57:35Z</time>
      </trkpt>
      <trkpt lat="42.72968" lon="1.61551">
        <ele>1746.85</ele>
        <time>2015-11-07T11:57:51Z</time>
      </trkpt>
      <trkpt lat="42.72971" lon="1.61547">
        <ele>1748.29</ele>
        <time>2015-11-07T11:58:03Z</time>
      </trkpt>
      <trkpt lat="42.72974" lon="1.61542">
        <ele>1749.74</ele>
        <time>2015-11-07T11:58:20Z</time>
      </trkpt>
      <trkpt lat="42.72974" lon="1.61534">
        <ele>1752.14</ele>
        <time>2015-11-07T11:58:34Z</time>
      </trkpt>
      <trkpt lat="42.72974" lon="1.61526">
        <ele>1755.02</ele>
        <time>2015-11-07T11:58:50Z</time>
      </trkpt>
      <trkpt lat="42.72976" lon="1.6152">
        <ele>1757.43</ele>
        <time>2015-11-07T11:59:05Z</time>
      </trkpt>
      <trkpt lat="42.7298" lon="1.61518">
        <ele>1759.35</ele>
        <time>2015-11-07T11:59:20Z</time>
      </trkpt>
      <trkpt lat="42.72984" lon="1.61512">
        <ele>1761.75</ele>
        <time>2015-11-07T11:59:37Z</time>
      </trkpt>
      <trkpt lat="42.72979" lon="1.61507">
        <ele>1763.2</ele>
        <time>2015-11-07T11:59:50Z</time>
      </trkpt>
      <trkpt lat="42.72973" lon="1.61503">
        <ele>1765.12</ele>
        <time>2015-11-07T12:00:05Z</time>
      </trkpt>
      <trkpt lat="42.72966" lon="1.61499">
        <ele>1766.56</ele>
        <time>2015-11-07T12:00:21Z</time>
      </trkpt>
      <trkpt lat="42.72965" lon="1.61494">
        <ele>1769.44</ele>
        <time>2015-11-07T12:00:36Z</time>
      </trkpt>
      <trkpt lat="42.72965" lon="1.6149">
        <ele>1771.37</ele>
        <time>2015-11-07T12:00:50Z</time>
      </trkpt>
      <trkpt lat="42.72963" lon="1.6148">
        <ele>1773.77</ele>
        <time>2015-11-07T12:01:05Z</time>
      </trkpt>
      <trkpt lat="42.72961" lon="1.61479">
        <ele>1775.21</ele>
        <time>2015-11-07T12:01:21Z</time>
      </trkpt>
      <trkpt lat="42.72961" lon="1.61474">
        <ele>1778.1</ele>
        <time>2015-11-07T12:01:35Z</time>
      </trkpt>
      <trkpt lat="42.72958" lon="1.61468">
        <ele>1779.54</ele>
        <time>2015-11-07T12:01:49Z</time>
      </trkpt>
      <trkpt lat="42.72957" lon="1.61463">
        <ele>1781.94</ele>
        <time>2015-11-07T12:02:02Z</time>
      </trkpt>
      <trkpt lat="42.72957" lon="1.61462">
        <ele>1783.86</ele>
        <time>2015-11-07T12:02:12Z</time>
      </trkpt>
      <trkpt lat="42.72957" lon="1.61461">
        <ele>1782.42</ele>
        <time>2015-11-07T12:02:14Z</time>
      </trkpt>
      <trkpt lat="42.72955" lon="1.61459">
        <ele>1785.31</ele>
        <time>2015-11-07T12:02:31Z</time>
      </trkpt>
      <trkpt lat="42.72958" lon="1.61457">
        <ele>1787.23</ele>
        <time>2015-11-07T12:02:48Z</time>
      </trkpt>
      <trkpt lat="42.72953" lon="1.61452">
        <ele>1790.59</ele>
        <time>2015-11-07T12:03:05Z</time>
      </trkpt>
      <trkpt lat="42.72952" lon="1.61452">
        <ele>1790.11</ele>
        <time>2015-11-07T12:03:21Z</time>
      </trkpt>
      <trkpt lat="42.72949" lon="1.61453">
        <ele>1790.11</ele>
        <time>2015-11-07T12:03:49Z</time>
      </trkpt>
      <trkpt lat="42.7295" lon="1.61454">
        <ele>1790.11</ele>
        <time>2015-11-07T12:04:21Z</time>
      </trkpt>
      <trkpt lat="42.72954" lon="1.6145">
        <ele>1792.03</ele>
        <time>2015-11-07T12:04:42Z</time>
      </trkpt>
      <trkpt lat="42.72951" lon="1.61444">
        <ele>1794.92</ele>
        <time>2015-11-07T12:04:57Z</time>
      </trkpt>
      <trkpt lat="42.7295" lon="1.61442">
        <ele>1796.36</ele>
        <time>2015-11-07T12:05:18Z</time>
      </trkpt>
      <trkpt lat="42.7295" lon="1.6144">
        <ele>1797.32</ele>
        <time>2015-11-07T12:05:35Z</time>
      </trkpt>
      <trkpt lat="42.7295" lon="1.61439">
        <ele>1797.32</ele>
        <time>2015-11-07T12:06:09Z</time>
      </trkpt>
      <trkpt lat="42.72948" lon="1.61431">
        <ele>1799.73</ele>
        <time>2015-11-07T12:06:21Z</time>
      </trkpt>
      <trkpt lat="42.72948" lon="1.61423">
        <ele>1802.61</ele>
        <time>2015-11-07T12:06:36Z</time>
      </trkpt>
      <trkpt lat="42.72948" lon="1.61417">
        <ele>1804.53</ele>
        <time>2015-11-07T12:06:50Z</time>
      </trkpt>
      <trkpt lat="42.72952" lon="1.61422">
        <ele>1807.42</ele>
        <time>2015-11-07T12:07:06Z</time>
      </trkpt>
      <trkpt lat="42.72952" lon="1.61418">
        <ele>1807.42</ele>
        <time>2015-11-07T12:07:20Z</time>
      </trkpt>
      <trkpt lat="42.72951" lon="1.61416">
        <ele>1809.34</ele>
        <time>2015-11-07T12:07:38Z</time>
      </trkpt>
      <trkpt lat="42.72952" lon="1.61407">
        <ele>1810.78</ele>
        <time>2015-11-07T12:07:53Z</time>
      </trkpt>
      <trkpt lat="42.72944" lon="1.61403">
        <ele>1813.18</ele>
        <time>2015-11-07T12:08:09Z</time>
      </trkpt>
      <trkpt lat="42.72946" lon="1.61404">
        <ele>1814.63</ele>
        <time>2015-11-07T12:08:26Z</time>
      </trkpt>
      <trkpt lat="42.72946" lon="1.61401">
        <ele>1815.11</ele>
        <time>2015-11-07T12:08:49Z</time>
      </trkpt>
      <trkpt lat="42.72945" lon="1.61393">
        <ele>1815.11</ele>
        <time>2015-11-07T12:09:10Z</time>
      </trkpt>
      <trkpt lat="42.72942" lon="1.6139">
        <ele>1816.07</ele>
        <time>2015-11-07T12:09:14Z</time>
      </trkpt>
      <trkpt lat="42.72942" lon="1.61385">
        <ele>1816.55</ele>
        <time>2015-11-07T12:09:26Z</time>
      </trkpt>
      <trkpt lat="42.72942" lon="1.61381">
        <ele>1817.03</ele>
        <time>2015-11-07T12:09:40Z</time>
      </trkpt>
      <trkpt lat="42.72945" lon="1.61373">
        <ele>1819.43</ele>
        <time>2015-11-07T12:09:55Z</time>
      </trkpt>
      <trkpt lat="42.72947" lon="1.6137">
        <ele>1819.91</ele>
        <time>2015-11-07T12:10:19Z</time>
      </trkpt>
      <trkpt lat="42.72946" lon="1.61359">
        <ele>1821.35</ele>
        <time>2015-11-07T12:10:30Z</time>
      </trkpt>
      <trkpt lat="42.72954" lon="1.61352">
        <ele>1823.76</ele>
        <time>2015-11-07T12:10:47Z</time>
      </trkpt>
      <trkpt lat="42.72955" lon="1.61349">
        <ele>1824.24</ele>
        <time>2015-11-07T12:10:51Z</time>
      </trkpt>
      <trkpt lat="42.72964" lon="1.61343">
        <ele>1826.64</ele>
        <time>2015-11-07T12:11:08Z</time>
      </trkpt>
      <trkpt lat="42.72966" lon="1.61347">
        <ele>1828.56</ele>
        <time>2015-11-07T12:11:22Z</time>
      </trkpt>
      <trkpt lat="42.72965" lon="1.61342">
        <ele>1828.08</ele>
        <time>2015-11-07T12:11:43Z</time>
      </trkpt>
      <trkpt lat="42.7297" lon="1.61338">
        <ele>1829.53</ele>
        <time>2015-11-07T12:12:04Z</time>
      </trkpt>
      <trkpt lat="42.72977" lon="1.61337">
        <ele>1831.93</ele>
        <time>2015-11-07T12:12:19Z</time>
      </trkpt>
      <trkpt lat="42.72987" lon="1.61332">
        <ele>1835.29</ele>
        <time>2015-11-07T12:12:35Z</time>
      </trkpt>
      <trkpt lat="42.72991" lon="1.61329">
        <ele>1837.7</ele>
        <time>2015-11-07T12:12:49Z</time>
      </trkpt>
      <trkpt lat="42.72993" lon="1.61325">
        <ele>1840.1</ele>
        <time>2015-11-07T12:13:03Z</time>
      </trkpt>
      <trkpt lat="42.72991" lon="1.61315">
        <ele>1842.02</ele>
        <time>2015-11-07T12:13:17Z</time>
      </trkpt>
      <trkpt lat="42.72989" lon="1.61308">
        <ele>1843.95</ele>
        <time>2015-11-07T12:13:32Z</time>
      </trkpt>
      <trkpt lat="42.72988" lon="1.61307">
        <ele>1844.91</ele>
        <time>2015-11-07T12:13:36Z</time>
      </trkpt>
      <trkpt lat="42.72985" lon="1.61303">
        <ele>1847.31</ele>
        <time>2015-11-07T12:13:52Z</time>
      </trkpt>
      <trkpt lat="42.72984" lon="1.61301">
        <ele>1847.31</ele>
        <time>2015-11-07T12:14:09Z</time>
      </trkpt>
      <trkpt lat="42.72985" lon="1.61297">
        <ele>1847.31</ele>
        <time>2015-11-07T12:14:32Z</time>
      </trkpt>
      <trkpt lat="42.72985" lon="1.61294">
        <ele>1847.79</ele>
        <time>2015-11-07T12:14:55Z</time>
      </trkpt>
      <trkpt lat="42.72984" lon="1.61291">
        <ele>1847.79</ele>
        <time>2015-11-07T12:15:21Z</time>
      </trkpt>
      <trkpt lat="42.72985" lon="1.61289">
        <ele>1847.31</ele>
        <time>2015-11-07T12:15:45Z</time>
      </trkpt>
      <trkpt lat="42.72982" lon="1.61291">
        <ele>1847.31</ele>
        <time>2015-11-07T12:16:04Z</time>
      </trkpt>
      <trkpt lat="42.72984" lon="1.61289">
        <ele>1848.27</ele>
        <time>2015-11-07T12:16:31Z</time>
      </trkpt>
      <trkpt lat="42.72981" lon="1.6129">
        <ele>1848.27</ele>
        <time>2015-11-07T12:16:48Z</time>
      </trkpt>
      <trkpt lat="42.72979" lon="1.61291">
        <ele>1848.27</ele>
        <time>2015-11-07T12:17:18Z</time>
      </trkpt>
      <trkpt lat="42.72979" lon="1.61284">
        <ele>1848.27</ele>
        <time>2015-11-07T12:17:33Z</time>
      </trkpt>
      <trkpt lat="42.72979" lon="1.61284">
        <ele>1848.27</ele>
        <time>2015-11-07T12:17:52Z</time>
      </trkpt>
      <trkpt lat="42.72978" lon="1.61283">
        <ele>1848.75</ele>
        <time>2015-11-07T12:17:54Z</time>
      </trkpt>
      <trkpt lat="42.72962" lon="1.61277">
        <ele>1850.19</ele>
        <time>2015-11-07T12:18:10Z</time>
      </trkpt>
      <trkpt lat="42.7295" lon="1.61271">
        <ele>1850.19</ele>
        <time>2015-11-07T12:18:21Z</time>
      </trkpt>
      <trkpt lat="42.72947" lon="1.6127">
        <ele>1851.64</ele>
        <time>2015-11-07T12:18:24Z</time>
      </trkpt>
      <trkpt lat="42.72928" lon="1.61269">
        <ele>1852.12</ele>
        <time>2015-11-07T12:18:41Z</time>
      </trkpt>
      <trkpt lat="42.72911" lon="1.61273">
        <ele>1854.04</ele>
        <time>2015-11-07T12:18:56Z</time>
      </trkpt>
      <trkpt lat="42.7291" lon="1.61273">
        <ele>1854.04</ele>
        <time>2015-11-07T12:18:57Z</time>
      </trkpt>
      <trkpt lat="42.72895" lon="1.61276">
        <ele>1855.48</ele>
        <time>2015-11-07T12:19:12Z</time>
      </trkpt>
      <trkpt lat="42.72886" lon="1.61272">
        <ele>1858.37</ele>
        <time>2015-11-07T12:19:28Z</time>
      </trkpt>
      <trkpt lat="42.72887" lon="1.61267">
        <ele>1860.77</ele>
        <time>2015-11-07T12:19:41Z</time>
      </trkpt>
      <trkpt lat="42.72883" lon="1.61275">
        <ele>1858.85</ele>
        <time>2015-11-07T12:19:58Z</time>
      </trkpt>
      <trkpt lat="42.72886" lon="1.61285">
        <ele>1856.92</ele>
        <time>2015-11-07T12:20:07Z</time>
      </trkpt>
      <trkpt lat="42.72876" lon="1.613">
        <ele>1857.89</ele>
        <time>2015-11-07T12:20:23Z</time>
      </trkpt>
      <trkpt lat="42.72871" lon="1.6131">
        <ele>1857.89</ele>
        <time>2015-11-07T12:20:32Z</time>
      </trkpt>
      <trkpt lat="42.72859" lon="1.61321">
        <ele>1860.29</ele>
        <time>2015-11-07T12:20:47Z</time>
      </trkpt>
      <trkpt lat="42.72846" lon="1.61331">
        <ele>1862.69</ele>
        <time>2015-11-07T12:21:03Z</time>
      </trkpt>
      <trkpt lat="42.72838" lon="1.61337">
        <ele>1862.69</ele>
        <time>2015-11-07T12:21:17Z</time>
      </trkpt>
      <trkpt lat="42.72823" lon="1.61344">
        <ele>1863.65</ele>
        <time>2015-11-07T12:21:32Z</time>
      </trkpt>
      <trkpt lat="42.7281" lon="1.61351">
        <ele>1863.17</ele>
        <time>2015-11-07T12:21:43Z</time>
      </trkpt>
      <trkpt lat="42.72793" lon="1.61358">
        <ele>1863.65</ele>
        <time>2015-11-07T12:22:00Z</time>
      </trkpt>
      <trkpt lat="42.72773" lon="1.61369">
        <ele>1864.13</ele>
        <time>2015-11-07T12:22:19Z</time>
      </trkpt>
      <trkpt lat="42.72756" lon="1.61377">
        <ele>1863.17</ele>
        <time>2015-11-07T12:22:34Z</time>
      </trkpt>
      <trkpt lat="42.72753" lon="1.61378">
        <ele>1864.13</ele>
        <time>2015-11-07T12:22:37Z</time>
      </trkpt>
      <trkpt lat="42.72735" lon="1.61392">
        <ele>1864.61</ele>
        <time>2015-11-07T12:22:52Z</time>
      </trkpt>
      <trkpt lat="42.72717" lon="1.61404">
        <ele>1865.58</ele>
        <time>2015-11-07T12:23:07Z</time>
      </trkpt>
      <trkpt lat="42.72699" lon="1.61417">
        <ele>1865.58</ele>
        <time>2015-11-07T12:23:24Z</time>
      </trkpt>
      <trkpt lat="42.72693" lon="1.61421">
        <ele>1865.58</ele>
        <time>2015-11-07T12:23:31Z</time>
      </trkpt>
      <trkpt lat="42.7268" lon="1.61426">
        <ele>1866.54</ele>
        <time>2015-11-07T12:23:42Z</time>
      </trkpt>
      <trkpt lat="42.72675" lon="1.61434">
        <ele>1866.54</ele>
        <time>2015-11-07T12:23:56Z</time>
      </trkpt>
      <trkpt lat="42.72666" lon="1.61439">
        <ele>1866.54</ele>
        <time>2015-11-07T12:24:10Z</time>
      </trkpt>
      <trkpt lat="42.72664" lon="1.61439">
        <ele>1867.02</ele>
        <time>2015-11-07T12:24:30Z</time>
      </trkpt>
      <trkpt lat="42.72646" lon="1.61442">
        <ele>1867.98</ele>
        <time>2015-11-07T12:24:47Z</time>
      </trkpt>
      <trkpt lat="42.72626" lon="1.61452">
        <ele>1867.02</ele>
        <time>2015-11-07T12:25:05Z</time>
      </trkpt>
      <trkpt lat="42.72614" lon="1.61463">
        <ele>1867.98</ele>
        <time>2015-11-07T12:25:20Z</time>
      </trkpt>
      <trkpt lat="42.72609" lon="1.61466">
        <ele>1868.94</ele>
        <time>2015-11-07T12:25:25Z</time>
      </trkpt>
      <trkpt lat="42.72591" lon="1.61472">
        <ele>1869.42</ele>
        <time>2015-11-07T12:25:43Z</time>
      </trkpt>
      <trkpt lat="42.72572" lon="1.61476">
        <ele>1871.34</ele>
        <time>2015-11-07T12:26:01Z</time>
      </trkpt>
      <trkpt lat="42.72553" lon="1.61485">
        <ele>1872.3</ele>
        <time>2015-11-07T12:26:21Z</time>
      </trkpt>
      <trkpt lat="42.72539" lon="1.61486">
        <ele>1873.75</ele>
        <time>2015-11-07T12:26:36Z</time>
      </trkpt>
      <trkpt lat="42.72524" lon="1.61488">
        <ele>1873.75</ele>
        <time>2015-11-07T12:26:50Z</time>
      </trkpt>
      <trkpt lat="42.72503" lon="1.61493">
        <ele>1873.75</ele>
        <time>2015-11-07T12:27:09Z</time>
      </trkpt>
      <trkpt lat="42.72493" lon="1.61497">
        <ele>1877.11</ele>
        <time>2015-11-07T12:27:19Z</time>
      </trkpt>
      <trkpt lat="42.72479" lon="1.61499">
        <ele>1875.67</ele>
        <time>2015-11-07T12:27:31Z</time>
      </trkpt>
      <trkpt lat="42.72477" lon="1.615">
        <ele>1877.59</ele>
        <time>2015-11-07T12:27:33Z</time>
      </trkpt>
      <trkpt lat="42.72455" lon="1.61507">
        <ele>1877.11</ele>
        <time>2015-11-07T12:27:53Z</time>
      </trkpt>
      <trkpt lat="42.72438" lon="1.61517">
        <ele>1877.59</ele>
        <time>2015-11-07T12:28:10Z</time>
      </trkpt>
      <trkpt lat="42.72424" lon="1.61526">
        <ele>1877.59</ele>
        <time>2015-11-07T12:28:26Z</time>
      </trkpt>
      <trkpt lat="42.72422" lon="1.61528">
        <ele>1877.11</ele>
        <time>2015-11-07T12:28:29Z</time>
      </trkpt>
      <trkpt lat="42.72414" lon="1.61546">
        <ele>1877.11</ele>
        <time>2015-11-07T12:28:49Z</time>
      </trkpt>
      <trkpt lat="42.72413" lon="1.61547">
        <ele>1878.55</ele>
        <time>2015-11-07T12:28:55Z</time>
      </trkpt>
      <trkpt lat="42.72407" lon="1.61554">
        <ele>1877.11</ele>
        <time>2015-11-07T12:29:07Z</time>
      </trkpt>
      <trkpt lat="42.72403" lon="1.61555">
        <ele>1876.15</ele>
        <time>2015-11-07T12:29:10Z</time>
      </trkpt>
      <trkpt lat="42.72386" lon="1.61564">
        <ele>1877.11</ele>
        <time>2015-11-07T12:29:26Z</time>
      </trkpt>
      <trkpt lat="42.72367" lon="1.6158">
        <ele>1878.55</ele>
        <time>2015-11-07T12:29:45Z</time>
      </trkpt>
      <trkpt lat="42.7235" lon="1.61588">
        <ele>1879.51</ele>
        <time>2015-11-07T12:30:01Z</time>
      </trkpt>
      <trkpt lat="42.72333" lon="1.61594">
        <ele>1879.03</ele>
        <time>2015-11-07T12:30:16Z</time>
      </trkpt>
      <trkpt lat="42.72323" lon="1.616">
        <ele>1879.03</ele>
        <time>2015-11-07T12:30:32Z</time>
      </trkpt>
      <trkpt lat="42.72321" lon="1.61603">
        <ele>1880</ele>
        <time>2015-11-07T12:30:58Z</time>
      </trkpt>
      <trkpt lat="42.72307" lon="1.61611">
        <ele>1879.51</ele>
        <time>2015-11-07T12:31:14Z</time>
      </trkpt>
      <trkpt lat="42.72295" lon="1.61622">
        <ele>1880.48</ele>
        <time>2015-11-07T12:31:29Z</time>
      </trkpt>
      <trkpt lat="42.72284" lon="1.61626">
        <ele>1880.48</ele>
        <time>2015-11-07T12:31:40Z</time>
      </trkpt>
      <trkpt lat="42.72269" lon="1.6163">
        <ele>1883.84</ele>
        <time>2015-11-07T12:31:55Z</time>
      </trkpt>
      <trkpt lat="42.72254" lon="1.61634">
        <ele>1885.76</ele>
        <time>2015-11-07T12:32:11Z</time>
      </trkpt>
      <trkpt lat="42.72242" lon="1.61631">
        <ele>1886.72</ele>
        <time>2015-11-07T12:32:26Z</time>
      </trkpt>
      <trkpt lat="42.72226" lon="1.61625">
        <ele>1888.17</ele>
        <time>2015-11-07T12:32:44Z</time>
      </trkpt>
      <trkpt lat="42.72212" lon="1.61614">
        <ele>1890.09</ele>
        <time>2015-11-07T12:33:02Z</time>
      </trkpt>
      <trkpt lat="42.722" lon="1.61598">
        <ele>1892.01</ele>
        <time>2015-11-07T12:33:20Z</time>
      </trkpt>
      <trkpt lat="42.72195" lon="1.61591">
        <ele>1893.45</ele>
        <time>2015-11-07T12:33:30Z</time>
      </trkpt>
      <trkpt lat="42.72189" lon="1.61573">
        <ele>1893.93</ele>
        <time>2015-11-07T12:33:46Z</time>
      </trkpt>
      <trkpt lat="42.72195" lon="1.61556">
        <ele>1896.34</ele>
        <time>2015-11-07T12:34:03Z</time>
      </trkpt>
      <trkpt lat="42.72206" lon="1.61541">
        <ele>1899.22</ele>
        <time>2015-11-07T12:34:23Z</time>
      </trkpt>
      <trkpt lat="42.72216" lon="1.61532">
        <ele>1900.18</ele>
        <time>2015-11-07T12:34:39Z</time>
      </trkpt>
      <trkpt lat="42.72218" lon="1.61527">
        <ele>1903.07</ele>
        <time>2015-11-07T12:34:54Z</time>
      </trkpt>
      <trkpt lat="42.72218" lon="1.61535">
        <ele>1903.55</ele>
        <time>2015-11-07T12:35:10Z</time>
      </trkpt>
      <trkpt lat="42.72218" lon="1.61531">
        <ele>1902.11</ele>
        <time>2015-11-07T12:35:26Z</time>
      </trkpt>
      <trkpt lat="42.72218" lon="1.6153">
        <ele>1900.66</ele>
        <time>2015-11-07T12:35:43Z</time>
      </trkpt>
      <trkpt lat="42.72218" lon="1.6153">
        <ele>1880</ele>
        <time>2015-11-07T13:47:41Z</time>
      </trkpt>
      <trkpt lat="42.7209" lon="1.6146">
        <ele>1879.03</ele>
        <time>2015-11-07T13:47:42Z</time>
      </trkpt>
      <trkpt lat="42.72087" lon="1.61455">
        <ele>1882.4</ele>
        <time>2015-11-07T13:47:52Z</time>
      </trkpt>
      <trkpt lat="42.72087" lon="1.61455">
        <ele>1882.88</ele>
        <time>2015-11-07T13:47:53Z</time>
      </trkpt>
      <trkpt lat="42.72082" lon="1.61445">
        <ele>1880.96</ele>
        <time>2015-11-07T13:48:05Z</time>
      </trkpt>
      <trkpt lat="42.72078" lon="1.61441">
        <ele>1882.88</ele>
        <time>2015-11-07T13:48:10Z</time>
      </trkpt>
      <trkpt lat="42.72073" lon="1.61439">
        <ele>1884.32</ele>
        <time>2015-11-07T13:48:15Z</time>
      </trkpt>
      <trkpt lat="42.72069" lon="1.61438">
        <ele>1883.84</ele>
        <time>2015-11-07T13:48:18Z</time>
      </trkpt>
      <trkpt lat="42.72058" lon="1.61431">
        <ele>1884.8</ele>
        <time>2015-11-07T13:48:32Z</time>
      </trkpt>
      <trkpt lat="42.72052" lon="1.61421">
        <ele>1885.76</ele>
        <time>2015-11-07T13:48:45Z</time>
      </trkpt>
      <trkpt lat="42.72048" lon="1.61414">
        <ele>1883.84</ele>
        <time>2015-11-07T13:48:58Z</time>
      </trkpt>
      <trkpt lat="42.72033" lon="1.61402">
        <ele>1880.96</ele>
        <time>2015-11-07T13:49:13Z</time>
      </trkpt>
      <trkpt lat="42.72029" lon="1.61401">
        <ele>1881.44</ele>
        <time>2015-11-07T13:49:16Z</time>
      </trkpt>
      <trkpt lat="42.72027" lon="1.61397">
        <ele>1880</ele>
        <time>2015-11-07T13:49:19Z</time>
      </trkpt>
      <trkpt lat="42.7202" lon="1.6139">
        <ele>1879.51</ele>
        <time>2015-11-07T13:49:27Z</time>
      </trkpt>
      <trkpt lat="42.72015" lon="1.61387">
        <ele>1878.07</ele>
        <time>2015-11-07T13:49:32Z</time>
      </trkpt>
      <trkpt lat="42.7201" lon="1.61384">
        <ele>1879.03</ele>
        <time>2015-11-07T13:49:36Z</time>
      </trkpt>
      <trkpt lat="42.72003" lon="1.61376">
        <ele>1877.11</ele>
        <time>2015-11-07T13:49:45Z</time>
      </trkpt>
      <trkpt lat="42.71996" lon="1.61372">
        <ele>1875.67</ele>
        <time>2015-11-07T13:49:55Z</time>
      </trkpt>
      <trkpt lat="42.7199" lon="1.61367">
        <ele>1875.19</ele>
        <time>2015-11-07T13:50:05Z</time>
      </trkpt>
      <trkpt lat="42.71985" lon="1.61366">
        <ele>1874.23</ele>
        <time>2015-11-07T13:50:12Z</time>
      </trkpt>
      <trkpt lat="42.71977" lon="1.6136">
        <ele>1874.23</ele>
        <time>2015-11-07T13:50:20Z</time>
      </trkpt>
      <trkpt lat="42.71964" lon="1.61355">
        <ele>1874.23</ele>
        <time>2015-11-07T13:50:31Z</time>
      </trkpt>
      <trkpt lat="42.71961" lon="1.6135">
        <ele>1872.79</ele>
        <time>2015-11-07T13:50:35Z</time>
      </trkpt>
      <trkpt lat="42.7195" lon="1.61343">
        <ele>1872.3</ele>
        <time>2015-11-07T13:50:49Z</time>
      </trkpt>
      <trkpt lat="42.71942" lon="1.61342">
        <ele>1870.38</ele>
        <time>2015-11-07T13:51:01Z</time>
      </trkpt>
      <trkpt lat="42.71938" lon="1.61338">
        <ele>1869.9</ele>
        <time>2015-11-07T13:51:06Z</time>
      </trkpt>
      <trkpt lat="42.71925" lon="1.61334">
        <ele>1868.94</ele>
        <time>2015-11-07T13:51:21Z</time>
      </trkpt>
      <trkpt lat="42.71922" lon="1.61329">
        <ele>1867.02</ele>
        <time>2015-11-07T13:51:29Z</time>
      </trkpt>
      <trkpt lat="42.71917" lon="1.61324">
        <ele>1864.61</ele>
        <time>2015-11-07T13:51:34Z</time>
      </trkpt>
      <trkpt lat="42.71916" lon="1.61322">
        <ele>1864.61</ele>
        <time>2015-11-07T13:51:36Z</time>
      </trkpt>
      <trkpt lat="42.71914" lon="1.6132">
        <ele>1864.61</ele>
        <time>2015-11-07T13:51:40Z</time>
      </trkpt>
      <trkpt lat="42.71911" lon="1.61316">
        <ele>1863.17</ele>
        <time>2015-11-07T13:51:44Z</time>
      </trkpt>
      <trkpt lat="42.71897" lon="1.61311">
        <ele>1861.73</ele>
        <time>2015-11-07T13:51:58Z</time>
      </trkpt>
      <trkpt lat="42.71886" lon="1.61304">
        <ele>1862.69</ele>
        <time>2015-11-07T13:52:11Z</time>
      </trkpt>
      <trkpt lat="42.71873" lon="1.61295">
        <ele>1863.17</ele>
        <time>2015-11-07T13:52:25Z</time>
      </trkpt>
      <trkpt lat="42.71868" lon="1.61289">
        <ele>1866.06</ele>
        <time>2015-11-07T13:52:35Z</time>
      </trkpt>
      <trkpt lat="42.7186" lon="1.61281">
        <ele>1867.5</ele>
        <time>2015-11-07T13:52:50Z</time>
      </trkpt>
      <trkpt lat="42.71849" lon="1.61272">
        <ele>1868.46</ele>
        <time>2015-11-07T13:53:06Z</time>
      </trkpt>
      <trkpt lat="42.71845" lon="1.61265">
        <ele>1867.5</ele>
        <time>2015-11-07T13:53:13Z</time>
      </trkpt>
      <trkpt lat="42.71831" lon="1.61257">
        <ele>1866.06</ele>
        <time>2015-11-07T13:53:27Z</time>
      </trkpt>
      <trkpt lat="42.71828" lon="1.61254">
        <ele>1865.58</ele>
        <time>2015-11-07T13:53:30Z</time>
      </trkpt>
      <trkpt lat="42.71818" lon="1.61253">
        <ele>1863.65</ele>
        <time>2015-11-07T13:53:39Z</time>
      </trkpt>
      <trkpt lat="42.7181" lon="1.61253">
        <ele>1863.17</ele>
        <time>2015-11-07T13:53:52Z</time>
      </trkpt>
      <trkpt lat="42.71798" lon="1.61251">
        <ele>1861.73</ele>
        <time>2015-11-07T13:54:08Z</time>
      </trkpt>
      <trkpt lat="42.71788" lon="1.61244">
        <ele>1862.69</ele>
        <time>2015-11-07T13:54:23Z</time>
      </trkpt>
      <trkpt lat="42.71785" lon="1.61236">
        <ele>1866.06</ele>
        <time>2015-11-07T13:54:38Z</time>
      </trkpt>
      <trkpt lat="42.71781" lon="1.61226">
        <ele>1865.58</ele>
        <time>2015-11-07T13:54:52Z</time>
      </trkpt>
      <trkpt lat="42.7178" lon="1.61223">
        <ele>1866.06</ele>
        <time>2015-11-07T13:54:55Z</time>
      </trkpt>
      <trkpt lat="42.71774" lon="1.61217">
        <ele>1867.98</ele>
        <time>2015-11-07T13:55:08Z</time>
      </trkpt>
      <trkpt lat="42.71767" lon="1.61207">
        <ele>1870.86</ele>
        <time>2015-11-07T13:55:21Z</time>
      </trkpt>
      <trkpt lat="42.71758" lon="1.61213">
        <ele>1871.34</ele>
        <time>2015-11-07T13:55:35Z</time>
      </trkpt>
      <trkpt lat="42.71747" lon="1.61214">
        <ele>1872.3</ele>
        <time>2015-11-07T13:55:49Z</time>
      </trkpt>
      <trkpt lat="42.71738" lon="1.61211">
        <ele>1870.86</ele>
        <time>2015-11-07T13:56:03Z</time>
      </trkpt>
      <trkpt lat="42.71734" lon="1.6122">
        <ele>1868.94</ele>
        <time>2015-11-07T13:56:16Z</time>
      </trkpt>
      <trkpt lat="42.71729" lon="1.61231">
        <ele>1867.98</ele>
        <time>2015-11-07T13:56:30Z</time>
      </trkpt>
      <trkpt lat="42.71724" lon="1.6124">
        <ele>1867.98</ele>
        <time>2015-11-07T13:56:43Z</time>
      </trkpt>
      <trkpt lat="42.71722" lon="1.6124">
        <ele>1869.42</ele>
        <time>2015-11-07T13:56:47Z</time>
      </trkpt>
      <trkpt lat="42.71717" lon="1.61247">
        <ele>1867.5</ele>
        <time>2015-11-07T13:57:00Z</time>
      </trkpt>
      <trkpt lat="42.71717" lon="1.61247">
        <ele>1867.98</ele>
        <time>2015-11-07T13:57:01Z</time>
      </trkpt>
      <trkpt lat="42.71709" lon="1.61256">
        <ele>1867.5</ele>
        <time>2015-11-07T13:57:15Z</time>
      </trkpt>
      <trkpt lat="42.71707" lon="1.61257">
        <ele>1866.06</ele>
        <time>2015-11-07T13:57:19Z</time>
      </trkpt>
      <trkpt lat="42.71706" lon="1.61256">
        <ele>1867.98</ele>
        <time>2015-11-07T13:57:21Z</time>
      </trkpt>
      <trkpt lat="42.71703" lon="1.61258">
        <ele>1866.54</ele>
        <time>2015-11-07T13:57:35Z</time>
      </trkpt>
      <trkpt lat="42.71698" lon="1.6126">
        <ele>1867.98</ele>
        <time>2015-11-07T13:57:42Z</time>
      </trkpt>
      <trkpt lat="42.71689" lon="1.6126">
        <ele>1869.42</ele>
        <time>2015-11-07T13:57:56Z</time>
      </trkpt>
      <trkpt lat="42.71683" lon="1.61257">
        <ele>1869.9</ele>
        <time>2015-11-07T13:58:04Z</time>
      </trkpt>
      <trkpt lat="42.71669" lon="1.61256">
        <ele>1870.86</ele>
        <time>2015-11-07T13:58:18Z</time>
      </trkpt>
      <trkpt lat="42.71658" lon="1.61261">
        <ele>1871.82</ele>
        <time>2015-11-07T13:58:32Z</time>
      </trkpt>
      <trkpt lat="42.71654" lon="1.61262">
        <ele>1871.82</ele>
        <time>2015-11-07T13:58:36Z</time>
      </trkpt>
      <trkpt lat="42.71646" lon="1.61261">
        <ele>1874.23</ele>
        <time>2015-11-07T13:58:50Z</time>
      </trkpt>
      <trkpt lat="42.71646" lon="1.61261">
        <ele>1874.23</ele>
        <time>2015-11-07T13:58:51Z</time>
      </trkpt>
      <trkpt lat="42.71643" lon="1.61264">
        <ele>1874.71</ele>
        <time>2015-11-07T13:59:07Z</time>
      </trkpt>
      <trkpt lat="42.71637" lon="1.61262">
        <ele>1876.15</ele>
        <time>2015-11-07T13:59:24Z</time>
      </trkpt>
      <trkpt lat="42.71636" lon="1.61262">
        <ele>1876.15</ele>
        <time>2015-11-07T13:59:25Z</time>
      </trkpt>
      <trkpt lat="42.7163" lon="1.61255">
        <ele>1879.51</ele>
        <time>2015-11-07T13:59:38Z</time>
      </trkpt>
      <trkpt lat="42.71621" lon="1.61251">
        <ele>1879.51</ele>
        <time>2015-11-07T13:59:48Z</time>
      </trkpt>
      <trkpt lat="42.71616" lon="1.61259">
        <ele>1878.55</ele>
        <time>2015-11-07T14:00:02Z</time>
      </trkpt>
      <trkpt lat="42.71615" lon="1.61261">
        <ele>1877.59</ele>
        <time>2015-11-07T14:00:05Z</time>
      </trkpt>
      <trkpt lat="42.71611" lon="1.61264">
        <ele>1877.59</ele>
        <time>2015-11-07T14:00:12Z</time>
      </trkpt>
      <trkpt lat="42.71602" lon="1.61266">
        <ele>1876.63</ele>
        <time>2015-11-07T14:00:26Z</time>
      </trkpt>
      <trkpt lat="42.71596" lon="1.61273">
        <ele>1877.59</ele>
        <time>2015-11-07T14:00:36Z</time>
      </trkpt>
      <trkpt lat="42.71594" lon="1.61275">
        <ele>1875.19</ele>
        <time>2015-11-07T14:00:38Z</time>
      </trkpt>
      <trkpt lat="42.71592" lon="1.61276">
        <ele>1876.63</ele>
        <time>2015-11-07T14:00:40Z</time>
      </trkpt>
      <trkpt lat="42.7159" lon="1.61277">
        <ele>1875.19</ele>
        <time>2015-11-07T14:00:42Z</time>
      </trkpt>
      <trkpt lat="42.71578" lon="1.61278">
        <ele>1873.75</ele>
        <time>2015-11-07T14:00:56Z</time>
      </trkpt>
      <trkpt lat="42.7157" lon="1.61279">
        <ele>1873.27</ele>
        <time>2015-11-07T14:01:10Z</time>
      </trkpt>
      <trkpt lat="42.71563" lon="1.6128">
        <ele>1872.3</ele>
        <time>2015-11-07T14:01:19Z</time>
      </trkpt>
      <trkpt lat="42.71551" lon="1.61281">
        <ele>1871.82</ele>
        <time>2015-11-07T14:01:32Z</time>
      </trkpt>
      <trkpt lat="42.71547" lon="1.61284">
        <ele>1871.34</ele>
        <time>2015-11-07T14:01:36Z</time>
      </trkpt>
      <trkpt lat="42.71534" lon="1.61284">
        <ele>1872.3</ele>
        <time>2015-11-07T14:01:51Z</time>
      </trkpt>
      <trkpt lat="42.71527" lon="1.61286">
        <ele>1872.79</ele>
        <time>2015-11-07T14:02:02Z</time>
      </trkpt>
      <trkpt lat="42.71517" lon="1.61284">
        <ele>1875.19</ele>
        <time>2015-11-07T14:02:14Z</time>
      </trkpt>
      <trkpt lat="42.71513" lon="1.61285">
        <ele>1874.23</ele>
        <time>2015-11-07T14:02:18Z</time>
      </trkpt>
      <trkpt lat="42.71512" lon="1.61285">
        <ele>1873.75</ele>
        <time>2015-11-07T14:02:19Z</time>
      </trkpt>
      <trkpt lat="42.71503" lon="1.61283">
        <ele>1874.71</ele>
        <time>2015-11-07T14:02:27Z</time>
      </trkpt>
      <trkpt lat="42.71494" lon="1.6129">
        <ele>1875.19</ele>
        <time>2015-11-07T14:02:41Z</time>
      </trkpt>
      <trkpt lat="42.71478" lon="1.61293">
        <ele>1875.19</ele>
        <time>2015-11-07T14:02:58Z</time>
      </trkpt>
      <trkpt lat="42.71466" lon="1.61295">
        <ele>1877.59</ele>
        <time>2015-11-07T14:03:14Z</time>
      </trkpt>
      <trkpt lat="42.71457" lon="1.61287">
        <ele>1879.03</ele>
        <time>2015-11-07T14:03:29Z</time>
      </trkpt>
      <trkpt lat="42.71455" lon="1.61283">
        <ele>1878.07</ele>
        <time>2015-11-07T14:03:34Z</time>
      </trkpt>
      <trkpt lat="42.71455" lon="1.61282">
        <ele>1879.51</ele>
        <time>2015-11-07T14:03:36Z</time>
      </trkpt>
      <trkpt lat="42.71455" lon="1.6127">
        <ele>1881.92</ele>
        <time>2015-11-07T14:03:51Z</time>
      </trkpt>
      <trkpt lat="42.71452" lon="1.61269">
        <ele>1878.55</ele>
        <time>2015-11-07T14:03:57Z</time>
      </trkpt>
      <trkpt lat="42.71451" lon="1.61269">
        <ele>1878.55</ele>
        <time>2015-11-07T14:03:58Z</time>
      </trkpt>
      <trkpt lat="42.7145" lon="1.61268">
        <ele>1878.55</ele>
        <time>2015-11-07T14:04:00Z</time>
      </trkpt>
      <trkpt lat="42.71447" lon="1.61264">
        <ele>1877.59</ele>
        <time>2015-11-07T14:04:04Z</time>
      </trkpt>
      <trkpt lat="42.71442" lon="1.61257">
        <ele>1876.63</ele>
        <time>2015-11-07T14:04:18Z</time>
      </trkpt>
      <trkpt lat="42.71443" lon="1.61258">
        <ele>1879.03</ele>
        <time>2015-11-07T14:04:45Z</time>
      </trkpt>
      <trkpt lat="42.71445" lon="1.61258">
        <ele>1879.03</ele>
        <time>2015-11-07T14:05:19Z</time>
      </trkpt>
      <trkpt lat="42.7144" lon="1.61261">
        <ele>1879.03</ele>
        <time>2015-11-07T14:05:45Z</time>
      </trkpt>
      <trkpt lat="42.71442" lon="1.61261">
        <ele>1880.48</ele>
        <time>2015-11-07T14:05:46Z</time>
      </trkpt>
      <trkpt lat="42.71444" lon="1.61262">
        <ele>1879.51</ele>
        <time>2015-11-07T14:05:48Z</time>
      </trkpt>
      <trkpt lat="42.71455" lon="1.61268">
        <ele>1880</ele>
        <time>2015-11-07T14:06:02Z</time>
      </trkpt>
      <trkpt lat="42.71456" lon="1.61278">
        <ele>1881.92</ele>
        <time>2015-11-07T14:06:14Z</time>
      </trkpt>
      <trkpt lat="42.71459" lon="1.61292">
        <ele>1880.96</ele>
        <time>2015-11-07T14:06:28Z</time>
      </trkpt>
      <trkpt lat="42.71459" lon="1.6129">
        <ele>1879.03</ele>
        <time>2015-11-07T14:06:37Z</time>
      </trkpt>
      <trkpt lat="42.7146" lon="1.61292">
        <ele>1880.96</ele>
        <time>2015-11-07T14:06:54Z</time>
      </trkpt>
      <trkpt lat="42.7146" lon="1.61292">
        <ele>1880</ele>
        <time>2015-11-07T14:06:56Z</time>
      </trkpt>
      <trkpt lat="42.71459" lon="1.61294">
        <ele>1880</ele>
        <time>2015-11-07T14:07:17Z</time>
      </trkpt>
      <trkpt lat="42.71465" lon="1.61298">
        <ele>1880</ele>
        <time>2015-11-07T14:07:35Z</time>
      </trkpt>
      <trkpt lat="42.71472" lon="1.61297">
        <ele>1877.11</ele>
        <time>2015-11-07T14:07:46Z</time>
      </trkpt>
      <trkpt lat="42.71482" lon="1.61294">
        <ele>1876.63</ele>
        <time>2015-11-07T14:08:02Z</time>
      </trkpt>
      <trkpt lat="42.71494" lon="1.61288">
        <ele>1875.19</ele>
        <time>2015-11-07T14:08:17Z</time>
      </trkpt>
      <trkpt lat="42.71496" lon="1.61285">
        <ele>1874.71</ele>
        <time>2015-11-07T14:08:21Z</time>
      </trkpt>
      <trkpt lat="42.71498" lon="1.61285">
        <ele>1876.15</ele>
        <time>2015-11-07T14:08:24Z</time>
      </trkpt>
      <trkpt lat="42.71503" lon="1.61285">
        <ele>1876.15</ele>
        <time>2015-11-07T14:08:29Z</time>
      </trkpt>
      <trkpt lat="42.71503" lon="1.61285">
        <ele>1874.23</ele>
        <time>2015-11-07T14:08:30Z</time>
      </trkpt>
      <trkpt lat="42.71516" lon="1.61285">
        <ele>1872.79</ele>
        <time>2015-11-07T14:08:48Z</time>
      </trkpt>
      <trkpt lat="42.71516" lon="1.61285">
        <ele>1877.11</ele>
        <time>2015-11-07T14:08:49Z</time>
      </trkpt>
      <trkpt lat="42.71524" lon="1.61287">
        <ele>1873.75</ele>
        <time>2015-11-07T14:09:02Z</time>
      </trkpt>
      <trkpt lat="42.71529" lon="1.61286">
        <ele>1873.27</ele>
        <time>2015-11-07T14:09:10Z</time>
      </trkpt>
      <trkpt lat="42.71541" lon="1.61288">
        <ele>1872.3</ele>
        <time>2015-11-07T14:09:25Z</time>
      </trkpt>
      <trkpt lat="42.71553" lon="1.61285">
        <ele>1872.79</ele>
        <time>2015-11-07T14:09:39Z</time>
      </trkpt>
      <trkpt lat="42.71567" lon="1.61282">
        <ele>1874.23</ele>
        <time>2015-11-07T14:09:56Z</time>
      </trkpt>
      <trkpt lat="42.71575" lon="1.6128">
        <ele>1875.19</ele>
        <time>2015-11-07T14:10:09Z</time>
      </trkpt>
      <trkpt lat="42.71584" lon="1.61281">
        <ele>1876.15</ele>
        <time>2015-11-07T14:10:25Z</time>
      </trkpt>
      <trkpt lat="42.71595" lon="1.61276">
        <ele>1877.59</ele>
        <time>2015-11-07T14:10:42Z</time>
      </trkpt>
      <trkpt lat="42.71601" lon="1.61269">
        <ele>1878.07</ele>
        <time>2015-11-07T14:10:58Z</time>
      </trkpt>
      <trkpt lat="42.71607" lon="1.61265">
        <ele>1879.51</ele>
        <time>2015-11-07T14:11:11Z</time>
      </trkpt>
      <trkpt lat="42.71614" lon="1.61262">
        <ele>1880</ele>
        <time>2015-11-07T14:11:24Z</time>
      </trkpt>
      <trkpt lat="42.71622" lon="1.61259">
        <ele>1881.44</ele>
        <time>2015-11-07T14:11:40Z</time>
      </trkpt>
      <trkpt lat="42.71623" lon="1.61259">
        <ele>1881.92</ele>
        <time>2015-11-07T14:11:41Z</time>
      </trkpt>
      <trkpt lat="42.71624" lon="1.61257">
        <ele>1881.44</ele>
        <time>2015-11-07T14:11:57Z</time>
      </trkpt>
      <trkpt lat="42.71633" lon="1.61262">
        <ele>1879.51</ele>
        <time>2015-11-07T14:12:09Z</time>
      </trkpt>
      <trkpt lat="42.71639" lon="1.61268">
        <ele>1876.15</ele>
        <time>2015-11-07T14:12:20Z</time>
      </trkpt>
      <trkpt lat="42.71648" lon="1.61267">
        <ele>1874.23</ele>
        <time>2015-11-07T14:12:32Z</time>
      </trkpt>
      <trkpt lat="42.71656" lon="1.61264">
        <ele>1874.71</ele>
        <time>2015-11-07T14:12:43Z</time>
      </trkpt>
      <trkpt lat="42.71658" lon="1.61264">
        <ele>1873.27</ele>
        <time>2015-11-07T14:12:46Z</time>
      </trkpt>
      <trkpt lat="42.7167" lon="1.61264">
        <ele>1869.9</ele>
        <time>2015-11-07T14:12:59Z</time>
      </trkpt>
      <trkpt lat="42.7167" lon="1.61265">
        <ele>1870.38</ele>
        <time>2015-11-07T14:13:00Z</time>
      </trkpt>
      <trkpt lat="42.71679" lon="1.61264">
        <ele>1871.82</ele>
        <time>2015-11-07T14:13:14Z</time>
      </trkpt>
      <trkpt lat="42.71687" lon="1.61263">
        <ele>1867.5</ele>
        <time>2015-11-07T14:13:24Z</time>
      </trkpt>
      <trkpt lat="42.71688" lon="1.61265">
        <ele>1870.86</ele>
        <time>2015-11-07T14:13:26Z</time>
      </trkpt>
      <trkpt lat="42.71693" lon="1.61266">
        <ele>1868.46</ele>
        <time>2015-11-07T14:13:35Z</time>
      </trkpt>
      <trkpt lat="42.71695" lon="1.61267">
        <ele>1868.46</ele>
        <time>2015-11-07T14:13:43Z</time>
      </trkpt>
      <trkpt lat="42.717" lon="1.61269">
        <ele>1868.94</ele>
        <time>2015-11-07T14:13:48Z</time>
      </trkpt>
      <trkpt lat="42.71701" lon="1.61271">
        <ele>1868.46</ele>
        <time>2015-11-07T14:13:50Z</time>
      </trkpt>
      <trkpt lat="42.71705" lon="1.61267">
        <ele>1867.5</ele>
        <time>2015-11-07T14:14:02Z</time>
      </trkpt>
      <trkpt lat="42.71714" lon="1.61266">
        <ele>1865.09</ele>
        <time>2015-11-07T14:14:15Z</time>
      </trkpt>
      <trkpt lat="42.71711" lon="1.61261">
        <ele>1865.58</ele>
        <time>2015-11-07T14:14:21Z</time>
      </trkpt>
      <trkpt lat="42.71718" lon="1.61251">
        <ele>1867.98</ele>
        <time>2015-11-07T14:14:36Z</time>
      </trkpt>
      <trkpt lat="42.71723" lon="1.61243">
        <ele>1867.98</ele>
        <time>2015-11-07T14:14:51Z</time>
      </trkpt>
      <trkpt lat="42.71728" lon="1.61236">
        <ele>1869.9</ele>
        <time>2015-11-07T14:15:00Z</time>
      </trkpt>
      <trkpt lat="42.71731" lon="1.6123">
        <ele>1870.86</ele>
        <time>2015-11-07T14:15:15Z</time>
      </trkpt>
      <trkpt lat="42.71735" lon="1.61225">
        <ele>1867.98</ele>
        <time>2015-11-07T14:15:20Z</time>
      </trkpt>
      <trkpt lat="42.71737" lon="1.61221">
        <ele>1867.98</ele>
        <time>2015-11-07T14:15:24Z</time>
      </trkpt>
      <trkpt lat="42.71742" lon="1.6121">
        <ele>1870.38</ele>
        <time>2015-11-07T14:15:37Z</time>
      </trkpt>
      <trkpt lat="42.71742" lon="1.6121">
        <ele>1870.38</ele>
        <time>2015-11-07T14:15:38Z</time>
      </trkpt>
      <trkpt lat="42.71746" lon="1.61213">
        <ele>1871.82</ele>
        <time>2015-11-07T14:15:53Z</time>
      </trkpt>
      <trkpt lat="42.71756" lon="1.61213">
        <ele>1871.82</ele>
        <time>2015-11-07T14:16:08Z</time>
      </trkpt>
      <trkpt lat="42.71766" lon="1.61207">
        <ele>1868.46</ele>
        <time>2015-11-07T14:16:22Z</time>
      </trkpt>
      <trkpt lat="42.71773" lon="1.61211">
        <ele>1870.38</ele>
        <time>2015-11-07T14:16:39Z</time>
      </trkpt>
      <trkpt lat="42.7178" lon="1.61214">
        <ele>1868.46</ele>
        <time>2015-11-07T14:16:55Z</time>
      </trkpt>
      <trkpt lat="42.7179" lon="1.61216">
        <ele>1867.5</ele>
        <time>2015-11-07T14:17:12Z</time>
      </trkpt>
      <trkpt lat="42.71793" lon="1.61223">
        <ele>1866.54</ele>
        <time>2015-11-07T14:17:24Z</time>
      </trkpt>
      <trkpt lat="42.71799" lon="1.61229">
        <ele>1867.02</ele>
        <time>2015-11-07T14:17:38Z</time>
      </trkpt>
      <trkpt lat="42.71802" lon="1.61234">
        <ele>1863.65</ele>
        <time>2015-11-07T14:17:46Z</time>
      </trkpt>
      <trkpt lat="42.71803" lon="1.61235">
        <ele>1867.02</ele>
        <time>2015-11-07T14:17:49Z</time>
      </trkpt>
      <trkpt lat="42.71806" lon="1.61236">
        <ele>1863.17</ele>
        <time>2015-11-07T14:17:55Z</time>
      </trkpt>
      <trkpt lat="42.7181" lon="1.61246">
        <ele>1865.09</ele>
        <time>2015-11-07T14:18:08Z</time>
      </trkpt>
      <trkpt lat="42.71813" lon="1.61247">
        <ele>1862.21</ele>
        <time>2015-11-07T14:18:13Z</time>
      </trkpt>
      <trkpt lat="42.71817" lon="1.6125">
        <ele>1862.69</ele>
        <time>2015-11-07T14:18:26Z</time>
      </trkpt>
      <trkpt lat="42.71821" lon="1.61256">
        <ele>1861.73</ele>
        <time>2015-11-07T14:18:41Z</time>
      </trkpt>
      <trkpt lat="42.71831" lon="1.61256">
        <ele>1863.65</ele>
        <time>2015-11-07T14:19:00Z</time>
      </trkpt>
      <trkpt lat="42.71833" lon="1.61262">
        <ele>1864.61</ele>
        <time>2015-11-07T14:19:18Z</time>
      </trkpt>
      <trkpt lat="42.71842" lon="1.61267">
        <ele>1864.13</ele>
        <time>2015-11-07T14:19:37Z</time>
      </trkpt>
      <trkpt lat="42.7185" lon="1.61271">
        <ele>1866.54</ele>
        <time>2015-11-07T14:19:56Z</time>
      </trkpt>
      <trkpt lat="42.71849" lon="1.61272">
        <ele>1866.54</ele>
        <time>2015-11-07T14:20:06Z</time>
      </trkpt>
      <trkpt lat="42.71848" lon="1.61287">
        <ele>1867.5</ele>
        <time>2015-11-07T14:20:22Z</time>
      </trkpt>
      <trkpt lat="42.71847" lon="1.61289">
        <ele>1868.94</ele>
        <time>2015-11-07T14:20:39Z</time>
      </trkpt>
      <trkpt lat="42.71846" lon="1.6129">
        <ele>1867.98</ele>
        <time>2015-11-07T14:20:49Z</time>
      </trkpt>
      <trkpt lat="42.71846" lon="1.61288">
        <ele>1864.61</ele>
        <time>2015-11-07T14:21:02Z</time>
      </trkpt>
      <trkpt lat="42.71846" lon="1.61287">
        <ele>1864.61</ele>
        <time>2015-11-07T14:21:03Z</time>
      </trkpt>
      <trkpt lat="42.71846" lon="1.61287">
        <ele>1869.42</ele>
        <time>2015-11-07T14:21:06Z</time>
      </trkpt>
      <trkpt lat="42.71846" lon="1.61286">
        <ele>1868.94</ele>
        <time>2015-11-07T14:21:07Z</time>
      </trkpt>
      <trkpt lat="42.71847" lon="1.61288">
        <ele>1866.54</ele>
        <time>2015-11-07T14:21:10Z</time>
      </trkpt>
      <trkpt lat="42.71852" lon="1.61282">
        <ele>1866.06</ele>
        <time>2015-11-07T14:21:32Z</time>
      </trkpt>
      <trkpt lat="42.71855" lon="1.6128">
        <ele>1867.02</ele>
        <time>2015-11-07T14:21:48Z</time>
      </trkpt>
      <trkpt lat="42.71864" lon="1.6129">
        <ele>1865.09</ele>
        <time>2015-11-07T14:22:06Z</time>
      </trkpt>
      <trkpt lat="42.7187" lon="1.61293">
        <ele>1863.65</ele>
        <time>2015-11-07T14:22:22Z</time>
      </trkpt>
      <trkpt lat="42.71877" lon="1.61301">
        <ele>1861.25</ele>
        <time>2015-11-07T14:22:40Z</time>
      </trkpt>
      <trkpt lat="42.71884" lon="1.61306">
        <ele>1862.21</ele>
        <time>2015-11-07T14:22:56Z</time>
      </trkpt>
      <trkpt lat="42.71889" lon="1.6131">
        <ele>1860.77</ele>
        <time>2015-11-07T14:23:09Z</time>
      </trkpt>
      <trkpt lat="42.71896" lon="1.61316">
        <ele>1859.81</ele>
        <time>2015-11-07T14:23:22Z</time>
      </trkpt>
      <trkpt lat="42.71901" lon="1.61317">
        <ele>1860.29</ele>
        <time>2015-11-07T14:23:31Z</time>
      </trkpt>
      <trkpt lat="42.71906" lon="1.61319">
        <ele>1860.77</ele>
        <time>2015-11-07T14:23:48Z</time>
      </trkpt>
      <trkpt lat="42.71912" lon="1.61321">
        <ele>1862.21</ele>
        <time>2015-11-07T14:24:05Z</time>
      </trkpt>
      <trkpt lat="42.71917" lon="1.61327">
        <ele>1863.17</ele>
        <time>2015-11-07T14:24:22Z</time>
      </trkpt>
      <trkpt lat="42.71926" lon="1.61336">
        <ele>1865.58</ele>
        <time>2015-11-07T14:24:43Z</time>
      </trkpt>
      <trkpt lat="42.71933" lon="1.61341">
        <ele>1867.5</ele>
        <time>2015-11-07T14:24:57Z</time>
      </trkpt>
      <trkpt lat="42.71944" lon="1.61344">
        <ele>1867.98</ele>
        <time>2015-11-07T14:25:16Z</time>
      </trkpt>
      <trkpt lat="42.71952" lon="1.61346">
        <ele>1870.86</ele>
        <time>2015-11-07T14:25:30Z</time>
      </trkpt>
      <trkpt lat="42.71959" lon="1.61354">
        <ele>1871.34</ele>
        <time>2015-11-07T14:25:42Z</time>
      </trkpt>
      <trkpt lat="42.71969" lon="1.6136">
        <ele>1872.79</ele>
        <time>2015-11-07T14:25:56Z</time>
      </trkpt>
      <trkpt lat="42.71982" lon="1.61364">
        <ele>1872.79</ele>
        <time>2015-11-07T14:26:12Z</time>
      </trkpt>
      <trkpt lat="42.71986" lon="1.61366">
        <ele>1873.27</ele>
        <time>2015-11-07T14:26:17Z</time>
      </trkpt>
      <trkpt lat="42.71997" lon="1.61366">
        <ele>1874.23</ele>
        <time>2015-11-07T14:26:30Z</time>
      </trkpt>
      <trkpt lat="42.71998" lon="1.61368">
        <ele>1873.75</ele>
        <time>2015-11-07T14:26:33Z</time>
      </trkpt>
      <trkpt lat="42.72008" lon="1.61378">
        <ele>1875.67</ele>
        <time>2015-11-07T14:26:49Z</time>
      </trkpt>
      <trkpt lat="42.72015" lon="1.61389">
        <ele>1877.11</ele>
        <time>2015-11-07T14:27:02Z</time>
      </trkpt>
      <trkpt lat="42.7203" lon="1.61398">
        <ele>1880</ele>
        <time>2015-11-07T14:27:21Z</time>
      </trkpt>
      <trkpt lat="42.72036" lon="1.61403">
        <ele>1881.92</ele>
        <time>2015-11-07T14:27:32Z</time>
      </trkpt>
      <trkpt lat="42.72045" lon="1.61413">
        <ele>1882.4</ele>
        <time>2015-11-07T14:27:47Z</time>
      </trkpt>
      <trkpt lat="42.72053" lon="1.61422">
        <ele>1884.8</ele>
        <time>2015-11-07T14:28:04Z</time>
      </trkpt>
      <trkpt lat="42.72059" lon="1.6143">
        <ele>1887.21</ele>
        <time>2015-11-07T14:28:17Z</time>
      </trkpt>
      <trkpt lat="42.72068" lon="1.61437">
        <ele>1889.61</ele>
        <time>2015-11-07T14:28:32Z</time>
      </trkpt>
      <trkpt lat="42.72078" lon="1.6144">
        <ele>1889.61</ele>
        <time>2015-11-07T14:28:45Z</time>
      </trkpt>
      <trkpt lat="42.72086" lon="1.61449">
        <ele>1891.53</ele>
        <time>2015-11-07T14:29:00Z</time>
      </trkpt>
      <trkpt lat="42.72095" lon="1.6146">
        <ele>1892.01</ele>
        <time>2015-11-07T14:29:13Z</time>
      </trkpt>
      <trkpt lat="42.72102" lon="1.61461">
        <ele>1893.93</ele>
        <time>2015-11-07T14:29:21Z</time>
      </trkpt>
      <trkpt lat="42.72108" lon="1.61465">
        <ele>1894.42</ele>
        <time>2015-11-07T14:29:30Z</time>
      </trkpt>
      <trkpt lat="42.72112" lon="1.61471">
        <ele>1894.42</ele>
        <time>2015-11-07T14:29:36Z</time>
      </trkpt>
      <trkpt lat="42.72121" lon="1.61473">
        <ele>1894.42</ele>
        <time>2015-11-07T14:29:46Z</time>
      </trkpt>
      <trkpt lat="42.72123" lon="1.61475">
        <ele>1895.86</ele>
        <time>2015-11-07T14:29:48Z</time>
      </trkpt>
      <trkpt lat="42.72135" lon="1.61481">
        <ele>1895.86</ele>
        <time>2015-11-07T14:30:01Z</time>
      </trkpt>
      <trkpt lat="42.72135" lon="1.61482">
        <ele>1895.38</ele>
        <time>2015-11-07T14:30:02Z</time>
      </trkpt>
      <trkpt lat="42.72141" lon="1.61483">
        <ele>1895.86</ele>
        <time>2015-11-07T14:30:08Z</time>
      </trkpt>
      <trkpt lat="42.72154" lon="1.61499">
        <ele>1897.78</ele>
        <time>2015-11-07T14:30:25Z</time>
      </trkpt>
      <trkpt lat="42.7216" lon="1.61509">
        <ele>1894.42</ele>
        <time>2015-11-07T14:30:33Z</time>
      </trkpt>
      <trkpt lat="42.7216" lon="1.6151">
        <ele>1898.26</ele>
        <time>2015-11-07T14:30:34Z</time>
      </trkpt>
      <trkpt lat="42.72162" lon="1.61512">
        <ele>1894.42</ele>
        <time>2015-11-07T14:30:36Z</time>
      </trkpt>
      <trkpt lat="42.72163" lon="1.61513">
        <ele>1901.63</ele>
        <time>2015-11-07T14:30:37Z</time>
      </trkpt>
      <trkpt lat="42.72164" lon="1.61514">
        <ele>1896.34</ele>
        <time>2015-11-07T14:30:38Z</time>
      </trkpt>
      <trkpt lat="42.72164" lon="1.61514">
        <ele>1900.66</ele>
        <time>2015-11-07T14:30:39Z</time>
      </trkpt>
      <trkpt lat="42.72165" lon="1.61515">
        <ele>1897.3</ele>
        <time>2015-11-07T14:30:40Z</time>
      </trkpt>
      <trkpt lat="42.72172" lon="1.61526">
        <ele>1897.78</ele>
        <time>2015-11-07T14:30:50Z</time>
      </trkpt>
      <trkpt lat="42.72174" lon="1.61529">
        <ele>1896.82</ele>
        <time>2015-11-07T14:30:53Z</time>
      </trkpt>
      <trkpt lat="42.72181" lon="1.61556">
        <ele>1896.34</ele>
        <time>2015-11-07T14:31:13Z</time>
      </trkpt>
      <trkpt lat="42.72187" lon="1.61576">
        <ele>1894.9</ele>
        <time>2015-11-07T14:31:29Z</time>
      </trkpt>
      <trkpt lat="42.72188" lon="1.61578">
        <ele>1893.93</ele>
        <time>2015-11-07T14:31:32Z</time>
      </trkpt>
      <trkpt lat="42.722" lon="1.61602">
        <ele>1892.01</ele>
        <time>2015-11-07T14:31:52Z</time>
      </trkpt>
      <trkpt lat="42.72217" lon="1.61617">
        <ele>1889.61</ele>
        <time>2015-11-07T14:32:09Z</time>
      </trkpt>
      <trkpt lat="42.72236" lon="1.61631">
        <ele>1888.17</ele>
        <time>2015-11-07T14:32:27Z</time>
      </trkpt>
      <trkpt lat="42.72252" lon="1.61637">
        <ele>1886.24</ele>
        <time>2015-11-07T14:32:42Z</time>
      </trkpt>
      <trkpt lat="42.72257" lon="1.61638">
        <ele>1885.76</ele>
        <time>2015-11-07T14:32:46Z</time>
      </trkpt>
      <trkpt lat="42.72276" lon="1.6163">
        <ele>1883.84</ele>
        <time>2015-11-07T14:33:03Z</time>
      </trkpt>
      <trkpt lat="42.72295" lon="1.6162">
        <ele>1881.92</ele>
        <time>2015-11-07T14:33:20Z</time>
      </trkpt>
      <trkpt lat="42.72311" lon="1.61606">
        <ele>1880.48</ele>
        <time>2015-11-07T14:33:35Z</time>
      </trkpt>
      <trkpt lat="42.72329" lon="1.61598">
        <ele>1880</ele>
        <time>2015-11-07T14:33:50Z</time>
      </trkpt>
      <trkpt lat="42.72345" lon="1.61591">
        <ele>1879.51</ele>
        <time>2015-11-07T14:34:04Z</time>
      </trkpt>
      <trkpt lat="42.72366" lon="1.61584">
        <ele>1880</ele>
        <time>2015-11-07T14:34:21Z</time>
      </trkpt>
      <trkpt lat="42.72374" lon="1.61578">
        <ele>1879.51</ele>
        <time>2015-11-07T14:34:29Z</time>
      </trkpt>
      <trkpt lat="42.72392" lon="1.61565">
        <ele>1878.55</ele>
        <time>2015-11-07T14:34:45Z</time>
      </trkpt>
      <trkpt lat="42.7241" lon="1.61551">
        <ele>1879.03</ele>
        <time>2015-11-07T14:35:02Z</time>
      </trkpt>
      <trkpt lat="42.72426" lon="1.61529">
        <ele>1879.03</ele>
        <time>2015-11-07T14:35:19Z</time>
      </trkpt>
      <trkpt lat="42.72428" lon="1.61528">
        <ele>1879.03</ele>
        <time>2015-11-07T14:35:20Z</time>
      </trkpt>
      <trkpt lat="42.72433" lon="1.61523">
        <ele>1879.51</ele>
        <time>2015-11-07T14:35:24Z</time>
      </trkpt>
      <trkpt lat="42.72457" lon="1.61508">
        <ele>1879.51</ele>
        <time>2015-11-07T14:35:44Z</time>
      </trkpt>
      <trkpt lat="42.72474" lon="1.61503">
        <ele>1879.03</ele>
        <time>2015-11-07T14:35:59Z</time>
      </trkpt>
      <trkpt lat="42.72493" lon="1.61493">
        <ele>1878.55</ele>
        <time>2015-11-07T14:36:16Z</time>
      </trkpt>
      <trkpt lat="42.72516" lon="1.61487">
        <ele>1877.59</ele>
        <time>2015-11-07T14:36:33Z</time>
      </trkpt>
      <trkpt lat="42.72532" lon="1.61482">
        <ele>1877.11</ele>
        <time>2015-11-07T14:36:46Z</time>
      </trkpt>
      <trkpt lat="42.72554" lon="1.61482">
        <ele>1876.63</ele>
        <time>2015-11-07T14:37:02Z</time>
      </trkpt>
      <trkpt lat="42.72566" lon="1.61476">
        <ele>1873.75</ele>
        <time>2015-11-07T14:37:12Z</time>
      </trkpt>
      <trkpt lat="42.72584" lon="1.61471">
        <ele>1873.27</ele>
        <time>2015-11-07T14:37:27Z</time>
      </trkpt>
      <trkpt lat="42.7261" lon="1.61469">
        <ele>1872.3</ele>
        <time>2015-11-07T14:37:45Z</time>
      </trkpt>
      <trkpt lat="42.72628" lon="1.61453">
        <ele>1871.34</ele>
        <time>2015-11-07T14:38:01Z</time>
      </trkpt>
      <trkpt lat="42.72653" lon="1.61439">
        <ele>1870.86</ele>
        <time>2015-11-07T14:38:22Z</time>
      </trkpt>
      <trkpt lat="42.72669" lon="1.61434">
        <ele>1871.34</ele>
        <time>2015-11-07T14:38:35Z</time>
      </trkpt>
      <trkpt lat="42.72676" lon="1.61429">
        <ele>1870.38</ele>
        <time>2015-11-07T14:38:40Z</time>
      </trkpt>
      <trkpt lat="42.72706" lon="1.61409">
        <ele>1869.9</ele>
        <time>2015-11-07T14:39:05Z</time>
      </trkpt>
      <trkpt lat="42.7272" lon="1.61403">
        <ele>1870.38</ele>
        <time>2015-11-07T14:39:17Z</time>
      </trkpt>
      <trkpt lat="42.72739" lon="1.61389">
        <ele>1870.38</ele>
        <time>2015-11-07T14:39:35Z</time>
      </trkpt>
      <trkpt lat="42.7276" lon="1.61377">
        <ele>1869.42</ele>
        <time>2015-11-07T14:39:53Z</time>
      </trkpt>
      <trkpt lat="42.72786" lon="1.61365">
        <ele>1868.94</ele>
        <time>2015-11-07T14:40:13Z</time>
      </trkpt>
      <trkpt lat="42.72807" lon="1.61356">
        <ele>1870.38</ele>
        <time>2015-11-07T14:40:30Z</time>
      </trkpt>
      <trkpt lat="42.72829" lon="1.61345">
        <ele>1869.42</ele>
        <time>2015-11-07T14:40:48Z</time>
      </trkpt>
      <trkpt lat="42.72852" lon="1.61334">
        <ele>1868.94</ele>
        <time>2015-11-07T14:41:06Z</time>
      </trkpt>
      <trkpt lat="42.7287" lon="1.61319">
        <ele>1865.58</ele>
        <time>2015-11-07T14:41:23Z</time>
      </trkpt>
      <trkpt lat="42.72885" lon="1.61297">
        <ele>1863.65</ele>
        <time>2015-11-07T14:41:42Z</time>
      </trkpt>
      <trkpt lat="42.72907" lon="1.61281">
        <ele>1862.21</ele>
        <time>2015-11-07T14:42:01Z</time>
      </trkpt>
      <trkpt lat="42.7293" lon="1.61274">
        <ele>1860.29</ele>
        <time>2015-11-07T14:42:18Z</time>
      </trkpt>
      <trkpt lat="42.7295" lon="1.61274">
        <ele>1858.85</ele>
        <time>2015-11-07T14:42:33Z</time>
      </trkpt>
      <trkpt lat="42.72977" lon="1.61288">
        <ele>1856.44</ele>
        <time>2015-11-07T14:42:53Z</time>
      </trkpt>
      <trkpt lat="42.72997" lon="1.61303">
        <ele>1854.04</ele>
        <time>2015-11-07T14:43:10Z</time>
      </trkpt>
      <trkpt lat="42.73" lon="1.61306">
        <ele>1852.6</ele>
        <time>2015-11-07T14:43:13Z</time>
      </trkpt>
      <trkpt lat="42.73018" lon="1.61321">
        <ele>1852.12</ele>
        <time>2015-11-07T14:43:29Z</time>
      </trkpt>
      <trkpt lat="42.73039" lon="1.6133">
        <ele>1850.19</ele>
        <time>2015-11-07T14:43:46Z</time>
      </trkpt>
      <trkpt lat="42.73062" lon="1.61334">
        <ele>1847.79</ele>
        <time>2015-11-07T14:44:03Z</time>
      </trkpt>
      <trkpt lat="42.73088" lon="1.6134">
        <ele>1847.31</ele>
        <time>2015-11-07T14:44:21Z</time>
      </trkpt>
      <trkpt lat="42.73108" lon="1.61351">
        <ele>1846.35</ele>
        <time>2015-11-07T14:44:37Z</time>
      </trkpt>
      <trkpt lat="42.73133" lon="1.61368">
        <ele>1846.35</ele>
        <time>2015-11-07T14:44:58Z</time>
      </trkpt>
      <trkpt lat="42.73153" lon="1.61383">
        <ele>1847.79</ele>
        <time>2015-11-07T14:45:14Z</time>
      </trkpt>
      <trkpt lat="42.73172" lon="1.61401">
        <ele>1848.27</ele>
        <time>2015-11-07T14:45:30Z</time>
      </trkpt>
      <trkpt lat="42.7318" lon="1.61428">
        <ele>1849.71</ele>
        <time>2015-11-07T14:45:47Z</time>
      </trkpt>
      <trkpt lat="42.73188" lon="1.61449">
        <ele>1851.16</ele>
        <time>2015-11-07T14:46:01Z</time>
      </trkpt>
      <trkpt lat="42.73207" lon="1.61461">
        <ele>1852.6</ele>
        <time>2015-11-07T14:46:17Z</time>
      </trkpt>
      <trkpt lat="42.73215" lon="1.61488">
        <ele>1853.08</ele>
        <time>2015-11-07T14:46:33Z</time>
      </trkpt>
      <trkpt lat="42.73229" lon="1.61515">
        <ele>1855</ele>
        <time>2015-11-07T14:46:51Z</time>
      </trkpt>
      <trkpt lat="42.73235" lon="1.61541">
        <ele>1856.44</ele>
        <time>2015-11-07T14:47:06Z</time>
      </trkpt>
      <trkpt lat="42.73242" lon="1.61569">
        <ele>1857.89</ele>
        <time>2015-11-07T14:47:23Z</time>
      </trkpt>
      <trkpt lat="42.73253" lon="1.6159">
        <ele>1857.4</ele>
        <time>2015-11-07T14:47:39Z</time>
      </trkpt>
      <trkpt lat="42.73254" lon="1.61613">
        <ele>1859.33</ele>
        <time>2015-11-07T14:47:55Z</time>
      </trkpt>
      <trkpt lat="42.73259" lon="1.61638">
        <ele>1859.81</ele>
        <time>2015-11-07T14:48:11Z</time>
      </trkpt>
      <trkpt lat="42.7327" lon="1.61658">
        <ele>1860.77</ele>
        <time>2015-11-07T14:48:27Z</time>
      </trkpt>
      <trkpt lat="42.73278" lon="1.61678">
        <ele>1861.25</ele>
        <time>2015-11-07T14:48:42Z</time>
      </trkpt>
      <trkpt lat="42.73287" lon="1.61698">
        <ele>1862.69</ele>
        <time>2015-11-07T14:48:58Z</time>
      </trkpt>
      <trkpt lat="42.73289" lon="1.617">
        <ele>1862.69</ele>
        <time>2015-11-07T14:49:00Z</time>
      </trkpt>
      <trkpt lat="42.7329" lon="1.61707">
        <ele>1862.69</ele>
        <time>2015-11-07T14:49:05Z</time>
      </trkpt>
      <trkpt lat="42.73292" lon="1.61716">
        <ele>1863.17</ele>
        <time>2015-11-07T14:49:11Z</time>
      </trkpt>
      <trkpt lat="42.73291" lon="1.6174">
        <ele>1865.58</ele>
        <time>2015-11-07T14:49:27Z</time>
      </trkpt>
      <trkpt lat="42.73288" lon="1.61765">
        <ele>1865.58</ele>
        <time>2015-11-07T14:49:43Z</time>
      </trkpt>
      <trkpt lat="42.73291" lon="1.61792">
        <ele>1867.5</ele>
        <time>2015-11-07T14:49:59Z</time>
      </trkpt>
      <trkpt lat="42.73285" lon="1.61817">
        <ele>1868.46</ele>
        <time>2015-11-07T14:50:15Z</time>
      </trkpt>
      <trkpt lat="42.73276" lon="1.61836">
        <ele>1869.42</ele>
        <time>2015-11-07T14:50:30Z</time>
      </trkpt>
      <trkpt lat="42.73267" lon="1.61852">
        <ele>1868.94</ele>
        <time>2015-11-07T14:50:44Z</time>
      </trkpt>
      <trkpt lat="42.73266" lon="1.61855">
        <ele>1872.79</ele>
        <time>2015-11-07T14:50:46Z</time>
      </trkpt>
      <trkpt lat="42.73259" lon="1.61873">
        <ele>1871.82</ele>
        <time>2015-11-07T14:51:01Z</time>
      </trkpt>
      <trkpt lat="42.73253" lon="1.61889">
        <ele>1872.3</ele>
        <time>2015-11-07T14:51:14Z</time>
      </trkpt>
      <trkpt lat="42.7325" lon="1.61898">
        <ele>1873.27</ele>
        <time>2015-11-07T14:51:25Z</time>
      </trkpt>
      <trkpt lat="42.73244" lon="1.61907">
        <ele>1873.75</ele>
        <time>2015-11-07T14:51:32Z</time>
      </trkpt>
      <trkpt lat="42.73236" lon="1.6193">
        <ele>1873.75</ele>
        <time>2015-11-07T14:51:49Z</time>
      </trkpt>
      <trkpt lat="42.73234" lon="1.61964">
        <ele>1873.75</ele>
        <time>2015-11-07T14:52:09Z</time>
      </trkpt>
      <trkpt lat="42.73234" lon="1.6197">
        <ele>1872.79</ele>
        <time>2015-11-07T14:52:19Z</time>
      </trkpt>
      <trkpt lat="42.73233" lon="1.61969">
        <ele>1875.67</ele>
        <time>2015-11-07T14:52:31Z</time>
      </trkpt>
      <trkpt lat="42.73233" lon="1.6197">
        <ele>1871.82</ele>
        <time>2015-11-07T14:52:34Z</time>
      </trkpt>
      <trkpt lat="42.73233" lon="1.6197">
        <ele>1874.71</ele>
        <time>2015-11-07T14:52:56Z</time>
      </trkpt>
      <trkpt lat="42.73231" lon="1.61978">
        <ele>1871.34</ele>
        <time>2015-11-07T14:53:05Z</time>
      </trkpt>
      <trkpt lat="42.73229" lon="1.62002">
        <ele>1871.34</ele>
        <time>2015-11-07T14:53:22Z</time>
      </trkpt>
      <trkpt lat="42.73225" lon="1.62031">
        <ele>1870.86</ele>
        <time>2015-11-07T14:53:39Z</time>
      </trkpt>
      <trkpt lat="42.73224" lon="1.62068">
        <ele>1867.5</ele>
        <time>2015-11-07T14:54:00Z</time>
      </trkpt>
      <trkpt lat="42.73224" lon="1.621">
        <ele>1866.54</ele>
        <time>2015-11-07T14:54:17Z</time>
      </trkpt>
      <trkpt lat="42.7322" lon="1.62127">
        <ele>1864.61</ele>
        <time>2015-11-07T14:54:33Z</time>
      </trkpt>
      <trkpt lat="42.73216" lon="1.62155">
        <ele>1863.65</ele>
        <time>2015-11-07T14:54:49Z</time>
      </trkpt>
      <trkpt lat="42.73213" lon="1.62184">
        <ele>1862.69</ele>
        <time>2015-11-07T14:55:05Z</time>
      </trkpt>
      <trkpt lat="42.73209" lon="1.62215">
        <ele>1860.29</ele>
        <time>2015-11-07T14:55:22Z</time>
      </trkpt>
      <trkpt lat="42.73207" lon="1.62245">
        <ele>1857.89</ele>
        <time>2015-11-07T14:55:40Z</time>
      </trkpt>
      <trkpt lat="42.73203" lon="1.62272">
        <ele>1857.89</ele>
        <time>2015-11-07T14:55:55Z</time>
      </trkpt>
      <trkpt lat="42.73203" lon="1.62279">
        <ele>1856.92</ele>
        <time>2015-11-07T14:55:59Z</time>
      </trkpt>
      <trkpt lat="42.73202" lon="1.623">
        <ele>1856.44</ele>
        <time>2015-11-07T14:56:12Z</time>
      </trkpt>
      <trkpt lat="42.73204" lon="1.62331">
        <ele>1854.52</ele>
        <time>2015-11-07T14:56:29Z</time>
      </trkpt>
      <trkpt lat="42.7321" lon="1.62363">
        <ele>1852.6</ele>
        <time>2015-11-07T14:56:48Z</time>
      </trkpt>
      <trkpt lat="42.73216" lon="1.62389">
        <ele>1851.16</ele>
        <time>2015-11-07T14:57:05Z</time>
      </trkpt>
      <trkpt lat="42.73227" lon="1.62416">
        <ele>1849.71</ele>
        <time>2015-11-07T14:57:23Z</time>
      </trkpt>
      <trkpt lat="42.73229" lon="1.62419">
        <ele>1849.71</ele>
        <time>2015-11-07T14:57:26Z</time>
      </trkpt>
      <trkpt lat="42.73241" lon="1.6244">
        <ele>1848.27</ele>
        <time>2015-11-07T14:57:43Z</time>
      </trkpt>
      <trkpt lat="42.73251" lon="1.62453">
        <ele>1846.83</ele>
        <time>2015-11-07T14:57:57Z</time>
      </trkpt>
      <trkpt lat="42.73254" lon="1.62458">
        <ele>1847.79</ele>
        <time>2015-11-07T14:58:03Z</time>
      </trkpt>
      <trkpt lat="42.73251" lon="1.62463">
        <ele>1845.39</ele>
        <time>2015-11-07T14:58:07Z</time>
      </trkpt>
      <trkpt lat="42.7325" lon="1.62466">
        <ele>1844.91</ele>
        <time>2015-11-07T14:58:09Z</time>
      </trkpt>
      <trkpt lat="42.73247" lon="1.6248">
        <ele>1842.5</ele>
        <time>2015-11-07T14:58:18Z</time>
      </trkpt>
      <trkpt lat="42.73243" lon="1.62483">
        <ele>1840.1</ele>
        <time>2015-11-07T14:58:23Z</time>
      </trkpt>
      <trkpt lat="42.73249" lon="1.62505">
        <ele>1838.18</ele>
        <time>2015-11-07T14:58:38Z</time>
      </trkpt>
      <trkpt lat="42.73252" lon="1.62525">
        <ele>1835.77</ele>
        <time>2015-11-07T14:58:51Z</time>
      </trkpt>
      <trkpt lat="42.73251" lon="1.62532">
        <ele>1833.85</ele>
        <time>2015-11-07T14:58:56Z</time>
      </trkpt>
      <trkpt lat="42.73249" lon="1.62533">
        <ele>1833.85</ele>
        <time>2015-11-07T14:58:58Z</time>
      </trkpt>
      <trkpt lat="42.73251" lon="1.6255">
        <ele>1829.53</ele>
        <time>2015-11-07T14:59:08Z</time>
      </trkpt>
      <trkpt lat="42.73257" lon="1.62572">
        <ele>1827.6</ele>
        <time>2015-11-07T14:59:21Z</time>
      </trkpt>
      <trkpt lat="42.7327" lon="1.62594">
        <ele>1827.12</ele>
        <time>2015-11-07T14:59:36Z</time>
      </trkpt>
      <trkpt lat="42.73274" lon="1.62597">
        <ele>1827.6</ele>
        <time>2015-11-07T14:59:47Z</time>
      </trkpt>
      <trkpt lat="42.73281" lon="1.62615">
        <ele>1826.16</ele>
        <time>2015-11-07T15:00:00Z</time>
      </trkpt>
      <trkpt lat="42.73294" lon="1.62633">
        <ele>1825.2</ele>
        <time>2015-11-07T15:00:15Z</time>
      </trkpt>
      <trkpt lat="42.73311" lon="1.62647">
        <ele>1822.8</ele>
        <time>2015-11-07T15:00:31Z</time>
      </trkpt>
      <trkpt lat="42.73313" lon="1.6265">
        <ele>1822.8</ele>
        <time>2015-11-07T15:00:33Z</time>
      </trkpt>
      <trkpt lat="42.7331" lon="1.62661">
        <ele>1821.35</ele>
        <time>2015-11-07T15:00:40Z</time>
      </trkpt>
      <trkpt lat="42.73307" lon="1.62688">
        <ele>1818.95</ele>
        <time>2015-11-07T15:00:56Z</time>
      </trkpt>
      <trkpt lat="42.73307" lon="1.62704">
        <ele>1815.59</ele>
        <time>2015-11-07T15:01:05Z</time>
      </trkpt>
      <trkpt lat="42.73307" lon="1.62708">
        <ele>1815.11</ele>
        <time>2015-11-07T15:01:14Z</time>
      </trkpt>
      <trkpt lat="42.73305" lon="1.62711">
        <ele>1816.55</ele>
        <time>2015-11-07T15:01:16Z</time>
      </trkpt>
      <trkpt lat="42.73297" lon="1.62727">
        <ele>1815.11</ele>
        <time>2015-11-07T15:01:30Z</time>
      </trkpt>
      <trkpt lat="42.73292" lon="1.62734">
        <ele>1813.66</ele>
        <time>2015-11-07T15:01:47Z</time>
      </trkpt>
      <trkpt lat="42.73287" lon="1.62743">
        <ele>1814.63</ele>
        <time>2015-11-07T15:01:55Z</time>
      </trkpt>
      <trkpt lat="42.73293" lon="1.62751">
        <ele>1814.15</ele>
        <time>2015-11-07T15:02:09Z</time>
      </trkpt>
      <trkpt lat="42.73293" lon="1.6275">
        <ele>1814.15</ele>
        <time>2015-11-07T15:02:10Z</time>
      </trkpt>
      <trkpt lat="42.73289" lon="1.62749">
        <ele>1814.63</ele>
        <time>2015-11-07T15:02:14Z</time>
      </trkpt>
      <trkpt lat="42.73288" lon="1.62749">
        <ele>1814.15</ele>
        <time>2015-11-07T15:02:15Z</time>
      </trkpt>
      <trkpt lat="42.73286" lon="1.62747">
        <ele>1812.22</ele>
        <time>2015-11-07T15:02:17Z</time>
      </trkpt>
      <trkpt lat="42.7328" lon="1.62747">
        <ele>1813.66</ele>
        <time>2015-11-07T15:02:22Z</time>
      </trkpt>
      <trkpt lat="42.73276" lon="1.62753">
        <ele>1813.66</ele>
        <time>2015-11-07T15:02:27Z</time>
      </trkpt>
      <trkpt lat="42.73265" lon="1.62764">
        <ele>1812.22</ele>
        <time>2015-11-07T15:02:41Z</time>
      </trkpt>
      <trkpt lat="42.73254" lon="1.62773">
        <ele>1811.74</ele>
        <time>2015-11-07T15:02:52Z</time>
      </trkpt>
      <trkpt lat="42.7325" lon="1.62774">
        <ele>1811.74</ele>
        <time>2015-11-07T15:02:56Z</time>
      </trkpt>
      <trkpt lat="42.73234" lon="1.62781">
        <ele>1809.34</ele>
        <time>2015-11-07T15:03:11Z</time>
      </trkpt>
      <trkpt lat="42.73224" lon="1.62787">
        <ele>1808.38</ele>
        <time>2015-11-07T15:03:25Z</time>
      </trkpt>
      <trkpt lat="42.73224" lon="1.62785">
        <ele>1808.38</ele>
        <time>2015-11-07T15:03:43Z</time>
      </trkpt>
      <trkpt lat="42.73225" lon="1.62787">
        <ele>1808.38</ele>
        <time>2015-11-07T15:04:02Z</time>
      </trkpt>
      <trkpt lat="42.73223" lon="1.62789">
        <ele>1808.86</ele>
        <time>2015-11-07T15:04:24Z</time>
      </trkpt>
      <trkpt lat="42.73224" lon="1.62787">
        <ele>1810.3</ele>
        <time>2015-11-07T15:04:31Z</time>
      </trkpt>
      <trkpt lat="42.73224" lon="1.62786">
        <ele>1810.78</ele>
        <time>2015-11-07T15:04:45Z</time>
      </trkpt>
      <trkpt lat="42.73224" lon="1.62787">
        <ele>1805.49</ele>
        <time>2015-11-07T15:04:52Z</time>
      </trkpt>
      <trkpt lat="42.73224" lon="1.62788">
        <ele>1811.26</ele>
        <time>2015-11-07T15:04:53Z</time>
      </trkpt>
      <trkpt lat="42.73224" lon="1.62788">
        <ele>1811.26</ele>
        <time>2015-11-07T15:04:54Z</time>
      </trkpt>
      <trkpt lat="42.73222" lon="1.62788">
        <ele>1808.86</ele>
        <time>2015-11-07T15:05:13Z</time>
      </trkpt>
      <trkpt lat="42.73212" lon="1.62786">
        <ele>1807.9</ele>
        <time>2015-11-07T15:05:25Z</time>
      </trkpt>
      <trkpt lat="42.73204" lon="1.62795">
        <ele>1807.42</ele>
        <time>2015-11-07T15:05:33Z</time>
      </trkpt>
      <trkpt lat="42.73196" lon="1.6281">
        <ele>1804.53</ele>
        <time>2015-11-07T15:05:49Z</time>
      </trkpt>
      <trkpt lat="42.73184" lon="1.62819">
        <ele>1802.61</ele>
        <time>2015-11-07T15:06:03Z</time>
      </trkpt>
      <trkpt lat="42.73182" lon="1.62822">
        <ele>1801.17</ele>
        <time>2015-11-07T15:06:06Z</time>
      </trkpt>
      <trkpt lat="42.73181" lon="1.62833">
        <ele>1800.69</ele>
        <time>2015-11-07T15:06:12Z</time>
      </trkpt>
      <trkpt lat="42.73162" lon="1.62856">
        <ele>1799.24</ele>
        <time>2015-11-07T15:06:30Z</time>
      </trkpt>
      <trkpt lat="42.7316" lon="1.6286">
        <ele>1798.28</ele>
        <time>2015-11-07T15:06:33Z</time>
      </trkpt>
      <trkpt lat="42.73155" lon="1.62864">
        <ele>1797.8</ele>
        <time>2015-11-07T15:06:37Z</time>
      </trkpt>
      <trkpt lat="42.73152" lon="1.6287">
        <ele>1797.8</ele>
        <time>2015-11-07T15:06:41Z</time>
      </trkpt>
      <trkpt lat="42.73147" lon="1.62876">
        <ele>1795.88</ele>
        <time>2015-11-07T15:06:46Z</time>
      </trkpt>
      <trkpt lat="42.73128" lon="1.62902">
        <ele>1792.52</ele>
        <time>2015-11-07T15:07:03Z</time>
      </trkpt>
      <trkpt lat="42.73124" lon="1.62908">
        <ele>1791.55</ele>
        <time>2015-11-07T15:07:07Z</time>
      </trkpt>
      <trkpt lat="42.73119" lon="1.62912">
        <ele>1790.11</ele>
        <time>2015-11-07T15:07:12Z</time>
      </trkpt>
      <trkpt lat="42.73102" lon="1.62926">
        <ele>1786.75</ele>
        <time>2015-11-07T15:07:26Z</time>
      </trkpt>
      <trkpt lat="42.73083" lon="1.6294">
        <ele>1783.86</ele>
        <time>2015-11-07T15:07:42Z</time>
      </trkpt>
      <trkpt lat="42.73073" lon="1.62943">
        <ele>1780.5</ele>
        <time>2015-11-07T15:07:49Z</time>
      </trkpt>
      <trkpt lat="42.73072" lon="1.62944">
        <ele>1780.5</ele>
        <time>2015-11-07T15:07:50Z</time>
      </trkpt>
      <trkpt lat="42.73065" lon="1.62938">
        <ele>1780.02</ele>
        <time>2015-11-07T15:07:56Z</time>
      </trkpt>
      <trkpt lat="42.73058" lon="1.62932">
        <ele>1777.61</ele>
        <time>2015-11-07T15:08:01Z</time>
      </trkpt>
      <trkpt lat="42.73046" lon="1.62926">
        <ele>1774.73</ele>
        <time>2015-11-07T15:08:09Z</time>
      </trkpt>
      <trkpt lat="42.73041" lon="1.62925">
        <ele>1772.81</ele>
        <time>2015-11-07T15:08:22Z</time>
      </trkpt>
      <trkpt lat="42.73042" lon="1.62923">
        <ele>1771.37</ele>
        <time>2015-11-07T15:08:24Z</time>
      </trkpt>
      <trkpt lat="42.73035" lon="1.62911">
        <ele>1770.41</ele>
        <time>2015-11-07T15:08:33Z</time>
      </trkpt>
      <trkpt lat="42.73033" lon="1.62904">
        <ele>1770.89</ele>
        <time>2015-11-07T15:08:47Z</time>
      </trkpt>
      <trkpt lat="42.73033" lon="1.62903">
        <ele>1767.52</ele>
        <time>2015-11-07T15:08:52Z</time>
      </trkpt>
      <trkpt lat="42.73034" lon="1.62903">
        <ele>1773.29</ele>
        <time>2015-11-07T15:08:54Z</time>
      </trkpt>
      <trkpt lat="42.73034" lon="1.62903">
        <ele>1769.92</ele>
        <time>2015-11-07T15:08:55Z</time>
      </trkpt>
      <trkpt lat="42.73034" lon="1.62903">
        <ele>1769.44</ele>
        <time>2015-11-07T15:08:59Z</time>
      </trkpt>
      <trkpt lat="42.73033" lon="1.62906">
        <ele>1770.89</ele>
        <time>2015-11-07T15:09:08Z</time>
      </trkpt>
      <trkpt lat="42.73028" lon="1.62908">
        <ele>1765.6</ele>
        <time>2015-11-07T15:09:14Z</time>
      </trkpt>
      <trkpt lat="42.73027" lon="1.62908">
        <ele>1771.37</ele>
        <time>2015-11-07T15:09:15Z</time>
      </trkpt>
      <trkpt lat="42.73026" lon="1.62908">
        <ele>1768</ele>
        <time>2015-11-07T15:09:16Z</time>
      </trkpt>
      <trkpt lat="42.7302" lon="1.6291">
        <ele>1766.08</ele>
        <time>2015-11-07T15:09:23Z</time>
      </trkpt>
      <trkpt lat="42.73003" lon="1.62911">
        <ele>1762.23</ele>
        <time>2015-11-07T15:09:33Z</time>
      </trkpt>
      <trkpt lat="42.7299" lon="1.62904">
        <ele>1759.83</ele>
        <time>2015-11-07T15:09:41Z</time>
      </trkpt>
      <trkpt lat="42.72977" lon="1.62896">
        <ele>1757.43</ele>
        <time>2015-11-07T15:09:51Z</time>
      </trkpt>
      <trkpt lat="42.72976" lon="1.62894">
        <ele>1756.95</ele>
        <time>2015-11-07T15:09:54Z</time>
      </trkpt>
      <trkpt lat="42.72959" lon="1.6288">
        <ele>1755.02</ele>
        <time>2015-11-07T15:10:07Z</time>
      </trkpt>
      <trkpt lat="42.72947" lon="1.62866">
        <ele>1754.06</ele>
        <time>2015-11-07T15:10:17Z</time>
      </trkpt>
      <trkpt lat="42.72944" lon="1.6286">
        <ele>1753.58</ele>
        <time>2015-11-07T15:10:21Z</time>
      </trkpt>
      <trkpt lat="42.72938" lon="1.62853">
        <ele>1752.14</ele>
        <time>2015-11-07T15:10:27Z</time>
      </trkpt>
      <trkpt lat="42.72928" lon="1.6284">
        <ele>1751.18</ele>
        <time>2015-11-07T15:10:36Z</time>
      </trkpt>
      <trkpt lat="42.72923" lon="1.62838">
        <ele>1749.74</ele>
        <time>2015-11-07T15:10:39Z</time>
      </trkpt>
      <trkpt lat="42.7291" lon="1.62823">
        <ele>1747.81</ele>
        <time>2015-11-07T15:10:51Z</time>
      </trkpt>
      <trkpt lat="42.72907" lon="1.62812">
        <ele>1745.89</ele>
        <time>2015-11-07T15:10:58Z</time>
      </trkpt>
      <trkpt lat="42.72906" lon="1.62808">
        <ele>1745.41</ele>
        <time>2015-11-07T15:11:00Z</time>
      </trkpt>
      <trkpt lat="42.72903" lon="1.62803">
        <ele>1743.01</ele>
        <time>2015-11-07T15:11:03Z</time>
      </trkpt>
      <trkpt lat="42.72901" lon="1.62801">
        <ele>1743.01</ele>
        <time>2015-11-07T15:11:05Z</time>
      </trkpt>
      <trkpt lat="42.72895" lon="1.62801">
        <ele>1741.08</ele>
        <time>2015-11-07T15:11:09Z</time>
      </trkpt>
      <trkpt lat="42.72891" lon="1.628">
        <ele>1740.6</ele>
        <time>2015-11-07T15:11:12Z</time>
      </trkpt>
      <trkpt lat="42.72883" lon="1.62803">
        <ele>1738.68</ele>
        <time>2015-11-07T15:11:19Z</time>
      </trkpt>
      <trkpt lat="42.72877" lon="1.62804">
        <ele>1736.28</ele>
        <time>2015-11-07T15:11:24Z</time>
      </trkpt>
      <trkpt lat="42.72868" lon="1.62812">
        <ele>1732.91</ele>
        <time>2015-11-07T15:11:33Z</time>
      </trkpt>
      <trkpt lat="42.72867" lon="1.6281">
        <ele>1732.43</ele>
        <time>2015-11-07T15:11:35Z</time>
      </trkpt>
      <trkpt lat="42.72864" lon="1.6281">
        <ele>1731.47</ele>
        <time>2015-11-07T15:11:37Z</time>
      </trkpt>
      <trkpt lat="42.72854" lon="1.62811">
        <ele>1728.59</ele>
        <time>2015-11-07T15:11:44Z</time>
      </trkpt>
      <trkpt lat="42.72852" lon="1.62811">
        <ele>1728.11</ele>
        <time>2015-11-07T15:11:46Z</time>
      </trkpt>
      <trkpt lat="42.72848" lon="1.62809">
        <ele>1727.63</ele>
        <time>2015-11-07T15:11:49Z</time>
      </trkpt>
      <trkpt lat="42.72838" lon="1.62802">
        <ele>1722.82</ele>
        <time>2015-11-07T15:12:00Z</time>
      </trkpt>
      <trkpt lat="42.72837" lon="1.62801">
        <ele>1722.82</ele>
        <time>2015-11-07T15:12:01Z</time>
      </trkpt>
      <trkpt lat="42.72836" lon="1.628">
        <ele>1722.34</ele>
        <time>2015-11-07T15:12:02Z</time>
      </trkpt>
      <trkpt lat="42.72828" lon="1.62786">
        <ele>1719.46</ele>
        <time>2015-11-07T15:12:14Z</time>
      </trkpt>
      <trkpt lat="42.72828" lon="1.62785">
        <ele>1719.46</ele>
        <time>2015-11-07T15:12:15Z</time>
      </trkpt>
      <trkpt lat="42.72821" lon="1.62773">
        <ele>1716.09</ele>
        <time>2015-11-07T15:12:22Z</time>
      </trkpt>
      <trkpt lat="42.7282" lon="1.62768">
        <ele>1715.13</ele>
        <time>2015-11-07T15:12:26Z</time>
      </trkpt>
      <trkpt lat="42.72818" lon="1.62764">
        <ele>1714.65</ele>
        <time>2015-11-07T15:12:28Z</time>
      </trkpt>
      <trkpt lat="42.72813" lon="1.62755">
        <ele>1711.28</ele>
        <time>2015-11-07T15:12:35Z</time>
      </trkpt>
      <trkpt lat="42.72811" lon="1.62748">
        <ele>1709.84</ele>
        <time>2015-11-07T15:12:39Z</time>
      </trkpt>
      <trkpt lat="42.72811" lon="1.62746">
        <ele>1709.84</ele>
        <time>2015-11-07T15:12:41Z</time>
      </trkpt>
      <trkpt lat="42.7281" lon="1.62741">
        <ele>1708.88</ele>
        <time>2015-11-07T15:12:44Z</time>
      </trkpt>
      <trkpt lat="42.7281" lon="1.62737">
        <ele>1706.96</ele>
        <time>2015-11-07T15:12:46Z</time>
      </trkpt>
      <trkpt lat="42.72809" lon="1.62723">
        <ele>1703.59</ele>
        <time>2015-11-07T15:12:55Z</time>
      </trkpt>
      <trkpt lat="42.72809" lon="1.62716">
        <ele>1702.15</ele>
        <time>2015-11-07T15:12:59Z</time>
      </trkpt>
      <trkpt lat="42.72808" lon="1.62711">
        <ele>1701.19</ele>
        <time>2015-11-07T15:13:01Z</time>
      </trkpt>
      <trkpt lat="42.72807" lon="1.62706">
        <ele>1699.75</ele>
        <time>2015-11-07T15:13:04Z</time>
      </trkpt>
      <trkpt lat="42.72807" lon="1.62692">
        <ele>1696.38</ele>
        <time>2015-11-07T15:13:13Z</time>
      </trkpt>
      <trkpt lat="42.72807" lon="1.62691">
        <ele>1696.38</ele>
        <time>2015-11-07T15:13:14Z</time>
      </trkpt>
      <trkpt lat="42.72806" lon="1.62687">
        <ele>1694.94</ele>
        <time>2015-11-07T15:13:18Z</time>
      </trkpt>
      <trkpt lat="42.72804" lon="1.62684">
        <ele>1693.98</ele>
        <time>2015-11-07T15:13:20Z</time>
      </trkpt>
      <trkpt lat="42.728" lon="1.62678">
        <ele>1692.06</ele>
        <time>2015-11-07T15:13:25Z</time>
      </trkpt>
      <trkpt lat="42.72795" lon="1.62683">
        <ele>1689.65</ele>
        <time>2015-11-07T15:13:31Z</time>
      </trkpt>
      <trkpt lat="42.72794" lon="1.62684">
        <ele>1689.17</ele>
        <time>2015-11-07T15:13:32Z</time>
      </trkpt>
      <trkpt lat="42.72787" lon="1.62692">
        <ele>1685.33</ele>
        <time>2015-11-07T15:13:45Z</time>
      </trkpt>
      <trkpt lat="42.72779" lon="1.62694">
        <ele>1682.44</ele>
        <time>2015-11-07T15:13:54Z</time>
      </trkpt>
      <trkpt lat="42.72779" lon="1.62695">
        <ele>1682.44</ele>
        <time>2015-11-07T15:13:55Z</time>
      </trkpt>
      <trkpt lat="42.72778" lon="1.62697">
        <ele>1681.96</ele>
        <time>2015-11-07T15:13:56Z</time>
      </trkpt>
      <trkpt lat="42.72771" lon="1.62702">
        <ele>1678.6</ele>
        <time>2015-11-07T15:14:04Z</time>
      </trkpt>
      <trkpt lat="42.72765" lon="1.62704">
        <ele>1675.72</ele>
        <time>2015-11-07T15:14:14Z</time>
      </trkpt>
      <trkpt lat="42.72763" lon="1.62705">
        <ele>1674.75</ele>
        <time>2015-11-07T15:14:16Z</time>
      </trkpt>
      <trkpt lat="42.7276" lon="1.62707">
        <ele>1673.31</ele>
        <time>2015-11-07T15:14:20Z</time>
      </trkpt>
      <trkpt lat="42.72753" lon="1.62716">
        <ele>1669.95</ele>
        <time>2015-11-07T15:14:30Z</time>
      </trkpt>
      <trkpt lat="42.72748" lon="1.62717">
        <ele>1667.54</ele>
        <time>2015-11-07T15:14:37Z</time>
      </trkpt>
      <trkpt lat="42.72741" lon="1.62724">
        <ele>1664.66</ele>
        <time>2015-11-07T15:14:49Z</time>
      </trkpt>
      <trkpt lat="42.72736" lon="1.62727">
        <ele>1661.3</ele>
        <time>2015-11-07T15:14:57Z</time>
      </trkpt>
      <trkpt lat="42.72736" lon="1.62726">
        <ele>1659.85</ele>
        <time>2015-11-07T15:15:00Z</time>
      </trkpt>
      <trkpt lat="42.72734" lon="1.62718">
        <ele>1656.49</ele>
        <time>2015-11-07T15:15:15Z</time>
      </trkpt>
      <trkpt lat="42.72732" lon="1.62713">
        <ele>1654.09</ele>
        <time>2015-11-07T15:15:22Z</time>
      </trkpt>
      <trkpt lat="42.72731" lon="1.62707">
        <ele>1651.68</ele>
        <time>2015-11-07T15:15:29Z</time>
      </trkpt>
      <trkpt lat="42.72731" lon="1.62707">
        <ele>1651.68</ele>
        <time>2015-11-07T15:15:30Z</time>
      </trkpt>
      <trkpt lat="42.7273" lon="1.627">
        <ele>1647.84</ele>
        <time>2015-11-07T15:15:36Z</time>
      </trkpt>
      <trkpt lat="42.72728" lon="1.62689">
        <ele>1644.47</ele>
        <time>2015-11-07T15:15:47Z</time>
      </trkpt>
      <trkpt lat="42.72728" lon="1.62682">
        <ele>1643.03</ele>
        <time>2015-11-07T15:15:51Z</time>
      </trkpt>
      <trkpt lat="42.72728" lon="1.62676">
        <ele>1642.07</ele>
        <time>2015-11-07T15:15:54Z</time>
      </trkpt>
      <trkpt lat="42.7273" lon="1.62669">
        <ele>1640.15</ele>
        <time>2015-11-07T15:15:58Z</time>
      </trkpt>
      <trkpt lat="42.7273" lon="1.62662">
        <ele>1639.19</ele>
        <time>2015-11-07T15:16:02Z</time>
      </trkpt>
      <trkpt lat="42.7273" lon="1.62656">
        <ele>1636.78</ele>
        <time>2015-11-07T15:16:06Z</time>
      </trkpt>
      <trkpt lat="42.72731" lon="1.6264">
        <ele>1633.42</ele>
        <time>2015-11-07T15:16:16Z</time>
      </trkpt>
      <trkpt lat="42.72729" lon="1.62632">
        <ele>1630.05</ele>
        <time>2015-11-07T15:16:24Z</time>
      </trkpt>
      <trkpt lat="42.72728" lon="1.62626">
        <ele>1628.13</ele>
        <time>2015-11-07T15:16:29Z</time>
      </trkpt>
      <trkpt lat="42.72724" lon="1.62616">
        <ele>1624.77</ele>
        <time>2015-11-07T15:16:39Z</time>
      </trkpt>
      <trkpt lat="42.72724" lon="1.62614">
        <ele>1624.28</ele>
        <time>2015-11-07T15:16:41Z</time>
      </trkpt>
      <trkpt lat="42.7272" lon="1.62612">
        <ele>1622.84</ele>
        <time>2015-11-07T15:16:45Z</time>
      </trkpt>
      <trkpt lat="42.72716" lon="1.62614">
        <ele>1619.96</ele>
        <time>2015-11-07T15:16:53Z</time>
      </trkpt>
      <trkpt lat="42.7271" lon="1.62612">
        <ele>1616.59</ele>
        <time>2015-11-07T15:17:02Z</time>
      </trkpt>
      <trkpt lat="42.72709" lon="1.62612">
        <ele>1616.11</ele>
        <time>2015-11-07T15:17:03Z</time>
      </trkpt>
      <trkpt lat="42.72703" lon="1.62613">
        <ele>1613.23</ele>
        <time>2015-11-07T15:17:10Z</time>
      </trkpt>
      <trkpt lat="42.72696" lon="1.62613">
        <ele>1610.35</ele>
        <time>2015-11-07T15:17:17Z</time>
      </trkpt>
      <trkpt lat="42.72689" lon="1.6261">
        <ele>1608.42</ele>
        <time>2015-11-07T15:17:23Z</time>
      </trkpt>
      <trkpt lat="42.72686" lon="1.62612">
        <ele>1607.94</ele>
        <time>2015-11-07T15:17:25Z</time>
      </trkpt>
      <trkpt lat="42.72679" lon="1.62618">
        <ele>1606.5</ele>
        <time>2015-11-07T15:17:31Z</time>
      </trkpt>
      <trkpt lat="42.72678" lon="1.6262">
        <ele>1606.5</ele>
        <time>2015-11-07T15:17:32Z</time>
      </trkpt>
      <trkpt lat="42.72668" lon="1.62639">
        <ele>1603.62</ele>
        <time>2015-11-07T15:17:46Z</time>
      </trkpt>
      <trkpt lat="42.72667" lon="1.62639">
        <ele>1603.62</ele>
        <time>2015-11-07T15:17:48Z</time>
      </trkpt>
      <trkpt lat="42.72663" lon="1.62639">
        <ele>1602.17</ele>
        <time>2015-11-07T15:18:03Z</time>
      </trkpt>
      <trkpt lat="42.72662" lon="1.62651">
        <ele>1601.69</ele>
        <time>2015-11-07T15:18:15Z</time>
      </trkpt>
      <trkpt lat="42.72662" lon="1.62646">
        <ele>1600.25</ele>
        <time>2015-11-07T15:18:31Z</time>
      </trkpt>
      <trkpt lat="42.72665" lon="1.62645">
        <ele>1600.73</ele>
        <time>2015-11-07T15:19:14Z</time>
      </trkpt>
      <trkpt lat="42.72663" lon="1.62644">
        <ele>1601.21</ele>
        <time>2015-11-07T15:19:41Z</time>
      </trkpt>
      <trkpt lat="42.72658" lon="1.62647">
        <ele>1600.25</ele>
        <time>2015-11-07T15:20:25Z</time>
      </trkpt>
      <trkpt lat="42.72659" lon="1.62646">
        <ele>1599.77</ele>
        <time>2015-11-07T15:21:04Z</time>
      </trkpt>
      <trkpt lat="42.72662" lon="1.62645">
        <ele>1599.29</ele>
        <time>2015-11-07T15:21:41Z</time>
      </trkpt>
      <trkpt lat="42.72658" lon="1.62648">
        <ele>1598.81</ele>
        <time>2015-11-07T15:22:17Z</time>
      </trkpt>
      <trkpt lat="42.7266" lon="1.62645">
        <ele>1599.29</ele>
        <time>2015-11-07T15:22:57Z</time>
      </trkpt>
      <trkpt lat="42.7266" lon="1.62645">
        <ele>1598.81</ele>
        <time>2015-11-07T15:23:36Z</time>
      </trkpt>
      <trkpt lat="42.72657" lon="1.62645">
        <ele>1599.29</ele>
        <time>2015-11-07T15:24:18Z</time>
      </trkpt>
      <trkpt lat="42.72661" lon="1.62648">
        <ele>1598.33</ele>
        <time>2015-11-07T15:24:56Z</time>
      </trkpt>
      <trkpt lat="42.72655" lon="1.62645">
        <ele>1598.33</ele>
        <time>2015-11-07T15:25:28Z</time>
      </trkpt>
      <trkpt lat="42.72656" lon="1.62644">
        <ele>1601.69</ele>
        <time>2015-11-07T15:25:31Z</time>
      </trkpt>
      <trkpt lat="42.72657" lon="1.62644">
        <ele>1598.33</ele>
        <time>2015-11-07T15:25:32Z</time>
      </trkpt>
      <trkpt lat="42.7266" lon="1.62644">
        <ele>1598.81</ele>
        <time>2015-11-07T15:25:49Z</time>
      </trkpt>
    </trkseg>
  </trk>
</gpx>